<?xml version="1.0" encoding="UTF-8"?>
<gpx version="1.1" creator="https://www.youtrack.es" xsi:schemaLocation="http://www.topografix.com/GPX/1/1 http://www.topografix.com/GPX/1/1/gpx.xsd http://www.garmin.com/xmlschemas/GpxExtensions/v3 http://www.garmin.com/xmlschemas/GpxExtensionsv3.xsd http://www.garmin.com/xmlschemas/TrackPointExtension/v1 http://www.garmin.com/xmlschemas/TrackPointExtensionv1.xsd" xmlns:gpxtpx="http://www.garmin.com/xmlschemas/TrackPointExtension/v1" xmlns:gpxx="http://www.garmin.com/xmlschemas/GpxExtensions/v3" xmlns:xsi="http://www.w3.org/2001/XMLSchema-instance">
  <metadata>
    <link href="https://www.youtrack.es">
      <text>YouTrack.es</text>
    </link>
    <time>2026-05-08T04:29:13Z</time>
  </metadata>
  <trk>
    <src>https://www.youtrack.es</src>
    <link href="https://www.youtrack.es/ruta/27282-gran-canaria">
      <text>YouTrack.es</text>
    </link>
    <trkseg>
      <trkpt lat="28.104950" lon="-15.703253">
        <ele>73.086</ele>
        <time>2021-10-26T07:23:29Z</time>
      </trkpt>
      <trkpt lat="28.099892" lon="-15.702670">
        <ele>45.160</ele>
        <time>2021-10-26T07:23:32Z</time>
      </trkpt>
      <trkpt lat="28.102916" lon="-15.701821">
        <ele>55.926</ele>
        <time>2021-10-26T07:23:38Z</time>
      </trkpt>
      <trkpt lat="28.103107" lon="-15.700752">
        <ele>65.208</ele>
        <time>2021-10-26T07:24:21Z</time>
      </trkpt>
      <trkpt lat="28.103957" lon="-15.700919">
        <ele>67.636</ele>
        <time>2021-10-26T07:24:53Z</time>
      </trkpt>
      <trkpt lat="28.105583" lon="-15.699953">
        <ele>80.326</ele>
        <time>2021-10-26T07:26:18Z</time>
      </trkpt>
      <trkpt lat="28.105910" lon="-15.698808">
        <ele>87.613</ele>
        <time>2021-10-26T07:27:06Z</time>
      </trkpt>
      <trkpt lat="28.106961" lon="-15.698076">
        <ele>94.788</ele>
        <time>2021-10-26T07:27:54Z</time>
      </trkpt>
      <trkpt lat="28.108431" lon="-15.693244">
        <ele>121.658</ele>
        <time>2021-10-26T07:30:54Z</time>
      </trkpt>
      <trkpt lat="28.107765" lon="-15.690103">
        <ele>136.291</ele>
        <time>2021-10-26T07:32:44Z</time>
      </trkpt>
      <trkpt lat="28.108471" lon="-15.690189">
        <ele>141.563</ele>
        <time>2021-10-26T07:33:18Z</time>
      </trkpt>
      <trkpt lat="28.109407" lon="-15.692062">
        <ele>154.324</ele>
        <time>2021-10-26T07:35:08Z</time>
      </trkpt>
      <trkpt lat="28.110177" lon="-15.691911">
        <ele>161.953</ele>
        <time>2021-10-26T07:36:29Z</time>
      </trkpt>
      <trkpt lat="28.110608" lon="-15.688223">
        <ele>171.404</ele>
        <time>2021-10-26T07:39:54Z</time>
      </trkpt>
      <trkpt lat="28.109481" lon="-15.685937">
        <ele>156.914</ele>
        <time>2021-10-26T07:40:27Z</time>
      </trkpt>
      <trkpt lat="28.110014" lon="-15.685399">
        <ele>157.508</ele>
        <time>2021-10-26T07:40:36Z</time>
      </trkpt>
      <trkpt lat="28.110830" lon="-15.685759">
        <ele>163.823</ele>
        <time>2021-10-26T07:41:07Z</time>
      </trkpt>
      <trkpt lat="28.111594" lon="-15.684942">
        <ele>170.453</ele>
        <time>2021-10-26T07:41:44Z</time>
      </trkpt>
      <trkpt lat="28.110573" lon="-15.678702">
        <ele>181.950</ele>
        <time>2021-10-26T07:44:40Z</time>
      </trkpt>
      <trkpt lat="28.112306" lon="-15.678623">
        <ele>193.555</ele>
        <time>2021-10-26T07:45:30Z</time>
      </trkpt>
      <trkpt lat="28.114225" lon="-15.674382">
        <ele>185.125</ele>
        <time>2021-10-26T07:47:00Z</time>
      </trkpt>
      <trkpt lat="28.114965" lon="-15.674226">
        <ele>183.368</ele>
        <time>2021-10-26T07:47:10Z</time>
      </trkpt>
      <trkpt lat="28.114803" lon="-15.675291">
        <ele>187.610</ele>
        <time>2021-10-26T07:47:35Z</time>
      </trkpt>
      <trkpt lat="28.115415" lon="-15.675677">
        <ele>194.971</ele>
        <time>2021-10-26T08:00:01Z</time>
      </trkpt>
      <trkpt lat="28.117428" lon="-15.672875">
        <ele>208.671</ele>
        <time>2021-10-26T08:01:41Z</time>
      </trkpt>
      <trkpt lat="28.112937" lon="-15.668955">
        <ele>242.541</ele>
        <time>2021-10-26T08:07:18Z</time>
      </trkpt>
      <trkpt lat="28.110651" lon="-15.669421">
        <ele>259.415</ele>
        <time>2021-10-26T08:08:53Z</time>
      </trkpt>
      <trkpt lat="28.110158" lon="-15.668964">
        <ele>264.508</ele>
        <time>2021-10-26T08:09:17Z</time>
      </trkpt>
      <trkpt lat="28.110511" lon="-15.667851">
        <ele>273.095</ele>
        <time>2021-10-26T08:10:01Z</time>
      </trkpt>
      <trkpt lat="28.110171" lon="-15.666230">
        <ele>280.075</ele>
        <time>2021-10-26T08:11:08Z</time>
      </trkpt>
      <trkpt lat="28.111236" lon="-15.664205">
        <ele>291.752</ele>
        <time>2021-10-26T08:12:29Z</time>
      </trkpt>
      <trkpt lat="28.110542" lon="-15.662695">
        <ele>296.837</ele>
        <time>2021-10-26T08:13:18Z</time>
      </trkpt>
      <trkpt lat="28.111992" lon="-15.661630">
        <ele>311.017</ele>
        <time>2021-10-26T08:14:29Z</time>
      </trkpt>
      <trkpt lat="28.112242" lon="-15.659936">
        <ele>322.150</ele>
        <time>2021-10-26T08:15:38Z</time>
      </trkpt>
      <trkpt lat="28.117263" lon="-15.653282">
        <ele>374.822</ele>
        <time>2021-10-26T08:24:16Z</time>
      </trkpt>
      <trkpt lat="28.116299" lon="-15.651983">
        <ele>382.093</ele>
        <time>2021-10-26T08:25:12Z</time>
      </trkpt>
      <trkpt lat="28.117551" lon="-15.650304">
        <ele>398.773</ele>
        <time>2021-10-26T08:27:38Z</time>
      </trkpt>
      <trkpt lat="28.115203" lon="-15.649098">
        <ele>411.885</ele>
        <time>2021-10-26T08:29:32Z</time>
      </trkpt>
      <trkpt lat="28.117126" lon="-15.646013">
        <ele>439.513</ele>
        <time>2021-10-26T08:32:24Z</time>
      </trkpt>
      <trkpt lat="28.115362" lon="-15.643463">
        <ele>460.508</ele>
        <time>2021-10-26T08:34:34Z</time>
      </trkpt>
      <trkpt lat="28.116839" lon="-15.642547">
        <ele>469.475</ele>
        <time>2021-10-26T08:36:32Z</time>
      </trkpt>
      <trkpt lat="28.116492" lon="-15.642940">
        <ele>468.845</ele>
        <time>2021-10-26T08:38:31Z</time>
      </trkpt>
      <trkpt lat="28.116383" lon="-15.642192">
        <ele>473.952</ele>
        <time>2021-10-26T08:38:59Z</time>
      </trkpt>
      <trkpt lat="28.112119" lon="-15.641137">
        <ele>506.627</ele>
        <time>2021-10-26T08:42:05Z</time>
      </trkpt>
      <trkpt lat="28.110130" lon="-15.641788">
        <ele>521.367</ele>
        <time>2021-10-26T08:43:54Z</time>
      </trkpt>
      <trkpt lat="28.108485" lon="-15.641369">
        <ele>530.540</ele>
        <time>2021-10-26T08:44:51Z</time>
      </trkpt>
      <trkpt lat="28.107890" lon="-15.640443">
        <ele>535.622</ele>
        <time>2021-10-26T08:45:25Z</time>
      </trkpt>
      <trkpt lat="28.111047" lon="-15.638695">
        <ele>552.753</ele>
        <time>2021-10-26T08:47:26Z</time>
      </trkpt>
      <trkpt lat="28.109911" lon="-15.637362">
        <ele>568.233</ele>
        <time>2021-10-26T08:48:57Z</time>
      </trkpt>
      <trkpt lat="28.110155" lon="-15.638391">
        <ele>582.023</ele>
        <time>2021-10-26T08:50:19Z</time>
      </trkpt>
      <trkpt lat="28.108025" lon="-15.639175">
        <ele>592.115</ele>
        <time>2021-10-26T08:53:32Z</time>
      </trkpt>
      <trkpt lat="28.105307" lon="-15.639340">
        <ele>610.108</ele>
        <time>2021-10-26T08:55:23Z</time>
      </trkpt>
      <trkpt lat="28.104810" lon="-15.640144">
        <ele>614.661</ele>
        <time>2021-10-26T08:56:23Z</time>
      </trkpt>
      <trkpt lat="28.105384" lon="-15.638424">
        <ele>630.961</ele>
        <time>2021-10-26T08:57:42Z</time>
      </trkpt>
      <trkpt lat="28.104328" lon="-15.639369">
        <ele>644.368</ele>
        <time>2021-10-26T08:58:50Z</time>
      </trkpt>
      <trkpt lat="28.102872" lon="-15.639370">
        <ele>660.463</ele>
        <time>2021-10-26T09:00:08Z</time>
      </trkpt>
      <trkpt lat="28.103574" lon="-15.639785">
        <ele>670.283</ele>
        <time>2021-10-26T09:01:58Z</time>
      </trkpt>
      <trkpt lat="28.102720" lon="-15.639886">
        <ele>675.366</ele>
        <time>2021-10-26T09:02:40Z</time>
      </trkpt>
      <trkpt lat="28.101514" lon="-15.638926">
        <ele>690.098</ele>
        <time>2021-10-26T09:03:45Z</time>
      </trkpt>
      <trkpt lat="28.101964" lon="-15.639884">
        <ele>696.319</ele>
        <time>2021-10-26T09:04:29Z</time>
      </trkpt>
      <trkpt lat="28.099822" lon="-15.640818">
        <ele>720.517</ele>
        <time>2021-10-26T09:06:26Z</time>
      </trkpt>
      <trkpt lat="28.098147" lon="-15.640692">
        <ele>734.087</ele>
        <time>2021-10-26T09:07:57Z</time>
      </trkpt>
      <trkpt lat="28.093545" lon="-15.642041">
        <ele>754.115</ele>
        <time>2021-10-26T09:11:32Z</time>
      </trkpt>
      <trkpt lat="28.089977" lon="-15.643906">
        <ele>790.308</ele>
        <time>2021-10-26T09:14:42Z</time>
      </trkpt>
      <trkpt lat="28.087344" lon="-15.642751">
        <ele>819.029</ele>
        <time>2021-10-26T09:17:12Z</time>
      </trkpt>
      <trkpt lat="28.084298" lon="-15.642862">
        <ele>841.639</ele>
        <time>2021-10-26T09:19:24Z</time>
      </trkpt>
      <trkpt lat="28.084130" lon="-15.643498">
        <ele>837.046</ele>
        <time>2021-10-26T09:19:37Z</time>
      </trkpt>
      <trkpt lat="28.086854" lon="-15.644963">
        <ele>825.081</ele>
        <time>2021-10-26T09:20:16Z</time>
      </trkpt>
      <trkpt lat="28.084941" lon="-15.646034">
        <ele>845.611</ele>
        <time>2021-10-26T09:21:32Z</time>
      </trkpt>
      <trkpt lat="28.086640" lon="-15.646686">
        <ele>834.964</ele>
        <time>2021-10-26T09:21:59Z</time>
      </trkpt>
      <trkpt lat="28.085678" lon="-15.648004">
        <ele>833.916</ele>
        <time>2021-10-26T09:22:31Z</time>
      </trkpt>
      <trkpt lat="28.083833" lon="-15.648464">
        <ele>833.177</ele>
        <time>2021-10-26T09:23:10Z</time>
      </trkpt>
      <trkpt lat="28.083458" lon="-15.649484">
        <ele>832.154</ele>
        <time>2021-10-26T09:23:28Z</time>
      </trkpt>
      <trkpt lat="28.082341" lon="-15.650059">
        <ele>824.356</ele>
        <time>2021-10-26T09:23:46Z</time>
      </trkpt>
      <trkpt lat="28.079207" lon="-15.649170">
        <ele>839.911</ele>
        <time>2021-10-26T09:25:40Z</time>
      </trkpt>
      <trkpt lat="28.079131" lon="-15.649563">
        <ele>839.908</ele>
        <time>2021-10-26T09:29:03Z</time>
      </trkpt>
      <trkpt lat="28.079297" lon="-15.650638">
        <ele>848.883</ele>
        <time>2021-10-26T09:29:35Z</time>
      </trkpt>
      <trkpt lat="28.078307" lon="-15.650041">
        <ele>857.053</ele>
        <time>2021-10-26T09:30:26Z</time>
      </trkpt>
      <trkpt lat="28.075613" lon="-15.646453">
        <ele>888.590</ele>
        <time>2021-10-26T09:36:02Z</time>
      </trkpt>
      <trkpt lat="28.075569" lon="-15.645403">
        <ele>889.155</ele>
        <time>2021-10-26T09:36:25Z</time>
      </trkpt>
      <trkpt lat="28.074399" lon="-15.645652">
        <ele>899.585</ele>
        <time>2021-10-26T09:37:17Z</time>
      </trkpt>
      <trkpt lat="28.074256" lon="-15.646619">
        <ele>907.378</ele>
        <time>2021-10-26T09:37:55Z</time>
      </trkpt>
      <trkpt lat="28.070961" lon="-15.645389">
        <ele>939.140</ele>
        <time>2021-10-26T09:41:09Z</time>
      </trkpt>
      <trkpt lat="28.069599" lon="-15.643723">
        <ele>953.491</ele>
        <time>2021-10-26T09:42:36Z</time>
      </trkpt>
      <trkpt lat="28.069542" lon="-15.645035">
        <ele>966.382</ele>
        <time>2021-10-26T09:43:44Z</time>
      </trkpt>
      <trkpt lat="28.067010" lon="-15.642980">
        <ele>1000.743</ele>
        <time>2021-10-26T09:49:18Z</time>
      </trkpt>
      <trkpt lat="28.066191" lon="-15.643502">
        <ele>1002.617</ele>
        <time>2021-10-26T09:56:32Z</time>
      </trkpt>
      <trkpt lat="28.065880" lon="-15.644633">
        <ele>1003.508</ele>
        <time>2021-10-26T09:56:55Z</time>
      </trkpt>
      <trkpt lat="28.064910" lon="-15.644898">
        <ele>1006.426</ele>
        <time>2021-10-26T09:57:41Z</time>
      </trkpt>
      <trkpt lat="28.063038" lon="-15.643172">
        <ele>1011.166</ele>
        <time>2021-10-26T09:58:48Z</time>
      </trkpt>
      <trkpt lat="28.063034" lon="-15.646466">
        <ele>1022.363</ele>
        <time>2021-10-26T10:00:32Z</time>
      </trkpt>
      <trkpt lat="28.062346" lon="-15.647157">
        <ele>1026.838</ele>
        <time>2021-10-26T10:01:07Z</time>
      </trkpt>
      <trkpt lat="28.061517" lon="-15.647058">
        <ele>1027.498</ele>
        <time>2021-10-26T10:01:25Z</time>
      </trkpt>
      <trkpt lat="28.061474" lon="-15.645888">
        <ele>1026.241</ele>
        <time>2021-10-26T10:01:43Z</time>
      </trkpt>
      <trkpt lat="28.060848" lon="-15.645508">
        <ele>1013.073</ele>
        <time>2021-10-26T10:01:58Z</time>
      </trkpt>
      <trkpt lat="28.060998" lon="-15.646172">
        <ele>1000.634</ele>
        <time>2021-10-26T10:02:10Z</time>
      </trkpt>
      <trkpt lat="28.059278" lon="-15.645580">
        <ele>975.761</ele>
        <time>2021-10-26T10:02:58Z</time>
      </trkpt>
      <trkpt lat="28.058685" lon="-15.644789">
        <ele>968.621</ele>
        <time>2021-10-26T10:03:10Z</time>
      </trkpt>
      <trkpt lat="28.057277" lon="-15.644870">
        <ele>965.813</ele>
        <time>2021-10-26T10:03:45Z</time>
      </trkpt>
      <trkpt lat="28.055329" lon="-15.642964">
        <ele>991.008</ele>
        <time>2021-10-26T10:06:00Z</time>
      </trkpt>
      <trkpt lat="28.053977" lon="-15.640582">
        <ele>1021.654</ele>
        <time>2021-10-26T10:08:15Z</time>
      </trkpt>
      <trkpt lat="28.052689" lon="-15.640539">
        <ele>1037.554</ele>
        <time>2021-10-26T10:09:17Z</time>
      </trkpt>
      <trkpt lat="28.051835" lon="-15.638967">
        <ele>1052.851</ele>
        <time>2021-10-26T10:11:43Z</time>
      </trkpt>
      <trkpt lat="28.050230" lon="-15.638089">
        <ele>1069.266</ele>
        <time>2021-10-26T10:13:52Z</time>
      </trkpt>
      <trkpt lat="28.049550" lon="-15.639224">
        <ele>1082.726</ele>
        <time>2021-10-26T10:15:04Z</time>
      </trkpt>
      <trkpt lat="28.050048" lon="-15.639300">
        <ele>1085.479</ele>
        <time>2021-10-26T10:18:53Z</time>
      </trkpt>
      <trkpt lat="28.050232" lon="-15.640130">
        <ele>1086.371</ele>
        <time>2021-10-26T10:19:17Z</time>
      </trkpt>
      <trkpt lat="28.051297" lon="-15.640305">
        <ele>1095.932</ele>
        <time>2021-10-26T10:20:13Z</time>
      </trkpt>
      <trkpt lat="28.049328" lon="-15.641065">
        <ele>1116.812</ele>
        <time>2021-10-26T10:22:01Z</time>
      </trkpt>
      <trkpt lat="28.049194" lon="-15.640256">
        <ele>1125.332</ele>
        <time>2021-10-26T10:22:44Z</time>
      </trkpt>
      <trkpt lat="28.047370" lon="-15.639182">
        <ele>1147.605</ele>
        <time>2021-10-26T10:24:56Z</time>
      </trkpt>
      <trkpt lat="28.047291" lon="-15.637567">
        <ele>1166.808</ele>
        <time>2021-10-26T10:26:26Z</time>
      </trkpt>
      <trkpt lat="28.046376" lon="-15.638213">
        <ele>1181.149</ele>
        <time>2021-10-26T10:34:02Z</time>
      </trkpt>
      <trkpt lat="28.044984" lon="-15.640856">
        <ele>1171.089</ele>
        <time>2021-10-26T10:34:50Z</time>
      </trkpt>
      <trkpt lat="28.043688" lon="-15.641029">
        <ele>1168.766</ele>
        <time>2021-10-26T10:35:10Z</time>
      </trkpt>
      <trkpt lat="28.043690" lon="-15.641720">
        <ele>1173.341</ele>
        <time>2021-10-26T10:35:30Z</time>
      </trkpt>
      <trkpt lat="28.041722" lon="-15.641594">
        <ele>1167.151</ele>
        <time>2021-10-26T10:35:55Z</time>
      </trkpt>
      <trkpt lat="28.043042" lon="-15.644272">
        <ele>1177.144</ele>
        <time>2021-10-26T10:37:01Z</time>
      </trkpt>
      <trkpt lat="28.042545" lon="-15.644681">
        <ele>1174.376</ele>
        <time>2021-10-26T10:38:47Z</time>
      </trkpt>
      <trkpt lat="28.042071" lon="-15.643772">
        <ele>1165.187</ele>
        <time>2021-10-26T10:39:16Z</time>
      </trkpt>
      <trkpt lat="28.040401" lon="-15.643356">
        <ele>1154.982</ele>
        <time>2021-10-26T10:39:41Z</time>
      </trkpt>
      <trkpt lat="28.038137" lon="-15.641027">
        <ele>1176.943</ele>
        <time>2021-10-26T10:42:03Z</time>
      </trkpt>
      <trkpt lat="28.039064" lon="-15.641644">
        <ele>1168.517</ele>
        <time>2021-10-26T10:42:57Z</time>
      </trkpt>
      <trkpt lat="28.039511" lon="-15.641305">
        <ele>1182.308</ele>
        <time>2021-10-26T10:43:25Z</time>
      </trkpt>
      <trkpt lat="28.038160" lon="-15.638370">
        <ele>1193.726</ele>
        <time>2021-10-26T10:44:49Z</time>
      </trkpt>
      <trkpt lat="28.037894" lon="-15.639284">
        <ele>1191.766</ele>
        <time>2021-10-26T10:45:08Z</time>
      </trkpt>
      <trkpt lat="28.037096" lon="-15.639472">
        <ele>1189.653</ele>
        <time>2021-10-26T10:45:26Z</time>
      </trkpt>
      <trkpt lat="28.037670" lon="-15.641428">
        <ele>1189.398</ele>
        <time>2021-10-26T10:46:15Z</time>
      </trkpt>
      <trkpt lat="28.036515" lon="-15.641320">
        <ele>1193.788</ele>
        <time>2021-10-26T10:47:02Z</time>
      </trkpt>
      <trkpt lat="28.038026" lon="-15.642682">
        <ele>1178.531</ele>
        <time>2021-10-26T10:49:08Z</time>
      </trkpt>
      <trkpt lat="28.037731" lon="-15.643534">
        <ele>1167.663</ele>
        <time>2021-10-26T10:49:44Z</time>
      </trkpt>
      <trkpt lat="28.038639" lon="-15.645183">
        <ele>1141.924</ele>
        <time>2021-10-26T11:00:25Z</time>
      </trkpt>
      <trkpt lat="28.038310" lon="-15.645253">
        <ele>1141.642</ele>
        <time>2021-10-26T11:00:39Z</time>
      </trkpt>
      <trkpt lat="28.038959" lon="-15.645349">
        <ele>1136.622</ele>
        <time>2021-10-26T11:01:41Z</time>
      </trkpt>
      <trkpt lat="28.038317" lon="-15.646077">
        <ele>1133.714</ele>
        <time>2021-10-26T11:02:05Z</time>
      </trkpt>
      <trkpt lat="28.039280" lon="-15.647595">
        <ele>1105.208</ele>
        <time>2021-10-26T11:03:18Z</time>
      </trkpt>
      <trkpt lat="28.039564" lon="-15.646632">
        <ele>1111.452</ele>
        <time>2021-10-26T11:03:42Z</time>
      </trkpt>
      <trkpt lat="28.039371" lon="-15.647642">
        <ele>1105.892</ele>
        <time>2021-10-26T11:04:32Z</time>
      </trkpt>
      <trkpt lat="28.037857" lon="-15.646086">
        <ele>1129.949</ele>
        <time>2021-10-26T11:06:05Z</time>
      </trkpt>
      <trkpt lat="28.035603" lon="-15.645359">
        <ele>1103.654</ele>
        <time>2021-10-26T11:06:57Z</time>
      </trkpt>
      <trkpt lat="28.035003" lon="-15.643691">
        <ele>1105.954</ele>
        <time>2021-10-26T11:07:45Z</time>
      </trkpt>
      <trkpt lat="28.033780" lon="-15.642546">
        <ele>1104.067</ele>
        <time>2021-10-26T11:09:42Z</time>
      </trkpt>
      <trkpt lat="28.033889" lon="-15.641990">
        <ele>1102.869</ele>
        <time>2021-10-26T11:09:58Z</time>
      </trkpt>
      <trkpt lat="28.032641" lon="-15.640893">
        <ele>1094.880</ele>
        <time>2021-10-26T11:10:42Z</time>
      </trkpt>
      <trkpt lat="28.032804" lon="-15.643049">
        <ele>1097.321</ele>
        <time>2021-10-26T11:13:50Z</time>
      </trkpt>
      <trkpt lat="28.032449" lon="-15.643473">
        <ele>1096.841</ele>
        <time>2021-10-26T11:14:06Z</time>
      </trkpt>
      <trkpt lat="28.033809" lon="-15.644815">
        <ele>1100.905</ele>
        <time>2021-10-26T11:16:05Z</time>
      </trkpt>
      <trkpt lat="28.033523" lon="-15.646447">
        <ele>1105.808</ele>
        <time>2021-10-26T11:16:54Z</time>
      </trkpt>
      <trkpt lat="28.034923" lon="-15.647508">
        <ele>1103.710</ele>
        <time>2021-10-26T11:17:26Z</time>
      </trkpt>
      <trkpt lat="28.034590" lon="-15.648069">
        <ele>1101.630</ele>
        <time>2021-10-26T11:18:24Z</time>
      </trkpt>
      <trkpt lat="28.035653" lon="-15.650453">
        <ele>1117.367</ele>
        <time>2021-10-26T11:19:46Z</time>
      </trkpt>
      <trkpt lat="28.035234" lon="-15.651408">
        <ele>1120.712</ele>
        <time>2021-10-26T11:20:29Z</time>
      </trkpt>
      <trkpt lat="28.037215" lon="-15.653844">
        <ele>1125.372</ele>
        <time>2021-10-26T11:23:11Z</time>
      </trkpt>
      <trkpt lat="28.036793" lon="-15.652924">
        <ele>1121.575</ele>
        <time>2021-10-26T11:24:13Z</time>
      </trkpt>
      <trkpt lat="28.037218" lon="-15.653766">
        <ele>1125.137</ele>
        <time>2021-10-26T11:24:53Z</time>
      </trkpt>
      <trkpt lat="28.036814" lon="-15.654347">
        <ele>1128.678</ele>
        <time>2021-10-26T11:25:20Z</time>
      </trkpt>
      <trkpt lat="28.035400" lon="-15.654495">
        <ele>1139.911</ele>
        <time>2021-10-26T11:26:00Z</time>
      </trkpt>
      <trkpt lat="28.033158" lon="-15.652598">
        <ele>1146.221</ele>
        <time>2021-10-26T11:26:59Z</time>
      </trkpt>
      <trkpt lat="28.031622" lon="-15.653341">
        <ele>1133.603</ele>
        <time>2021-10-26T11:28:25Z</time>
      </trkpt>
      <trkpt lat="28.030463" lon="-15.651922">
        <ele>1121.008</ele>
        <time>2021-10-26T11:28:48Z</time>
      </trkpt>
      <trkpt lat="28.029467" lon="-15.652908">
        <ele>1136.869</ele>
        <time>2021-10-26T11:32:02Z</time>
      </trkpt>
      <trkpt lat="28.030075" lon="-15.651874">
        <ele>1143.699</ele>
        <time>2021-10-26T11:36:06Z</time>
      </trkpt>
      <trkpt lat="28.029507" lon="-15.649009">
        <ele>1173.066</ele>
        <time>2021-10-26T11:38:00Z</time>
      </trkpt>
      <trkpt lat="28.027438" lon="-15.645056">
        <ele>1161.221</ele>
        <time>2021-10-26T11:39:43Z</time>
      </trkpt>
      <trkpt lat="28.026335" lon="-15.648591">
        <ele>1166.151</ele>
        <time>2021-10-26T11:42:16Z</time>
      </trkpt>
      <trkpt lat="28.023638" lon="-15.645816">
        <ele>1183.524</ele>
        <time>2021-10-26T11:43:59Z</time>
      </trkpt>
      <trkpt lat="28.023771" lon="-15.648724">
        <ele>1192.876</ele>
        <time>2021-10-26T11:45:28Z</time>
      </trkpt>
      <trkpt lat="28.021952" lon="-15.647855">
        <ele>1207.017</ele>
        <time>2021-10-26T11:46:14Z</time>
      </trkpt>
      <trkpt lat="28.022111" lon="-15.648785">
        <ele>1204.548</ele>
        <time>2021-10-26T11:46:31Z</time>
      </trkpt>
      <trkpt lat="28.021315" lon="-15.650063">
        <ele>1201.961</ele>
        <time>2021-10-26T11:50:08Z</time>
      </trkpt>
      <trkpt lat="28.018893" lon="-15.646089">
        <ele>1212.217</ele>
        <time>2021-10-26T11:54:25Z</time>
      </trkpt>
      <trkpt lat="28.018852" lon="-15.645008">
        <ele>1208.408</ele>
        <time>2021-10-26T11:54:38Z</time>
      </trkpt>
      <trkpt lat="28.017973" lon="-15.644442">
        <ele>1206.592</ele>
        <time>2021-10-26T11:56:25Z</time>
      </trkpt>
      <trkpt lat="28.017560" lon="-15.640683">
        <ele>1212.312</ele>
        <time>2021-10-26T12:02:47Z</time>
      </trkpt>
      <trkpt lat="28.015604" lon="-15.637897">
        <ele>1224.089</ele>
        <time>2021-10-26T12:05:29Z</time>
      </trkpt>
      <trkpt lat="28.015666" lon="-15.627865">
        <ele>1167.554</ele>
        <time>2021-10-26T12:11:14Z</time>
      </trkpt>
      <trkpt lat="28.015131" lon="-15.624782">
        <ele>1161.494</ele>
        <time>2021-10-26T12:11:54Z</time>
      </trkpt>
      <trkpt lat="28.013174" lon="-15.623362">
        <ele>1159.337</ele>
        <time>2021-10-26T12:13:26Z</time>
      </trkpt>
      <trkpt lat="28.011723" lon="-15.623976">
        <ele>1161.019</ele>
        <time>2021-10-26T12:14:03Z</time>
      </trkpt>
      <trkpt lat="28.010543" lon="-15.623571">
        <ele>1170.650</ele>
        <time>2021-10-26T12:14:55Z</time>
      </trkpt>
      <trkpt lat="28.010224" lon="-15.624122">
        <ele>1174.763</ele>
        <time>2021-10-26T12:16:29Z</time>
      </trkpt>
      <trkpt lat="28.010632" lon="-15.623016">
        <ele>1178.544</ele>
        <time>2021-10-26T12:19:28Z</time>
      </trkpt>
      <trkpt lat="28.010308" lon="-15.622303">
        <ele>1179.718</ele>
        <time>2021-10-26T12:19:41Z</time>
      </trkpt>
      <trkpt lat="28.010835" lon="-15.621913">
        <ele>1178.808</ele>
        <time>2021-10-26T12:19:50Z</time>
      </trkpt>
      <trkpt lat="28.010727" lon="-15.620373">
        <ele>1177.324</ele>
        <time>2021-10-26T12:20:10Z</time>
      </trkpt>
      <trkpt lat="28.009697" lon="-15.620241">
        <ele>1168.314</ele>
        <time>2021-10-26T12:20:26Z</time>
      </trkpt>
      <trkpt lat="28.009371" lon="-15.619297">
        <ele>1165.561</ele>
        <time>2021-10-26T12:20:47Z</time>
      </trkpt>
      <trkpt lat="28.009752" lon="-15.618363">
        <ele>1170.946</ele>
        <time>2021-10-26T12:22:04Z</time>
      </trkpt>
      <trkpt lat="28.011109" lon="-15.618478">
        <ele>1170.036</ele>
        <time>2021-10-26T12:22:26Z</time>
      </trkpt>
      <trkpt lat="28.011856" lon="-15.617023">
        <ele>1161.739</ele>
        <time>2021-10-26T12:22:46Z</time>
      </trkpt>
      <trkpt lat="28.011065" lon="-15.616252">
        <ele>1152.541</ele>
        <time>2021-10-26T12:22:59Z</time>
      </trkpt>
      <trkpt lat="28.011471" lon="-15.614191">
        <ele>1129.372</ele>
        <time>2021-10-26T12:23:21Z</time>
      </trkpt>
      <trkpt lat="28.010385" lon="-15.612004">
        <ele>1132.154</ele>
        <time>2021-10-26T12:24:29Z</time>
      </trkpt>
      <trkpt lat="28.009597" lon="-15.612967">
        <ele>1140.156</ele>
        <time>2021-10-26T12:25:24Z</time>
      </trkpt>
      <trkpt lat="28.007935" lon="-15.612568">
        <ele>1136.611</ele>
        <time>2021-10-26T12:28:01Z</time>
      </trkpt>
      <trkpt lat="28.007694" lon="-15.610808">
        <ele>1136.808</ele>
        <time>2021-10-26T12:28:35Z</time>
      </trkpt>
      <trkpt lat="28.007188" lon="-15.611492">
        <ele>1141.393</ele>
        <time>2021-10-26T12:29:05Z</time>
      </trkpt>
      <trkpt lat="28.005933" lon="-15.611041">
        <ele>1159.243</ele>
        <time>2021-10-26T12:29:29Z</time>
      </trkpt>
      <trkpt lat="28.005817" lon="-15.610221">
        <ele>1169.970</ele>
        <time>2021-10-26T12:29:53Z</time>
      </trkpt>
      <trkpt lat="28.005177" lon="-15.610899">
        <ele>1163.915</ele>
        <time>2021-10-26T12:30:23Z</time>
      </trkpt>
      <trkpt lat="28.005538" lon="-15.612805">
        <ele>1145.765</ele>
        <time>2021-10-26T12:32:29Z</time>
      </trkpt>
      <trkpt lat="28.002467" lon="-15.613875">
        <ele>1127.718</ele>
        <time>2021-10-26T12:33:15Z</time>
      </trkpt>
      <trkpt lat="28.002353" lon="-15.614488">
        <ele>1121.330</ele>
        <time>2021-10-26T12:33:28Z</time>
      </trkpt>
      <trkpt lat="28.000496" lon="-15.613592">
        <ele>1103.951</ele>
        <time>2021-10-26T12:36:01Z</time>
      </trkpt>
      <trkpt lat="28.000477" lon="-15.614289">
        <ele>1099.119</ele>
        <time>2021-10-26T12:36:12Z</time>
      </trkpt>
      <trkpt lat="27.997207" lon="-15.613417">
        <ele>1086.709</ele>
        <time>2021-10-26T12:41:48Z</time>
      </trkpt>
      <trkpt lat="27.996465" lon="-15.614792">
        <ele>1063.019</ele>
        <time>2021-10-26T12:42:13Z</time>
      </trkpt>
      <trkpt lat="27.995478" lon="-15.614345">
        <ele>1064.408</ele>
        <time>2021-10-26T12:43:18Z</time>
      </trkpt>
      <trkpt lat="27.994674" lon="-15.614721">
        <ele>1059.979</ele>
        <time>2021-10-26T12:43:36Z</time>
      </trkpt>
      <trkpt lat="27.993681" lon="-15.614186">
        <ele>1059.889</ele>
        <time>2021-10-26T12:44:53Z</time>
      </trkpt>
      <trkpt lat="27.992564" lon="-15.614920">
        <ele>1047.466</ele>
        <time>2021-10-26T12:45:14Z</time>
      </trkpt>
      <trkpt lat="27.991522" lon="-15.614831">
        <ele>1042.811</ele>
        <time>2021-10-26T12:46:03Z</time>
      </trkpt>
      <trkpt lat="27.993145" lon="-15.614973">
        <ele>1044.541</ele>
        <time>2021-10-26T12:47:05Z</time>
      </trkpt>
      <trkpt lat="27.993624" lon="-15.614353">
        <ele>1053.924</ele>
        <time>2021-10-26T12:47:38Z</time>
      </trkpt>
      <trkpt lat="27.994988" lon="-15.615624">
        <ele>1036.536</ele>
        <time>2021-10-26T12:50:16Z</time>
      </trkpt>
      <trkpt lat="27.995545" lon="-15.615199">
        <ele>1049.777</ele>
        <time>2021-10-26T12:52:57Z</time>
      </trkpt>
      <trkpt lat="27.995358" lon="-15.615858">
        <ele>1044.918</ele>
        <time>2021-10-26T12:54:17Z</time>
      </trkpt>
      <trkpt lat="27.995497" lon="-15.615268">
        <ele>1050.498</ele>
        <time>2021-10-26T12:57:12Z</time>
      </trkpt>
      <trkpt lat="27.994982" lon="-15.615588">
        <ele>1036.517</ele>
        <time>2021-10-26T12:59:49Z</time>
      </trkpt>
      <trkpt lat="27.993592" lon="-15.614387">
        <ele>1054.008</ele>
        <time>2021-10-26T13:01:59Z</time>
      </trkpt>
      <trkpt lat="27.993033" lon="-15.615232">
        <ele>1029.839</ele>
        <time>2021-10-26T13:02:32Z</time>
      </trkpt>
      <trkpt lat="27.991372" lon="-15.614740">
        <ele>1043.589</ele>
        <time>2021-10-26T13:03:54Z</time>
      </trkpt>
      <trkpt lat="27.991718" lon="-15.614811">
        <ele>1043.776</ele>
        <time>2021-10-26T13:06:34Z</time>
      </trkpt>
      <trkpt lat="27.988560" lon="-15.610660">
        <ele>1036.781</ele>
        <time>2021-10-26T14:01:34Z</time>
      </trkpt>
      <trkpt lat="27.988325" lon="-15.607689">
        <ele>1022.231</ele>
        <time>2021-10-26T14:02:45Z</time>
      </trkpt>
      <trkpt lat="27.986674" lon="-15.607175">
        <ele>1015.054</ele>
        <time>2021-10-26T14:03:05Z</time>
      </trkpt>
      <trkpt lat="27.986997" lon="-15.609028">
        <ele>1019.856</ele>
        <time>2021-10-26T14:04:00Z</time>
      </trkpt>
      <trkpt lat="27.986271" lon="-15.612965">
        <ele>1035.637</ele>
        <time>2021-10-26T14:06:09Z</time>
      </trkpt>
      <trkpt lat="27.985396" lon="-15.612664">
        <ele>1034.275</ele>
        <time>2021-10-26T14:07:07Z</time>
      </trkpt>
      <trkpt lat="27.985342" lon="-15.614474">
        <ele>1043.428</ele>
        <time>2021-10-26T14:08:01Z</time>
      </trkpt>
      <trkpt lat="27.984043" lon="-15.616456">
        <ele>1062.120</ele>
        <time>2021-10-26T14:10:00Z</time>
      </trkpt>
      <trkpt lat="27.986049" lon="-15.617617">
        <ele>1072.308</ele>
        <time>2021-10-26T14:12:41Z</time>
      </trkpt>
      <trkpt lat="27.985580" lon="-15.619602">
        <ele>1077.295</ele>
        <time>2021-10-26T14:13:31Z</time>
      </trkpt>
      <trkpt lat="27.986723" lon="-15.620140">
        <ele>1081.515</ele>
        <time>2021-10-26T14:14:11Z</time>
      </trkpt>
      <trkpt lat="27.986275" lon="-15.621179">
        <ele>1083.962</ele>
        <time>2021-10-26T14:14:59Z</time>
      </trkpt>
      <trkpt lat="27.987178" lon="-15.621628">
        <ele>1088.187</ele>
        <time>2021-10-26T14:15:26Z</time>
      </trkpt>
      <trkpt lat="27.986954" lon="-15.622670">
        <ele>1092.197</ele>
        <time>2021-10-26T14:15:55Z</time>
      </trkpt>
      <trkpt lat="27.987675" lon="-15.623092">
        <ele>1092.180</ele>
        <time>2021-10-26T14:16:48Z</time>
      </trkpt>
      <trkpt lat="27.987234" lon="-15.625964">
        <ele>1106.032</ele>
        <time>2021-10-26T14:19:14Z</time>
      </trkpt>
      <trkpt lat="27.986603" lon="-15.626863">
        <ele>1114.573</ele>
        <time>2021-10-26T14:19:50Z</time>
      </trkpt>
      <trkpt lat="27.987877" lon="-15.628477">
        <ele>1131.817</ele>
        <time>2021-10-26T14:21:17Z</time>
      </trkpt>
      <trkpt lat="27.988536" lon="-15.628556">
        <ele>1136.887</ele>
        <time>2021-10-26T14:21:47Z</time>
      </trkpt>
      <trkpt lat="27.988631" lon="-15.629615">
        <ele>1147.815</ele>
        <time>2021-10-26T14:26:11Z</time>
      </trkpt>
      <trkpt lat="27.987856" lon="-15.631137">
        <ele>1161.408</ele>
        <time>2021-10-26T14:27:13Z</time>
      </trkpt>
      <trkpt lat="27.987031" lon="-15.630360">
        <ele>1161.199</ele>
        <time>2021-10-26T14:29:25Z</time>
      </trkpt>
      <trkpt lat="27.986516" lon="-15.628670">
        <ele>1159.499</ele>
        <time>2021-10-26T14:30:06Z</time>
      </trkpt>
      <trkpt lat="27.985509" lon="-15.627915">
        <ele>1161.616</ele>
        <time>2021-10-26T14:30:41Z</time>
      </trkpt>
      <trkpt lat="27.984848" lon="-15.625238">
        <ele>1179.871</ele>
        <time>2021-10-26T14:31:54Z</time>
      </trkpt>
      <trkpt lat="27.984170" lon="-15.624910">
        <ele>1189.411</ele>
        <time>2021-10-26T14:32:36Z</time>
      </trkpt>
      <trkpt lat="27.983623" lon="-15.625495">
        <ele>1196.894</ele>
        <time>2021-10-26T14:33:33Z</time>
      </trkpt>
      <trkpt lat="27.982191" lon="-15.623796">
        <ele>1196.226</ele>
        <time>2021-10-26T14:34:17Z</time>
      </trkpt>
      <trkpt lat="27.981159" lon="-15.624267">
        <ele>1190.987</ele>
        <time>2021-10-26T14:34:35Z</time>
      </trkpt>
      <trkpt lat="27.979435" lon="-15.622907">
        <ele>1185.363</ele>
        <time>2021-10-26T14:37:13Z</time>
      </trkpt>
      <trkpt lat="27.979108" lon="-15.625006">
        <ele>1191.744</ele>
        <time>2021-10-26T14:38:01Z</time>
      </trkpt>
      <trkpt lat="27.978078" lon="-15.625593">
        <ele>1197.418</ele>
        <time>2021-10-26T14:38:46Z</time>
      </trkpt>
      <trkpt lat="27.977774" lon="-15.624856">
        <ele>1201.408</ele>
        <time>2021-10-26T14:39:34Z</time>
      </trkpt>
      <trkpt lat="27.978271" lon="-15.624188">
        <ele>1206.734</ele>
        <time>2021-10-26T14:39:55Z</time>
      </trkpt>
      <trkpt lat="27.978000" lon="-15.623253">
        <ele>1212.124</ele>
        <time>2021-10-26T14:40:20Z</time>
      </trkpt>
      <trkpt lat="27.979044" lon="-15.620029">
        <ele>1238.861</ele>
        <time>2021-10-26T14:42:25Z</time>
      </trkpt>
      <trkpt lat="27.977991" lon="-15.618373">
        <ele>1254.056</ele>
        <time>2021-10-26T14:43:47Z</time>
      </trkpt>
      <trkpt lat="27.977697" lon="-15.616818">
        <ele>1269.076</ele>
        <time>2021-10-26T14:45:40Z</time>
      </trkpt>
      <trkpt lat="27.975508" lon="-15.617103">
        <ele>1270.299</ele>
        <time>2021-10-26T14:46:43Z</time>
      </trkpt>
      <trkpt lat="27.974819" lon="-15.619123">
        <ele>1271.541</ele>
        <time>2021-10-26T14:47:18Z</time>
      </trkpt>
      <trkpt lat="27.973385" lon="-15.619524">
        <ele>1279.392</ele>
        <time>2021-10-26T14:47:57Z</time>
      </trkpt>
      <trkpt lat="27.972602" lon="-15.618966">
        <ele>1283.168</ele>
        <time>2021-10-26T14:48:29Z</time>
      </trkpt>
      <trkpt lat="27.970278" lon="-15.620393">
        <ele>1293.742</ele>
        <time>2021-10-26T14:49:54Z</time>
      </trkpt>
      <trkpt lat="27.967959" lon="-15.624301">
        <ele>1314.726</ele>
        <time>2021-10-26T14:53:29Z</time>
      </trkpt>
      <trkpt lat="27.964469" lon="-15.627433">
        <ele>1333.208</ele>
        <time>2021-10-26T14:55:52Z</time>
      </trkpt>
      <trkpt lat="27.962927" lon="-15.630119">
        <ele>1349.764</ele>
        <time>2021-10-26T14:57:35Z</time>
      </trkpt>
      <trkpt lat="27.960352" lon="-15.628606">
        <ele>1393.934</ele>
        <time>2021-10-26T15:00:53Z</time>
      </trkpt>
      <trkpt lat="27.959001" lon="-15.626040">
        <ele>1418.421</ele>
        <time>2021-10-26T15:02:47Z</time>
      </trkpt>
      <trkpt lat="27.959714" lon="-15.621554">
        <ele>1383.166</ele>
        <time>2021-10-26T15:04:26Z</time>
      </trkpt>
      <trkpt lat="27.955671" lon="-15.618568">
        <ele>1339.326</ele>
        <time>2021-10-26T15:05:14Z</time>
      </trkpt>
      <trkpt lat="27.955580" lon="-15.614541">
        <ele>1312.939</ele>
        <time>2021-10-26T15:07:02Z</time>
      </trkpt>
      <trkpt lat="27.957914" lon="-15.611343">
        <ele>1307.851</ele>
        <time>2021-10-26T15:08:05Z</time>
      </trkpt>
      <trkpt lat="27.957883" lon="-15.610502">
        <ele>1305.542</ele>
        <time>2021-10-26T15:08:18Z</time>
      </trkpt>
      <trkpt lat="27.957298" lon="-15.611987">
        <ele>1295.359</ele>
        <time>2021-10-26T15:08:39Z</time>
      </trkpt>
      <trkpt lat="27.955241" lon="-15.614097">
        <ele>1277.103</ele>
        <time>2021-10-26T15:09:04Z</time>
      </trkpt>
      <trkpt lat="27.954904" lon="-15.615437">
        <ele>1272.323</ele>
        <time>2021-10-26T15:09:19Z</time>
      </trkpt>
      <trkpt lat="27.955024" lon="-15.614649">
        <ele>1273.908</ele>
        <time>2021-10-26T15:09:41Z</time>
      </trkpt>
      <trkpt lat="27.954982" lon="-15.617051">
        <ele>1268.143</ele>
        <time>2021-10-26T15:10:17Z</time>
      </trkpt>
      <trkpt lat="27.954053" lon="-15.617941">
        <ele>1258.893</ele>
        <time>2021-10-26T15:10:33Z</time>
      </trkpt>
      <trkpt lat="27.954219" lon="-15.618843">
        <ele>1252.360</ele>
        <time>2021-10-26T15:10:43Z</time>
      </trkpt>
      <trkpt lat="27.953274" lon="-15.619903">
        <ele>1242.955</ele>
        <time>2021-10-26T15:12:27Z</time>
      </trkpt>
      <trkpt lat="27.954724" lon="-15.620171">
        <ele>1232.045</ele>
        <time>2021-10-26T15:13:59Z</time>
      </trkpt>
      <trkpt lat="27.956536" lon="-15.622781">
        <ele>1214.368</ele>
        <time>2021-10-26T15:14:31Z</time>
      </trkpt>
      <trkpt lat="27.955175" lon="-15.623270">
        <ele>1206.750</ele>
        <time>2021-10-26T15:14:46Z</time>
      </trkpt>
      <trkpt lat="27.954927" lon="-15.624439">
        <ele>1200.281</ele>
        <time>2021-10-26T15:14:59Z</time>
      </trkpt>
      <trkpt lat="27.953598" lon="-15.624514">
        <ele>1192.729</ele>
        <time>2021-10-26T15:15:14Z</time>
      </trkpt>
      <trkpt lat="27.953489" lon="-15.625932">
        <ele>1181.100</ele>
        <time>2021-10-26T15:15:27Z</time>
      </trkpt>
      <trkpt lat="27.952574" lon="-15.626237">
        <ele>1176.120</ele>
        <time>2021-10-26T15:15:38Z</time>
      </trkpt>
      <trkpt lat="27.951495" lon="-15.627657">
        <ele>1170.308</ele>
        <time>2021-10-26T15:15:55Z</time>
      </trkpt>
      <trkpt lat="27.951822" lon="-15.628537">
        <ele>1167.670</ele>
        <time>2021-10-26T15:16:05Z</time>
      </trkpt>
      <trkpt lat="27.954203" lon="-15.629263">
        <ele>1169.850</ele>
        <time>2021-10-26T15:16:45Z</time>
      </trkpt>
      <trkpt lat="27.952688" lon="-15.631809">
        <ele>1149.077</ele>
        <time>2021-10-26T15:17:17Z</time>
      </trkpt>
      <trkpt lat="27.949443" lon="-15.631111">
        <ele>1133.132</ele>
        <time>2021-10-26T15:17:50Z</time>
      </trkpt>
      <trkpt lat="27.950486" lon="-15.633406">
        <ele>1124.362</ele>
        <time>2021-10-26T15:18:18Z</time>
      </trkpt>
      <trkpt lat="27.949564" lon="-15.635956">
        <ele>1108.145</ele>
        <time>2021-10-26T15:18:52Z</time>
      </trkpt>
      <trkpt lat="27.948747" lon="-15.634856">
        <ele>1098.357</ele>
        <time>2021-10-26T15:19:19Z</time>
      </trkpt>
      <trkpt lat="27.947273" lon="-15.634599">
        <ele>1087.848</ele>
        <time>2021-10-26T15:20:40Z</time>
      </trkpt>
      <trkpt lat="27.946818" lon="-15.635637">
        <ele>1080.348</ele>
        <time>2021-10-26T15:20:56Z</time>
      </trkpt>
      <trkpt lat="27.944590" lon="-15.634258">
        <ele>1070.461</ele>
        <time>2021-10-26T15:21:26Z</time>
      </trkpt>
      <trkpt lat="27.943820" lon="-15.635794">
        <ele>1067.717</ele>
        <time>2021-10-26T15:21:51Z</time>
      </trkpt>
      <trkpt lat="27.940634" lon="-15.634533">
        <ele>1044.708</ele>
        <time>2021-10-26T15:22:36Z</time>
      </trkpt>
      <trkpt lat="27.939671" lon="-15.635275">
        <ele>1039.462</ele>
        <time>2021-10-26T15:22:49Z</time>
      </trkpt>
      <trkpt lat="27.940298" lon="-15.636535">
        <ele>1038.222</ele>
        <time>2021-10-26T15:23:08Z</time>
      </trkpt>
      <trkpt lat="27.940065" lon="-15.637957">
        <ele>1034.599</ele>
        <time>2021-10-26T15:23:29Z</time>
      </trkpt>
      <trkpt lat="27.938389" lon="-15.637841">
        <ele>1031.184</ele>
        <time>2021-10-26T15:23:52Z</time>
      </trkpt>
      <trkpt lat="27.937801" lon="-15.638649">
        <ele>1025.854</ele>
        <time>2021-10-26T15:24:03Z</time>
      </trkpt>
      <trkpt lat="27.935528" lon="-15.639303">
        <ele>1014.697</ele>
        <time>2021-10-26T15:27:32Z</time>
      </trkpt>
      <trkpt lat="27.936085" lon="-15.640056">
        <ele>1010.259</ele>
        <time>2021-10-26T15:28:43Z</time>
      </trkpt>
      <trkpt lat="27.935992" lon="-15.641817">
        <ele>1000.610</ele>
        <time>2021-10-26T15:29:04Z</time>
      </trkpt>
      <trkpt lat="27.934371" lon="-15.642739">
        <ele>989.331</ele>
        <time>2021-10-26T15:29:28Z</time>
      </trkpt>
      <trkpt lat="27.933811" lon="-15.645170">
        <ele>972.461</ele>
        <time>2021-10-26T15:29:53Z</time>
      </trkpt>
      <trkpt lat="27.933095" lon="-15.645780">
        <ele>963.007</ele>
        <time>2021-10-26T15:30:06Z</time>
      </trkpt>
      <trkpt lat="27.933057" lon="-15.647446">
        <ele>950.608</ele>
        <time>2021-10-26T15:30:23Z</time>
      </trkpt>
      <trkpt lat="27.931979" lon="-15.649563">
        <ele>944.111</ele>
        <time>2021-10-26T15:30:47Z</time>
      </trkpt>
      <trkpt lat="27.932408" lon="-15.650925">
        <ele>943.961</ele>
        <time>2021-10-26T15:31:11Z</time>
      </trkpt>
      <trkpt lat="27.932072" lon="-15.652632">
        <ele>948.718</ele>
        <time>2021-10-26T15:31:51Z</time>
      </trkpt>
      <trkpt lat="27.932410" lon="-15.654332">
        <ele>951.273</ele>
        <time>2021-10-26T15:32:24Z</time>
      </trkpt>
      <trkpt lat="27.933294" lon="-15.654812">
        <ele>952.623</ele>
        <time>2021-10-26T15:32:45Z</time>
      </trkpt>
      <trkpt lat="27.932833" lon="-15.655829">
        <ele>957.096</ele>
        <time>2021-10-26T15:33:08Z</time>
      </trkpt>
      <trkpt lat="27.933180" lon="-15.656490">
        <ele>959.538</ele>
        <time>2021-10-26T15:33:24Z</time>
      </trkpt>
      <trkpt lat="27.931736" lon="-15.656975">
        <ele>965.249</ele>
        <time>2021-10-26T15:34:00Z</time>
      </trkpt>
      <trkpt lat="27.931120" lon="-15.658071">
        <ele>966.145</ele>
        <time>2021-10-26T15:36:04Z</time>
      </trkpt>
      <trkpt lat="27.931951" lon="-15.658900">
        <ele>961.047</ele>
        <time>2021-10-26T15:36:20Z</time>
      </trkpt>
      <trkpt lat="27.932038" lon="-15.661901">
        <ele>945.211</ele>
        <time>2021-10-26T15:41:54Z</time>
      </trkpt>
      <trkpt lat="27.933074" lon="-15.662707">
        <ele>941.108</ele>
        <time>2021-10-26T15:42:13Z</time>
      </trkpt>
      <trkpt lat="27.930070" lon="-15.664993">
        <ele>928.962</ele>
        <time>2021-10-26T15:42:58Z</time>
      </trkpt>
      <trkpt lat="27.928940" lon="-15.667365">
        <ele>914.722</ele>
        <time>2021-10-26T15:46:40Z</time>
      </trkpt>
      <trkpt lat="27.929171" lon="-15.668344">
        <ele>911.179</ele>
        <time>2021-10-26T15:46:51Z</time>
      </trkpt>
      <trkpt lat="27.928764" lon="-15.669165">
        <ele>909.324</ele>
        <time>2021-10-26T15:47:02Z</time>
      </trkpt>
      <trkpt lat="27.925111" lon="-15.671176">
        <ele>923.284</ele>
        <time>2021-10-26T15:50:25Z</time>
      </trkpt>
      <trkpt lat="27.925486" lon="-15.671098">
        <ele>927.777</ele>
        <time>2021-10-26T15:52:08Z</time>
      </trkpt>
      <trkpt lat="27.924897" lon="-15.671947">
        <ele>934.549</ele>
        <time>2021-10-26T15:54:11Z</time>
      </trkpt>
      <trkpt lat="27.925568" lon="-15.673227">
        <ele>942.110</ele>
        <time>2021-10-26T15:55:16Z</time>
      </trkpt>
      <trkpt lat="27.928180" lon="-15.675444">
        <ele>949.236</ele>
        <time>2021-10-26T15:57:55Z</time>
      </trkpt>
      <trkpt lat="27.927629" lon="-15.677673">
        <ele>948.717</ele>
        <time>2021-10-26T15:58:58Z</time>
      </trkpt>
      <trkpt lat="27.926734" lon="-15.678711">
        <ele>952.318</ele>
        <time>2021-10-26T15:59:25Z</time>
      </trkpt>
      <trkpt lat="27.924197" lon="-15.680036">
        <ele>966.308</ele>
        <time>2021-10-26T16:00:40Z</time>
      </trkpt>
      <trkpt lat="27.924317" lon="-15.681246">
        <ele>971.211</ele>
        <time>2021-10-26T16:01:10Z</time>
      </trkpt>
      <trkpt lat="27.925773" lon="-15.682341">
        <ele>969.351</ele>
        <time>2021-10-26T16:01:46Z</time>
      </trkpt>
      <trkpt lat="27.925953" lon="-15.683123">
        <ele>969.318</ele>
        <time>2021-10-26T16:01:57Z</time>
      </trkpt>
      <trkpt lat="27.925219" lon="-15.684885">
        <ele>966.773</ele>
        <time>2021-10-26T16:02:28Z</time>
      </trkpt>
      <trkpt lat="27.923201" lon="-15.685960">
        <ele>962.853</ele>
        <time>2021-10-26T16:03:05Z</time>
      </trkpt>
      <trkpt lat="27.921860" lon="-15.687702">
        <ele>963.556</ele>
        <time>2021-10-26T16:04:30Z</time>
      </trkpt>
      <trkpt lat="27.921446" lon="-15.687028">
        <ele>963.998</ele>
        <time>2021-10-26T16:06:04Z</time>
      </trkpt>
      <trkpt lat="27.919537" lon="-15.686918">
        <ele>962.459</ele>
        <time>2021-10-26T16:07:10Z</time>
      </trkpt>
      <trkpt lat="27.917886" lon="-15.688512">
        <ele>957.438</ele>
        <time>2021-10-26T16:07:44Z</time>
      </trkpt>
      <trkpt lat="27.916669" lon="-15.687775">
        <ele>948.070</ele>
        <time>2021-10-26T16:09:04Z</time>
      </trkpt>
      <trkpt lat="27.916277" lon="-15.689266">
        <ele>936.917</ele>
        <time>2021-10-26T16:09:24Z</time>
      </trkpt>
      <trkpt lat="27.915679" lon="-15.689450">
        <ele>933.608</ele>
        <time>2021-10-26T16:09:31Z</time>
      </trkpt>
      <trkpt lat="27.914577" lon="-15.687916">
        <ele>916.621</ele>
        <time>2021-10-26T16:09:56Z</time>
      </trkpt>
      <trkpt lat="27.911425" lon="-15.689607">
        <ele>879.621</ele>
        <time>2021-10-26T16:10:43Z</time>
      </trkpt>
      <trkpt lat="27.909374" lon="-15.687280">
        <ele>897.038</ele>
        <time>2021-10-26T16:14:33Z</time>
      </trkpt>
      <trkpt lat="27.908868" lon="-15.687702">
        <ele>898.273</ele>
        <time>2021-10-26T16:14:57Z</time>
      </trkpt>
      <trkpt lat="27.908378" lon="-15.686856">
        <ele>912.823</ele>
        <time>2021-10-26T16:15:35Z</time>
      </trkpt>
      <trkpt lat="27.906881" lon="-15.687056">
        <ele>918.036</ele>
        <time>2021-10-26T16:17:01Z</time>
      </trkpt>
      <trkpt lat="27.905088" lon="-15.686235">
        <ele>915.128</ele>
        <time>2021-10-26T16:17:56Z</time>
      </trkpt>
      <trkpt lat="27.904372" lon="-15.686832">
        <ele>912.589</ele>
        <time>2021-10-26T16:18:16Z</time>
      </trkpt>
      <trkpt lat="27.903660" lon="-15.686330">
        <ele>911.881</ele>
        <time>2021-10-26T16:18:32Z</time>
      </trkpt>
      <trkpt lat="27.902734" lon="-15.686575">
        <ele>907.061</ele>
        <time>2021-10-26T16:18:48Z</time>
      </trkpt>
      <trkpt lat="27.901693" lon="-15.685657">
        <ele>907.417</ele>
        <time>2021-10-26T16:19:53Z</time>
      </trkpt>
      <trkpt lat="27.901170" lon="-15.686283">
        <ele>904.108</ele>
        <time>2021-10-26T16:20:37Z</time>
      </trkpt>
      <trkpt lat="27.900621" lon="-15.686041">
        <ele>898.886</ele>
        <time>2021-10-26T16:20:51Z</time>
      </trkpt>
      <trkpt lat="27.899891" lon="-15.687192">
        <ele>890.286</ele>
        <time>2021-10-26T16:22:57Z</time>
      </trkpt>
      <trkpt lat="27.899806" lon="-15.686404">
        <ele>880.353</ele>
        <time>2021-10-26T16:23:17Z</time>
      </trkpt>
      <trkpt lat="27.899511" lon="-15.686916">
        <ele>875.368</ele>
        <time>2021-10-26T16:23:31Z</time>
      </trkpt>
      <trkpt lat="27.898133" lon="-15.686544">
        <ele>859.818</ele>
        <time>2021-10-26T16:24:34Z</time>
      </trkpt>
      <trkpt lat="27.898651" lon="-15.686309">
        <ele>848.681</ele>
        <time>2021-10-26T16:24:53Z</time>
      </trkpt>
      <trkpt lat="27.898187" lon="-15.685946">
        <ele>837.243</ele>
        <time>2021-10-26T16:25:13Z</time>
      </trkpt>
      <trkpt lat="27.898777" lon="-15.685921">
        <ele>828.584</ele>
        <time>2021-10-26T16:25:28Z</time>
      </trkpt>
      <trkpt lat="27.898001" lon="-15.685551">
        <ele>818.322</ele>
        <time>2021-10-26T16:25:46Z</time>
      </trkpt>
      <trkpt lat="27.898884" lon="-15.685415">
        <ele>808.062</ele>
        <time>2021-10-26T16:26:03Z</time>
      </trkpt>
      <trkpt lat="27.897192" lon="-15.684720">
        <ele>788.708</ele>
        <time>2021-10-26T16:26:34Z</time>
      </trkpt>
      <trkpt lat="27.897235" lon="-15.684064">
        <ele>781.608</ele>
        <time>2021-10-26T16:27:04Z</time>
      </trkpt>
      <trkpt lat="27.896357" lon="-15.683822">
        <ele>769.270</ele>
        <time>2021-10-26T16:28:30Z</time>
      </trkpt>
      <trkpt lat="27.896887" lon="-15.683101">
        <ele>761.070</ele>
        <time>2021-10-26T16:28:50Z</time>
      </trkpt>
      <trkpt lat="27.895737" lon="-15.683252">
        <ele>754.197</ele>
        <time>2021-10-26T16:29:10Z</time>
      </trkpt>
      <trkpt lat="27.896831" lon="-15.682377">
        <ele>738.452</ele>
        <time>2021-10-26T16:29:37Z</time>
      </trkpt>
      <trkpt lat="27.897734" lon="-15.682782">
        <ele>729.752</ele>
        <time>2021-10-26T16:29:51Z</time>
      </trkpt>
      <trkpt lat="27.898549" lon="-15.681843">
        <ele>717.355</ele>
        <time>2021-10-26T16:30:14Z</time>
      </trkpt>
      <trkpt lat="27.897582" lon="-15.681930">
        <ele>709.037</ele>
        <time>2021-10-26T16:31:25Z</time>
      </trkpt>
      <trkpt lat="27.896481" lon="-15.681193">
        <ele>696.758</ele>
        <time>2021-10-26T16:31:48Z</time>
      </trkpt>
      <trkpt lat="27.894790" lon="-15.677179">
        <ele>649.838</ele>
        <time>2021-10-26T16:33:47Z</time>
      </trkpt>
      <trkpt lat="27.893799" lon="-15.676462">
        <ele>647.170</ele>
        <time>2021-10-26T16:34:41Z</time>
      </trkpt>
      <trkpt lat="27.891258" lon="-15.676868">
        <ele>633.317</ele>
        <time>2021-10-26T16:35:14Z</time>
      </trkpt>
      <trkpt lat="27.890890" lon="-15.675726">
        <ele>626.208</ele>
        <time>2021-10-26T16:36:31Z</time>
      </trkpt>
      <trkpt lat="27.889163" lon="-15.675924">
        <ele>608.771</ele>
        <time>2021-10-26T16:39:23Z</time>
      </trkpt>
      <trkpt lat="27.888593" lon="-15.677417">
        <ele>596.651</ele>
        <time>2021-10-26T16:39:48Z</time>
      </trkpt>
      <trkpt lat="27.886339" lon="-15.678282">
        <ele>573.798</ele>
        <time>2021-10-26T16:40:15Z</time>
      </trkpt>
      <trkpt lat="27.885796" lon="-15.677661">
        <ele>566.593</ele>
        <time>2021-10-26T16:40:35Z</time>
      </trkpt>
      <trkpt lat="27.884587" lon="-15.677704">
        <ele>556.013</ele>
        <time>2021-10-26T16:40:59Z</time>
      </trkpt>
      <trkpt lat="27.884220" lon="-15.676784">
        <ele>546.096</ele>
        <time>2021-10-26T16:41:53Z</time>
      </trkpt>
      <trkpt lat="27.883718" lon="-15.677952">
        <ele>538.958</ele>
        <time>2021-10-26T16:44:35Z</time>
      </trkpt>
      <trkpt lat="27.882841" lon="-15.677660">
        <ele>530.989</ele>
        <time>2021-10-26T16:44:47Z</time>
      </trkpt>
      <trkpt lat="27.881846" lon="-15.678996">
        <ele>517.131</ele>
        <time>2021-10-26T16:45:06Z</time>
      </trkpt>
      <trkpt lat="27.882449" lon="-15.677171">
        <ele>498.761</ele>
        <time>2021-10-26T16:45:31Z</time>
      </trkpt>
      <trkpt lat="27.881745" lon="-15.677795">
        <ele>489.007</ele>
        <time>2021-10-26T16:45:46Z</time>
      </trkpt>
      <trkpt lat="27.879880" lon="-15.676494">
        <ele>466.608</ele>
        <time>2021-10-26T16:46:20Z</time>
      </trkpt>
      <trkpt lat="27.878718" lon="-15.678258">
        <ele>453.641</ele>
        <time>2021-10-26T16:46:53Z</time>
      </trkpt>
      <trkpt lat="27.879216" lon="-15.675349">
        <ele>424.051</ele>
        <time>2021-10-26T16:48:44Z</time>
      </trkpt>
      <trkpt lat="27.880635" lon="-15.675846">
        <ele>410.048</ele>
        <time>2021-10-26T16:49:07Z</time>
      </trkpt>
      <trkpt lat="27.879397" lon="-15.674963">
        <ele>394.473</ele>
        <time>2021-10-26T16:49:25Z</time>
      </trkpt>
      <trkpt lat="27.878452" lon="-15.673263">
        <ele>374.733</ele>
        <time>2021-10-26T16:51:16Z</time>
      </trkpt>
      <trkpt lat="27.877906" lon="-15.673281">
        <ele>368.486</ele>
        <time>2021-10-26T16:51:25Z</time>
      </trkpt>
      <trkpt lat="27.877962" lon="-15.675612">
        <ele>344.248</ele>
        <time>2021-10-26T16:51:57Z</time>
      </trkpt>
      <trkpt lat="27.877493" lon="-15.675818">
        <ele>339.039</ele>
        <time>2021-10-26T16:52:04Z</time>
      </trkpt>
      <trkpt lat="27.876246" lon="-15.674416">
        <ele>321.127</ele>
        <time>2021-10-26T16:52:25Z</time>
      </trkpt>
      <trkpt lat="27.875559" lon="-15.672221">
        <ele>302.368</ele>
        <time>2021-10-26T16:53:01Z</time>
      </trkpt>
      <trkpt lat="27.873360" lon="-15.672337">
        <ele>280.714</ele>
        <time>2021-10-26T16:53:58Z</time>
      </trkpt>
      <trkpt lat="27.875578" lon="-15.671397">
        <ele>258.308</ele>
        <time>2021-10-26T16:54:33Z</time>
      </trkpt>
      <trkpt lat="27.871539" lon="-15.671643">
        <ele>223.510</ele>
        <time>2021-10-26T16:56:56Z</time>
      </trkpt>
      <trkpt lat="27.869824" lon="-15.670703">
        <ele>219.460</ele>
        <time>2021-10-26T16:59:09Z</time>
      </trkpt>
      <trkpt lat="27.867868" lon="-15.670808">
        <ele>213.357</ele>
        <time>2021-10-26T16:59:33Z</time>
      </trkpt>
      <trkpt lat="27.865561" lon="-15.666994">
        <ele>208.992</ele>
        <time>2021-10-26T17:00:40Z</time>
      </trkpt>
      <trkpt lat="27.863513" lon="-15.665869">
        <ele>199.882</ele>
        <time>2021-10-26T17:01:04Z</time>
      </trkpt>
      <trkpt lat="27.861896" lon="-15.663031">
        <ele>191.965</ele>
        <time>2021-10-26T17:01:42Z</time>
      </trkpt>
      <trkpt lat="27.858177" lon="-15.661733">
        <ele>182.427</ele>
        <time>2021-10-26T17:02:36Z</time>
      </trkpt>
      <trkpt lat="27.851463" lon="-15.662773">
        <ele>169.628</ele>
        <time>2021-10-26T17:04:10Z</time>
      </trkpt>
      <trkpt lat="27.848184" lon="-15.660663">
        <ele>162.895</ele>
        <time>2021-10-26T17:05:13Z</time>
      </trkpt>
      <trkpt lat="27.844354" lon="-15.660471">
        <ele>155.449</ele>
        <time>2021-10-26T17:06:04Z</time>
      </trkpt>
      <trkpt lat="27.842652" lon="-15.661324">
        <ele>152.723</ele>
        <time>2021-10-26T17:06:26Z</time>
      </trkpt>
      <trkpt lat="27.839180" lon="-15.659669">
        <ele>144.008</ele>
        <time>2021-10-26T17:07:13Z</time>
      </trkpt>
      <trkpt lat="27.835686" lon="-15.659042">
        <ele>139.387</ele>
        <time>2021-10-26T17:07:58Z</time>
      </trkpt>
      <trkpt lat="27.831297" lon="-15.660029">
        <ele>130.727</ele>
        <time>2021-10-26T17:08:58Z</time>
      </trkpt>
      <trkpt lat="27.830165" lon="-15.660755">
        <ele>129.434</ele>
        <time>2021-10-26T17:09:16Z</time>
      </trkpt>
      <trkpt lat="27.829910" lon="-15.661634">
        <ele>128.519</ele>
        <time>2021-10-26T17:09:27Z</time>
      </trkpt>
      <trkpt lat="27.828376" lon="-15.662221">
        <ele>123.199</ele>
        <time>2021-10-26T17:09:48Z</time>
      </trkpt>
      <trkpt lat="27.826357" lon="-15.661846">
        <ele>118.582</ele>
        <time>2021-10-26T17:10:15Z</time>
      </trkpt>
      <trkpt lat="27.825516" lon="-15.662728">
        <ele>116.574</ele>
        <time>2021-10-26T17:10:29Z</time>
      </trkpt>
      <trkpt lat="27.824899" lon="-15.664831">
        <ele>113.875</ele>
        <time>2021-10-26T17:12:58Z</time>
      </trkpt>
      <trkpt lat="27.823708" lon="-15.666153">
        <ele>110.119</ele>
        <time>2021-10-26T17:13:20Z</time>
      </trkpt>
      <trkpt lat="27.818473" lon="-15.663875">
        <ele>101.009</ele>
        <time>2021-10-26T17:14:30Z</time>
      </trkpt>
      <trkpt lat="27.815342" lon="-15.664023">
        <ele>99.419</ele>
        <time>2021-10-26T17:15:08Z</time>
      </trkpt>
      <trkpt lat="27.812585" lon="-15.664885">
        <ele>90.908</ele>
        <time>2021-10-26T17:15:41Z</time>
      </trkpt>
      <trkpt lat="27.809782" lon="-15.667602">
        <ele>86.489</ele>
        <time>2021-10-26T17:16:25Z</time>
      </trkpt>
      <trkpt lat="27.807156" lon="-15.667582">
        <ele>82.639</ele>
        <time>2021-10-26T17:16:57Z</time>
      </trkpt>
      <trkpt lat="27.805551" lon="-15.668508">
        <ele>79.476</ele>
        <time>2021-10-26T17:17:19Z</time>
      </trkpt>
      <trkpt lat="27.800203" lon="-15.669261">
        <ele>71.671</ele>
        <time>2021-10-26T17:18:27Z</time>
      </trkpt>
      <trkpt lat="27.796995" lon="-15.670491">
        <ele>66.061</ele>
        <time>2021-10-26T17:19:11Z</time>
      </trkpt>
      <trkpt lat="27.795502" lon="-15.670236">
        <ele>63.214</ele>
        <time>2021-10-26T17:19:31Z</time>
      </trkpt>
      <trkpt lat="27.793095" lon="-15.671169">
        <ele>59.676</ele>
        <time>2021-10-26T17:20:01Z</time>
      </trkpt>
      <trkpt lat="27.790144" lon="-15.670602">
        <ele>56.957</ele>
        <time>2021-10-26T17:20:36Z</time>
      </trkpt>
      <trkpt lat="27.788770" lon="-15.669573">
        <ele>53.799</ele>
        <time>2021-10-26T17:20:57Z</time>
      </trkpt>
      <trkpt lat="27.782731" lon="-15.670276">
        <ele>45.507</ele>
        <time>2021-10-26T17:22:07Z</time>
      </trkpt>
      <trkpt lat="27.778767" lon="-15.666373">
        <ele>37.627</ele>
        <time>2021-10-26T17:23:11Z</time>
      </trkpt>
      <trkpt lat="27.775260" lon="-15.666813">
        <ele>32.908</ele>
        <time>2021-10-26T17:31:48Z</time>
      </trkpt>
      <trkpt lat="27.772540" lon="-15.665846">
        <ele>32.057</ele>
        <time>2021-10-26T17:32:27Z</time>
      </trkpt>
      <trkpt lat="27.769090" lon="-15.666690">
        <ele>35.867</ele>
        <time>2021-10-26T17:33:24Z</time>
      </trkpt>
      <trkpt lat="27.767232" lon="-15.665949">
        <ele>31.974</ele>
        <time>2021-10-26T17:33:53Z</time>
      </trkpt>
      <trkpt lat="27.765595" lon="-15.667840">
        <ele>28.239</ele>
        <time>2021-10-26T17:34:25Z</time>
      </trkpt>
      <trkpt lat="27.761125" lon="-15.669480">
        <ele>16.899</ele>
        <time>2021-10-26T17:35:16Z</time>
      </trkpt>
      <trkpt lat="27.755405" lon="-15.670464">
        <ele>35.192</ele>
        <time>2021-10-26T17:38:26Z</time>
      </trkpt>
      <trkpt lat="27.754967" lon="-15.670119">
        <ele>38.994</ele>
        <time>2021-10-26T17:39:01Z</time>
      </trkpt>
      <trkpt lat="27.755854" lon="-15.666522">
        <ele>46.645</ele>
        <time>2021-10-26T17:40:51Z</time>
      </trkpt>
      <trkpt lat="27.756893" lon="-15.664867">
        <ele>38.948</ele>
        <time>2021-10-26T17:41:15Z</time>
      </trkpt>
      <trkpt lat="27.756107" lon="-15.663842">
        <ele>43.461</ele>
        <time>2021-10-26T17:41:36Z</time>
      </trkpt>
      <trkpt lat="27.756538" lon="-15.662549">
        <ele>38.017</ele>
        <time>2021-10-26T17:42:19Z</time>
      </trkpt>
      <trkpt lat="27.758302" lon="-15.660720">
        <ele>21.308</ele>
        <time>2021-10-26T17:42:41Z</time>
      </trkpt>
      <trkpt lat="27.756697" lon="-15.657006">
        <ele>22.642</ele>
        <time>2021-10-26T17:43:28Z</time>
      </trkpt>
      <trkpt lat="27.756902" lon="-15.655647">
        <ele>17.062</ele>
        <time>2021-10-26T17:43:41Z</time>
      </trkpt>
      <trkpt lat="27.754258" lon="-15.649779">
        <ele>18.529</ele>
        <time>2021-10-26T17:45:18Z</time>
      </trkpt>
      <trkpt lat="27.752728" lon="-15.648253">
        <ele>34.834</ele>
        <time>2021-10-26T17:46:11Z</time>
      </trkpt>
      <trkpt lat="27.752572" lon="-15.646388">
        <ele>39.814</ele>
        <time>2021-10-26T17:46:47Z</time>
      </trkpt>
      <trkpt lat="27.751756" lon="-15.644720">
        <ele>40.927</ele>
        <time>2021-10-26T17:47:15Z</time>
      </trkpt>
      <trkpt lat="27.753942" lon="-15.644191">
        <ele>24.329</ele>
        <time>2021-10-26T17:47:44Z</time>
      </trkpt>
      <trkpt lat="27.754170" lon="-15.643417">
        <ele>23.270</ele>
        <time>2021-10-26T17:47:51Z</time>
      </trkpt>
      <trkpt lat="27.753563" lon="-15.642306">
        <ele>24.831</ele>
        <time>2021-10-26T17:48:07Z</time>
      </trkpt>
      <trkpt lat="27.756716" lon="-15.640396">
        <ele>37.561</ele>
        <time>2021-10-26T17:49:18Z</time>
      </trkpt>
      <trkpt lat="27.754653" lon="-15.639167">
        <ele>55.507</ele>
        <time>2021-10-26T17:50:29Z</time>
      </trkpt>
      <trkpt lat="27.753228" lon="-15.637489">
        <ele>64.208</ele>
        <time>2021-10-26T17:51:28Z</time>
      </trkpt>
      <trkpt lat="27.754122" lon="-15.635097">
        <ele>46.361</ele>
        <time>2021-10-26T17:51:50Z</time>
      </trkpt>
      <trkpt lat="27.752900" lon="-15.633560">
        <ele>49.361</ele>
        <time>2021-10-26T17:52:11Z</time>
      </trkpt>
      <trkpt lat="27.751647" lon="-15.632948">
        <ele>54.178</ele>
        <time>2021-10-26T17:52:35Z</time>
      </trkpt>
      <trkpt lat="27.750810" lon="-15.629939">
        <ele>52.333</ele>
        <time>2021-10-26T17:53:22Z</time>
      </trkpt>
      <trkpt lat="27.751805" lon="-15.629232">
        <ele>45.513</ele>
        <time>2021-10-26T17:59:34Z</time>
      </trkpt>
      <trkpt lat="27.753133" lon="-15.624745">
        <ele>50.666</ele>
        <time>2021-10-26T18:00:45Z</time>
      </trkpt>
      <trkpt lat="27.753036" lon="-15.620902">
        <ele>46.798</ele>
        <time>2021-10-26T18:01:35Z</time>
      </trkpt>
      <trkpt lat="27.750721" lon="-15.610818">
        <ele>47.839</ele>
        <time>2021-10-26T18:03:42Z</time>
      </trkpt>
      <trkpt lat="27.751726" lon="-15.604832">
        <ele>44.686</ele>
        <time>2021-10-26T18:05:05Z</time>
      </trkpt>
      <trkpt lat="27.753145" lon="-15.603642">
        <ele>33.360</ele>
        <time>2021-10-26T18:05:23Z</time>
      </trkpt>
      <trkpt lat="27.753717" lon="-15.601489">
        <ele>25.226</ele>
        <time>2021-10-26T18:08:22Z</time>
      </trkpt>
      <trkpt lat="27.760465" lon="-15.598424">
        <ele>32.108</ele>
        <time>2021-10-26T18:10:15Z</time>
      </trkpt>
      <trkpt lat="27.758904" lon="-15.596574">
        <ele>28.346</ele>
        <time>2021-10-26T18:10:50Z</time>
      </trkpt>
      <trkpt lat="27.759698" lon="-15.595761">
        <ele>29.076</ele>
        <time>2021-10-26T18:11:04Z</time>
      </trkpt>
      <trkpt lat="27.760941" lon="-15.587642">
        <ele>33.513</ele>
        <time>2021-10-26T18:12:47Z</time>
      </trkpt>
      <trkpt lat="27.759068" lon="-15.583190">
        <ele>53.178</ele>
        <time>2021-10-26T18:14:21Z</time>
      </trkpt>
      <trkpt lat="27.754673" lon="-15.580507">
        <ele>43.578</ele>
        <time>2021-10-26T18:15:58Z</time>
      </trkpt>
      <trkpt lat="27.748725" lon="-15.578532">
        <ele>32.441</ele>
        <time>2021-10-26T18:17:09Z</time>
      </trkpt>
      <trkpt lat="27.747647" lon="-15.577695">
        <ele>29.873</ele>
        <time>2021-10-26T18:17:26Z</time>
      </trkpt>
      <trkpt lat="27.747249" lon="-15.576467">
        <ele>28.684</ele>
        <time>2021-10-26T18:17:46Z</time>
      </trkpt>
      <trkpt lat="27.745075" lon="-15.576593">
        <ele>23.927</ele>
        <time>2021-10-26T18:23:24Z</time>
      </trkpt>
      <trkpt lat="27.751293" lon="-15.576844">
        <ele>35.268</ele>
        <time>2021-10-26T18:43:10Z</time>
      </trkpt>
      <trkpt lat="27.755880" lon="-15.578516">
        <ele>43.614</ele>
        <time>2021-10-26T18:45:01Z</time>
      </trkpt>
      <trkpt lat="27.759433" lon="-15.579047">
        <ele>49.808</ele>
        <time>2021-10-26T18:46:32Z</time>
      </trkpt>
      <trkpt lat="27.764674" lon="-15.578651">
        <ele>61.190</ele>
        <time>2021-10-26T18:48:48Z</time>
      </trkpt>
      <trkpt lat="27.764303" lon="-15.578159">
        <ele>60.790</ele>
        <time>2021-10-26T18:48:59Z</time>
      </trkpt>
      <trkpt lat="27.765272" lon="-15.574606">
        <ele>57.367</ele>
        <time>2021-10-26T18:50:24Z</time>
      </trkpt>
      <trkpt lat="27.766652" lon="-15.575184">
        <ele>59.632</ele>
        <time>2021-10-26T18:52:09Z</time>
      </trkpt>
      <trkpt lat="27.766753" lon="-15.575521">
        <ele>60.444</ele>
        <time>2021-10-27T07:39:37Z</time>
      </trkpt>
      <trkpt lat="27.768277" lon="-15.578503">
        <ele>71.505</ele>
        <time>2021-10-27T07:40:24Z</time>
      </trkpt>
      <trkpt lat="27.771254" lon="-15.581657">
        <ele>83.715</ele>
        <time>2021-10-27T07:42:19Z</time>
      </trkpt>
      <trkpt lat="27.772968" lon="-15.582691">
        <ele>95.208</ele>
        <time>2021-10-27T07:43:35Z</time>
      </trkpt>
      <trkpt lat="27.775118" lon="-15.583115">
        <ele>104.362</ele>
        <time>2021-10-27T07:44:58Z</time>
      </trkpt>
      <trkpt lat="27.777240" lon="-15.582525">
        <ele>111.092</ele>
        <time>2021-10-27T07:46:11Z</time>
      </trkpt>
      <trkpt lat="27.779061" lon="-15.583337">
        <ele>122.099</ele>
        <time>2021-10-27T07:47:53Z</time>
      </trkpt>
      <trkpt lat="27.783823" lon="-15.582221">
        <ele>151.134</ele>
        <time>2021-10-27T07:50:54Z</time>
      </trkpt>
      <trkpt lat="27.787656" lon="-15.579917">
        <ele>163.944</ele>
        <time>2021-10-27T07:54:13Z</time>
      </trkpt>
      <trkpt lat="27.790630" lon="-15.579664">
        <ele>187.178</ele>
        <time>2021-10-27T07:56:34Z</time>
      </trkpt>
      <trkpt lat="27.791647" lon="-15.580491">
        <ele>197.669</ele>
        <time>2021-10-27T07:57:40Z</time>
      </trkpt>
      <trkpt lat="27.792631" lon="-15.580488">
        <ele>207.265</ele>
        <time>2021-10-27T07:58:32Z</time>
      </trkpt>
      <trkpt lat="27.793052" lon="-15.581669">
        <ele>211.951</ele>
        <time>2021-10-27T08:01:59Z</time>
      </trkpt>
      <trkpt lat="27.794458" lon="-15.581349">
        <ele>220.801</ele>
        <time>2021-10-27T08:02:58Z</time>
      </trkpt>
      <trkpt lat="27.796111" lon="-15.581728">
        <ele>233.511</ele>
        <time>2021-10-27T08:04:14Z</time>
      </trkpt>
      <trkpt lat="27.797940" lon="-15.583168">
        <ele>254.808</ele>
        <time>2021-10-27T08:06:02Z</time>
      </trkpt>
      <trkpt lat="27.798776" lon="-15.582798">
        <ele>264.593</ele>
        <time>2021-10-27T08:06:52Z</time>
      </trkpt>
      <trkpt lat="27.799194" lon="-15.581751">
        <ele>273.393</ele>
        <time>2021-10-27T08:07:50Z</time>
      </trkpt>
      <trkpt lat="27.799712" lon="-15.582778">
        <ele>281.190</ele>
        <time>2021-10-27T08:08:44Z</time>
      </trkpt>
      <trkpt lat="27.800306" lon="-15.581961">
        <ele>289.645</ele>
        <time>2021-10-27T08:09:27Z</time>
      </trkpt>
      <trkpt lat="27.800726" lon="-15.583570">
        <ele>305.495</ele>
        <time>2021-10-27T08:11:44Z</time>
      </trkpt>
      <trkpt lat="27.801525" lon="-15.583821">
        <ele>313.089</ele>
        <time>2021-10-27T08:12:24Z</time>
      </trkpt>
      <trkpt lat="27.802440" lon="-15.583394">
        <ele>322.640</ele>
        <time>2021-10-27T08:13:19Z</time>
      </trkpt>
      <trkpt lat="27.806232" lon="-15.583167">
        <ele>358.556</ele>
        <time>2021-10-27T08:20:36Z</time>
      </trkpt>
      <trkpt lat="27.807026" lon="-15.582179">
        <ele>369.667</ele>
        <time>2021-10-27T08:21:34Z</time>
      </trkpt>
      <trkpt lat="27.810659" lon="-15.583330">
        <ele>393.681</ele>
        <time>2021-10-27T08:24:04Z</time>
      </trkpt>
      <trkpt lat="27.811721" lon="-15.581876">
        <ele>407.719</ele>
        <time>2021-10-27T08:26:26Z</time>
      </trkpt>
      <trkpt lat="27.814648" lon="-15.581688">
        <ele>416.308</ele>
        <time>2021-10-27T08:28:02Z</time>
      </trkpt>
      <trkpt lat="27.814453" lon="-15.580182">
        <ele>422.864</ele>
        <time>2021-10-27T08:29:28Z</time>
      </trkpt>
      <trkpt lat="27.815228" lon="-15.579506">
        <ele>427.114</ele>
        <time>2021-10-27T08:29:58Z</time>
      </trkpt>
      <trkpt lat="27.816602" lon="-15.579164">
        <ele>431.191</ele>
        <time>2021-10-27T08:30:36Z</time>
      </trkpt>
      <trkpt lat="27.818385" lon="-15.579443">
        <ele>443.576</ele>
        <time>2021-10-27T08:31:43Z</time>
      </trkpt>
      <trkpt lat="27.818371" lon="-15.578391">
        <ele>449.836</ele>
        <time>2021-10-27T08:32:16Z</time>
      </trkpt>
      <trkpt lat="27.817786" lon="-15.577718">
        <ele>456.710</ele>
        <time>2021-10-27T08:32:52Z</time>
      </trkpt>
      <trkpt lat="27.818609" lon="-15.577687">
        <ele>462.561</ele>
        <time>2021-10-27T08:33:22Z</time>
      </trkpt>
      <trkpt lat="27.819197" lon="-15.578150">
        <ele>467.427</ele>
        <time>2021-10-27T08:33:51Z</time>
      </trkpt>
      <trkpt lat="27.819379" lon="-15.579431">
        <ele>471.377</ele>
        <time>2021-10-27T08:38:14Z</time>
      </trkpt>
      <trkpt lat="27.819265" lon="-15.578964">
        <ele>471.661</ele>
        <time>2021-10-27T08:45:02Z</time>
      </trkpt>
      <trkpt lat="27.820362" lon="-15.577737">
        <ele>463.327</ele>
        <time>2021-10-27T08:53:19Z</time>
      </trkpt>
      <trkpt lat="27.821738" lon="-15.577708">
        <ele>456.108</ele>
        <time>2021-10-27T08:53:38Z</time>
      </trkpt>
      <trkpt lat="27.823225" lon="-15.576214">
        <ele>437.935</ele>
        <time>2021-10-27T08:54:48Z</time>
      </trkpt>
      <trkpt lat="27.824176" lon="-15.575977">
        <ele>430.855</ele>
        <time>2021-10-27T08:55:17Z</time>
      </trkpt>
      <trkpt lat="27.823628" lon="-15.576402">
        <ele>422.182</ele>
        <time>2021-10-27T08:55:28Z</time>
      </trkpt>
      <trkpt lat="27.825158" lon="-15.576306">
        <ele>404.597</ele>
        <time>2021-10-27T08:55:50Z</time>
      </trkpt>
      <trkpt lat="27.826763" lon="-15.574790">
        <ele>390.657</ele>
        <time>2021-10-27T08:56:17Z</time>
      </trkpt>
      <trkpt lat="27.827705" lon="-15.574945">
        <ele>389.411</ele>
        <time>2021-10-27T08:56:36Z</time>
      </trkpt>
      <trkpt lat="27.828779" lon="-15.574154">
        <ele>395.712</ele>
        <time>2021-10-27T08:57:21Z</time>
      </trkpt>
      <trkpt lat="27.832743" lon="-15.572829">
        <ele>411.998</ele>
        <time>2021-10-27T08:59:18Z</time>
      </trkpt>
      <trkpt lat="27.833578" lon="-15.572164">
        <ele>415.442</ele>
        <time>2021-10-27T08:59:46Z</time>
      </trkpt>
      <trkpt lat="27.834826" lon="-15.572565">
        <ele>420.522</ele>
        <time>2021-10-27T09:00:41Z</time>
      </trkpt>
      <trkpt lat="27.835416" lon="-15.571458">
        <ele>424.014</ele>
        <time>2021-10-27T09:01:12Z</time>
      </trkpt>
      <trkpt lat="27.836752" lon="-15.570868">
        <ele>425.408</ele>
        <time>2021-10-27T09:01:48Z</time>
      </trkpt>
      <trkpt lat="27.837520" lon="-15.571534">
        <ele>417.122</ele>
        <time>2021-10-27T09:02:02Z</time>
      </trkpt>
      <trkpt lat="27.838620" lon="-15.570847">
        <ele>405.972</ele>
        <time>2021-10-27T09:02:15Z</time>
      </trkpt>
      <trkpt lat="27.840218" lon="-15.570984">
        <ele>393.379</ele>
        <time>2021-10-27T09:02:31Z</time>
      </trkpt>
      <trkpt lat="27.841326" lon="-15.570518">
        <ele>383.874</ele>
        <time>2021-10-27T09:02:43Z</time>
      </trkpt>
      <trkpt lat="27.842374" lon="-15.569016">
        <ele>371.264</ele>
        <time>2021-10-27T09:04:38Z</time>
      </trkpt>
      <trkpt lat="27.848468" lon="-15.565534">
        <ele>343.898</ele>
        <time>2021-10-27T09:07:17Z</time>
      </trkpt>
      <trkpt lat="27.850105" lon="-15.564983">
        <ele>341.679</ele>
        <time>2021-10-27T09:07:40Z</time>
      </trkpt>
      <trkpt lat="27.854870" lon="-15.565893">
        <ele>360.915</ele>
        <time>2021-10-27T09:11:47Z</time>
      </trkpt>
      <trkpt lat="27.854960" lon="-15.566165">
        <ele>362.537</ele>
        <time>2021-10-27T09:11:58Z</time>
      </trkpt>
      <trkpt lat="27.854729" lon="-15.565958">
        <ele>364.549</ele>
        <time>2021-10-27T09:12:49Z</time>
      </trkpt>
      <trkpt lat="27.856846" lon="-15.566062">
        <ele>381.713</ele>
        <time>2021-10-27T09:15:11Z</time>
      </trkpt>
      <trkpt lat="27.858923" lon="-15.565234">
        <ele>400.708</ele>
        <time>2021-10-27T09:16:56Z</time>
      </trkpt>
      <trkpt lat="27.860183" lon="-15.565286">
        <ele>409.641</ele>
        <time>2021-10-27T09:17:51Z</time>
      </trkpt>
      <trkpt lat="27.862438" lon="-15.566914">
        <ele>433.061</ele>
        <time>2021-10-27T09:19:50Z</time>
      </trkpt>
      <trkpt lat="27.864564" lon="-15.565820">
        <ele>451.758</ele>
        <time>2021-10-27T09:21:27Z</time>
      </trkpt>
      <trkpt lat="27.864889" lon="-15.564745">
        <ele>454.723</ele>
        <time>2021-10-27T09:22:04Z</time>
      </trkpt>
      <trkpt lat="27.865925" lon="-15.564954">
        <ele>460.343</ele>
        <time>2021-10-27T09:22:43Z</time>
      </trkpt>
      <trkpt lat="27.868716" lon="-15.564564">
        <ele>466.657</ele>
        <time>2021-10-27T09:24:00Z</time>
      </trkpt>
      <trkpt lat="27.869822" lon="-15.565120">
        <ele>469.728</ele>
        <time>2021-10-27T09:25:50Z</time>
      </trkpt>
      <trkpt lat="27.870954" lon="-15.565167">
        <ele>474.124</ele>
        <time>2021-10-27T09:26:22Z</time>
      </trkpt>
      <trkpt lat="27.871686" lon="-15.564630">
        <ele>477.052</ele>
        <time>2021-10-27T09:26:47Z</time>
      </trkpt>
      <trkpt lat="27.872000" lon="-15.563597">
        <ele>475.653</ele>
        <time>2021-10-27T09:27:08Z</time>
      </trkpt>
      <trkpt lat="27.874871" lon="-15.566266">
        <ele>503.508</ele>
        <time>2021-10-27T09:35:57Z</time>
      </trkpt>
      <trkpt lat="27.876730" lon="-15.565906">
        <ele>518.708</ele>
        <time>2021-10-27T09:37:21Z</time>
      </trkpt>
      <trkpt lat="27.880254" lon="-15.565978">
        <ele>550.533</ele>
        <time>2021-10-27T09:40:07Z</time>
      </trkpt>
      <trkpt lat="27.881536" lon="-15.564932">
        <ele>565.993</ele>
        <time>2021-10-27T09:43:46Z</time>
      </trkpt>
      <trkpt lat="27.884635" lon="-15.565013">
        <ele>585.050</ele>
        <time>2021-10-27T09:47:07Z</time>
      </trkpt>
      <trkpt lat="27.885166" lon="-15.564621">
        <ele>588.615</ele>
        <time>2021-10-27T09:47:41Z</time>
      </trkpt>
      <trkpt lat="27.885492" lon="-15.563511">
        <ele>592.185</ele>
        <time>2021-10-27T09:48:16Z</time>
      </trkpt>
      <trkpt lat="27.886096" lon="-15.563071">
        <ele>594.369</ele>
        <time>2021-10-27T09:49:24Z</time>
      </trkpt>
      <trkpt lat="27.885956" lon="-15.563374">
        <ele>595.720</ele>
        <time>2021-10-27T10:07:19Z</time>
      </trkpt>
      <trkpt lat="27.887478" lon="-15.564053">
        <ele>604.696</ele>
        <time>2021-10-27T10:09:18Z</time>
      </trkpt>
      <trkpt lat="27.887610" lon="-15.563257">
        <ele>610.053</ele>
        <time>2021-10-27T10:10:37Z</time>
      </trkpt>
      <trkpt lat="27.888839" lon="-15.563310">
        <ele>620.904</ele>
        <time>2021-10-27T10:11:36Z</time>
      </trkpt>
      <trkpt lat="27.889763" lon="-15.562196">
        <ele>633.014</ele>
        <time>2021-10-27T10:12:39Z</time>
      </trkpt>
      <trkpt lat="27.890566" lon="-15.563209">
        <ele>638.408</ele>
        <time>2021-10-27T10:15:28Z</time>
      </trkpt>
      <trkpt lat="27.891573" lon="-15.563291">
        <ele>646.133</ele>
        <time>2021-10-27T10:15:57Z</time>
      </trkpt>
      <trkpt lat="27.892071" lon="-15.562905">
        <ele>650.553</ele>
        <time>2021-10-27T10:16:15Z</time>
      </trkpt>
      <trkpt lat="27.892858" lon="-15.563374">
        <ele>655.950</ele>
        <time>2021-10-27T10:16:45Z</time>
      </trkpt>
      <trkpt lat="27.893832" lon="-15.562789">
        <ele>662.535</ele>
        <time>2021-10-27T10:17:24Z</time>
      </trkpt>
      <trkpt lat="27.894564" lon="-15.563102">
        <ele>670.035</ele>
        <time>2021-10-27T10:17:56Z</time>
      </trkpt>
      <trkpt lat="27.895058" lon="-15.562838">
        <ele>674.729</ele>
        <time>2021-10-27T10:18:23Z</time>
      </trkpt>
      <trkpt lat="27.895412" lon="-15.563225">
        <ele>678.640</ele>
        <time>2021-10-27T10:18:37Z</time>
      </trkpt>
      <trkpt lat="27.896533" lon="-15.563040">
        <ele>689.446</ele>
        <time>2021-10-27T10:19:19Z</time>
      </trkpt>
      <trkpt lat="27.896853" lon="-15.562556">
        <ele>693.833</ele>
        <time>2021-10-27T10:19:41Z</time>
      </trkpt>
      <trkpt lat="27.897454" lon="-15.563268">
        <ele>700.923</ele>
        <time>2021-10-27T10:20:17Z</time>
      </trkpt>
      <trkpt lat="27.898265" lon="-15.563083">
        <ele>708.515</ele>
        <time>2021-10-27T10:20:56Z</time>
      </trkpt>
      <trkpt lat="27.900734" lon="-15.564812">
        <ele>733.708</ele>
        <time>2021-10-27T10:23:47Z</time>
      </trkpt>
      <trkpt lat="27.900388" lon="-15.565271">
        <ele>737.421</ele>
        <time>2021-10-27T10:24:08Z</time>
      </trkpt>
      <trkpt lat="27.901114" lon="-15.565916">
        <ele>744.621</ele>
        <time>2021-10-27T10:24:45Z</time>
      </trkpt>
      <trkpt lat="27.900811" lon="-15.565490">
        <ele>749.058</ele>
        <time>2021-10-27T10:25:06Z</time>
      </trkpt>
      <trkpt lat="27.901031" lon="-15.564970">
        <ele>752.593</ele>
        <time>2021-10-27T10:25:28Z</time>
      </trkpt>
      <trkpt lat="27.901485" lon="-15.565791">
        <ele>758.993</ele>
        <time>2021-10-27T10:26:03Z</time>
      </trkpt>
      <trkpt lat="27.902773" lon="-15.566360">
        <ele>772.367</ele>
        <time>2021-10-27T10:27:04Z</time>
      </trkpt>
      <trkpt lat="27.902185" lon="-15.566876">
        <ele>779.498</ele>
        <time>2021-10-27T10:27:36Z</time>
      </trkpt>
      <trkpt lat="27.902106" lon="-15.568121">
        <ele>789.784</ele>
        <time>2021-10-27T10:28:24Z</time>
      </trkpt>
      <trkpt lat="27.901321" lon="-15.567888">
        <ele>796.713</ele>
        <time>2021-10-27T10:28:55Z</time>
      </trkpt>
      <trkpt lat="27.901338" lon="-15.568773">
        <ele>805.243</ele>
        <time>2021-10-27T10:29:30Z</time>
      </trkpt>
      <trkpt lat="27.900555" lon="-15.568633">
        <ele>809.907</ele>
        <time>2021-10-27T10:30:00Z</time>
      </trkpt>
      <trkpt lat="27.899335" lon="-15.569219">
        <ele>822.208</ele>
        <time>2021-10-27T10:32:22Z</time>
      </trkpt>
      <trkpt lat="27.900839" lon="-15.569001">
        <ele>834.289</ele>
        <time>2021-10-27T10:33:25Z</time>
      </trkpt>
      <trkpt lat="27.901259" lon="-15.569339">
        <ele>839.059</ele>
        <time>2021-10-27T10:34:10Z</time>
      </trkpt>
      <trkpt lat="27.901851" lon="-15.568816">
        <ele>845.796</ele>
        <time>2021-10-27T10:34:41Z</time>
      </trkpt>
      <trkpt lat="27.902771" lon="-15.569147">
        <ele>852.721</ele>
        <time>2021-10-27T10:35:24Z</time>
      </trkpt>
      <trkpt lat="27.903961" lon="-15.567830">
        <ele>862.191</ele>
        <time>2021-10-27T10:36:21Z</time>
      </trkpt>
      <trkpt lat="27.905119" lon="-15.567901">
        <ele>870.175</ele>
        <time>2021-10-27T10:37:05Z</time>
      </trkpt>
      <trkpt lat="27.905873" lon="-15.566972">
        <ele>878.186</ele>
        <time>2021-10-27T10:37:48Z</time>
      </trkpt>
      <trkpt lat="27.905819" lon="-15.566282">
        <ele>883.462</ele>
        <time>2021-10-27T10:38:11Z</time>
      </trkpt>
      <trkpt lat="27.906291" lon="-15.566684">
        <ele>886.323</ele>
        <time>2021-10-27T10:38:41Z</time>
      </trkpt>
      <trkpt lat="27.905839" lon="-15.569003">
        <ele>899.583</ele>
        <time>2021-10-27T10:40:51Z</time>
      </trkpt>
      <trkpt lat="27.905271" lon="-15.569519">
        <ele>905.311</ele>
        <time>2021-10-27T10:41:19Z</time>
      </trkpt>
      <trkpt lat="27.906846" lon="-15.569829">
        <ele>916.708</ele>
        <time>2021-10-27T10:42:19Z</time>
      </trkpt>
      <trkpt lat="27.907101" lon="-15.569274">
        <ele>920.260</ele>
        <time>2021-10-27T10:42:41Z</time>
      </trkpt>
      <trkpt lat="27.906864" lon="-15.568694">
        <ele>922.840</ele>
        <time>2021-10-27T10:43:40Z</time>
      </trkpt>
      <trkpt lat="27.907224" lon="-15.569237">
        <ele>919.617</ele>
        <time>2021-10-27T10:48:26Z</time>
      </trkpt>
      <trkpt lat="27.907973" lon="-15.568988">
        <ele>915.982</ele>
        <time>2021-10-27T10:48:42Z</time>
      </trkpt>
      <trkpt lat="27.910520" lon="-15.569988">
        <ele>903.482</ele>
        <time>2021-10-27T10:49:11Z</time>
      </trkpt>
      <trkpt lat="27.911420" lon="-15.571661">
        <ele>913.466</ele>
        <time>2021-10-27T10:49:47Z</time>
      </trkpt>
      <trkpt lat="27.915268" lon="-15.574850">
        <ele>929.767</ele>
        <time>2021-10-27T10:51:38Z</time>
      </trkpt>
      <trkpt lat="27.916051" lon="-15.574366">
        <ele>933.223</ele>
        <time>2021-10-27T10:52:06Z</time>
      </trkpt>
      <trkpt lat="27.918552" lon="-15.575235">
        <ele>945.497</ele>
        <time>2021-10-27T10:54:36Z</time>
      </trkpt>
      <trkpt lat="27.921137" lon="-15.574313">
        <ele>944.023</ele>
        <time>2021-10-27T10:56:46Z</time>
      </trkpt>
      <trkpt lat="27.921184" lon="-15.574629">
        <ele>944.425</ele>
        <time>2021-10-27T10:59:08Z</time>
      </trkpt>
      <trkpt lat="27.921937" lon="-15.574709">
        <ele>944.308</ele>
        <time>2021-10-27T10:59:30Z</time>
      </trkpt>
      <trkpt lat="27.922332" lon="-15.575622">
        <ele>946.887</ele>
        <time>2021-10-27T10:59:59Z</time>
      </trkpt>
      <trkpt lat="27.923479" lon="-15.576271">
        <ele>937.927</ele>
        <time>2021-10-27T11:00:45Z</time>
      </trkpt>
      <trkpt lat="27.925383" lon="-15.575482">
        <ele>899.014</ele>
        <time>2021-10-27T11:01:36Z</time>
      </trkpt>
      <trkpt lat="27.925621" lon="-15.576197">
        <ele>900.459</ele>
        <time>2021-10-27T11:02:21Z</time>
      </trkpt>
      <trkpt lat="27.925302" lon="-15.578167">
        <ele>908.979</ele>
        <time>2021-10-27T11:03:05Z</time>
      </trkpt>
      <trkpt lat="27.925890" lon="-15.579234">
        <ele>915.143</ele>
        <time>2021-10-27T11:03:39Z</time>
      </trkpt>
      <trkpt lat="27.926179" lon="-15.579005">
        <ele>915.284</ele>
        <time>2021-10-27T11:03:50Z</time>
      </trkpt>
      <trkpt lat="27.926112" lon="-15.577504">
        <ele>918.650</ele>
        <time>2021-10-27T11:04:29Z</time>
      </trkpt>
      <trkpt lat="27.926666" lon="-15.576473">
        <ele>924.869</ele>
        <time>2021-10-27T11:05:10Z</time>
      </trkpt>
      <trkpt lat="27.928492" lon="-15.576634">
        <ele>942.104</ele>
        <time>2021-10-27T11:06:51Z</time>
      </trkpt>
      <trkpt lat="27.928881" lon="-15.576226">
        <ele>948.324</ele>
        <time>2021-10-27T11:07:15Z</time>
      </trkpt>
      <trkpt lat="27.930769" lon="-15.576066">
        <ele>968.608</ele>
        <time>2021-10-27T11:08:40Z</time>
      </trkpt>
      <trkpt lat="27.931565" lon="-15.575272">
        <ele>975.574</ele>
        <time>2021-10-27T11:09:58Z</time>
      </trkpt>
      <trkpt lat="27.932387" lon="-15.575329">
        <ele>979.234</ele>
        <time>2021-10-27T11:10:32Z</time>
      </trkpt>
      <trkpt lat="27.932757" lon="-15.574534">
        <ele>984.081</ele>
        <time>2021-10-27T11:11:07Z</time>
      </trkpt>
      <trkpt lat="27.933794" lon="-15.575412">
        <ele>994.516</ele>
        <time>2021-10-27T11:12:08Z</time>
      </trkpt>
      <trkpt lat="27.932820" lon="-15.576669">
        <ele>1015.066</ele>
        <time>2021-10-27T11:13:29Z</time>
      </trkpt>
      <trkpt lat="27.934839" lon="-15.576151">
        <ele>1035.360</ele>
        <time>2021-10-27T11:15:07Z</time>
      </trkpt>
      <trkpt lat="27.936651" lon="-15.577505">
        <ele>1045.681</ele>
        <time>2021-10-27T11:16:34Z</time>
      </trkpt>
      <trkpt lat="27.937911" lon="-15.582862">
        <ele>1078.547</ele>
        <time>2021-10-27T11:20:51Z</time>
      </trkpt>
      <trkpt lat="27.936959" lon="-15.586769">
        <ele>1106.284</ele>
        <time>2021-10-27T11:23:03Z</time>
      </trkpt>
      <trkpt lat="27.936066" lon="-15.587274">
        <ele>1112.507</ele>
        <time>2021-10-27T11:24:16Z</time>
      </trkpt>
      <trkpt lat="27.936012" lon="-15.588200">
        <ele>1122.317</ele>
        <time>2021-10-27T11:30:35Z</time>
      </trkpt>
      <trkpt lat="27.936883" lon="-15.589807">
        <ele>1137.608</ele>
        <time>2021-10-27T11:31:40Z</time>
      </trkpt>
      <trkpt lat="27.937548" lon="-15.589864">
        <ele>1142.626</ele>
        <time>2021-10-27T11:32:08Z</time>
      </trkpt>
      <trkpt lat="27.939461" lon="-15.591309">
        <ele>1156.796</ele>
        <time>2021-10-27T11:34:00Z</time>
      </trkpt>
      <trkpt lat="27.939391" lon="-15.591768">
        <ele>1158.343</ele>
        <time>2021-10-27T11:34:25Z</time>
      </trkpt>
      <trkpt lat="27.936342" lon="-15.592009">
        <ele>1173.468</ele>
        <time>2021-10-27T11:36:59Z</time>
      </trkpt>
      <trkpt lat="27.936081" lon="-15.593200">
        <ele>1184.378</ele>
        <time>2021-10-27T11:40:04Z</time>
      </trkpt>
      <trkpt lat="27.935100" lon="-15.593059">
        <ele>1189.462</ele>
        <time>2021-10-27T11:40:41Z</time>
      </trkpt>
      <trkpt lat="27.935163" lon="-15.593776">
        <ele>1194.043</ele>
        <time>2021-10-27T11:41:07Z</time>
      </trkpt>
      <trkpt lat="27.934467" lon="-15.594222">
        <ele>1197.199</ele>
        <time>2021-10-27T11:41:39Z</time>
      </trkpt>
      <trkpt lat="27.934603" lon="-15.595007">
        <ele>1202.434</ele>
        <time>2021-10-27T11:42:09Z</time>
      </trkpt>
      <trkpt lat="27.934135" lon="-15.595008">
        <ele>1204.855</ele>
        <time>2021-10-27T11:42:29Z</time>
      </trkpt>
      <trkpt lat="27.934004" lon="-15.595653">
        <ele>1209.610</ele>
        <time>2021-10-27T11:42:53Z</time>
      </trkpt>
      <trkpt lat="27.933589" lon="-15.595661">
        <ele>1211.408</ele>
        <time>2021-10-27T11:43:10Z</time>
      </trkpt>
      <trkpt lat="27.933087" lon="-15.596668">
        <ele>1217.141</ele>
        <time>2021-10-27T11:43:56Z</time>
      </trkpt>
      <trkpt lat="27.931286" lon="-15.596712">
        <ele>1230.251</ele>
        <time>2021-10-27T11:45:17Z</time>
      </trkpt>
      <trkpt lat="27.929657" lon="-15.598166">
        <ele>1248.828</ele>
        <time>2021-10-27T11:46:57Z</time>
      </trkpt>
      <trkpt lat="27.930611" lon="-15.598563">
        <ele>1243.123</ele>
        <time>2021-10-27T11:48:40Z</time>
      </trkpt>
      <trkpt lat="27.932846" lon="-15.600567">
        <ele>1221.363</ele>
        <time>2021-10-27T11:49:15Z</time>
      </trkpt>
      <trkpt lat="27.933631" lon="-15.600429">
        <ele>1218.827</ele>
        <time>2021-10-27T11:49:27Z</time>
      </trkpt>
      <trkpt lat="27.934909" lon="-15.601269">
        <ele>1215.278</ele>
        <time>2021-10-27T11:50:14Z</time>
      </trkpt>
      <trkpt lat="27.935646" lon="-15.603995">
        <ele>1207.314</ele>
        <time>2021-10-27T11:50:46Z</time>
      </trkpt>
      <trkpt lat="27.936261" lon="-15.604559">
        <ele>1206.846</ele>
        <time>2021-10-27T11:50:59Z</time>
      </trkpt>
      <trkpt lat="27.936111" lon="-15.606739">
        <ele>1192.688</ele>
        <time>2021-10-27T11:51:23Z</time>
      </trkpt>
      <trkpt lat="27.936696" lon="-15.607071">
        <ele>1197.116</ele>
        <time>2021-10-27T11:51:40Z</time>
      </trkpt>
      <trkpt lat="27.937132" lon="-15.607970">
        <ele>1204.408</ele>
        <time>2021-10-27T11:52:31Z</time>
      </trkpt>
      <trkpt lat="27.938226" lon="-15.608155">
        <ele>1204.112</ele>
        <time>2021-10-27T11:52:57Z</time>
      </trkpt>
      <trkpt lat="27.938410" lon="-15.608962">
        <ele>1205.122</ele>
        <time>2021-10-27T11:53:13Z</time>
      </trkpt>
      <trkpt lat="27.939290" lon="-15.609541">
        <ele>1209.899</ele>
        <time>2021-10-27T11:53:39Z</time>
      </trkpt>
      <trkpt lat="27.939199" lon="-15.610059">
        <ele>1211.514</ele>
        <time>2021-10-27T11:53:52Z</time>
      </trkpt>
      <trkpt lat="27.938263" lon="-15.610816">
        <ele>1213.974</ele>
        <time>2021-10-27T11:54:21Z</time>
      </trkpt>
      <trkpt lat="27.937971" lon="-15.611953">
        <ele>1216.118</ele>
        <time>2021-10-27T11:54:48Z</time>
      </trkpt>
      <trkpt lat="27.938394" lon="-15.614273">
        <ele>1223.059</ele>
        <time>2021-10-27T11:55:39Z</time>
      </trkpt>
      <trkpt lat="27.938985" lon="-15.614844">
        <ele>1226.255</ele>
        <time>2021-10-27T11:56:02Z</time>
      </trkpt>
      <trkpt lat="27.939977" lon="-15.614516">
        <ele>1229.567</ele>
        <time>2021-10-27T11:56:38Z</time>
      </trkpt>
      <trkpt lat="27.941817" lon="-15.615651">
        <ele>1238.481</ele>
        <time>2021-10-27T11:57:43Z</time>
      </trkpt>
      <trkpt lat="27.942857" lon="-15.614951">
        <ele>1244.119</ele>
        <time>2021-10-27T11:58:23Z</time>
      </trkpt>
      <trkpt lat="27.943449" lon="-15.615148">
        <ele>1248.408</ele>
        <time>2021-10-27T11:58:44Z</time>
      </trkpt>
      <trkpt lat="27.944428" lon="-15.614502">
        <ele>1254.864</ele>
        <time>2021-10-27T11:59:56Z</time>
      </trkpt>
      <trkpt lat="27.946491" lon="-15.611854">
        <ele>1253.384</ele>
        <time>2021-10-27T12:38:46Z</time>
      </trkpt>
      <trkpt lat="27.947157" lon="-15.612854">
        <ele>1249.081</ele>
        <time>2021-10-27T12:40:17Z</time>
      </trkpt>
      <trkpt lat="27.949183" lon="-15.613751">
        <ele>1256.366</ele>
        <time>2021-10-27T12:41:03Z</time>
      </trkpt>
      <trkpt lat="27.951268" lon="-15.611457">
        <ele>1278.676</ele>
        <time>2021-10-27T12:42:26Z</time>
      </trkpt>
      <trkpt lat="27.951688" lon="-15.608293">
        <ele>1285.360</ele>
        <time>2021-10-27T12:43:41Z</time>
      </trkpt>
      <trkpt lat="27.952802" lon="-15.607100">
        <ele>1286.351</ele>
        <time>2021-10-27T12:44:18Z</time>
      </trkpt>
      <trkpt lat="27.953283" lon="-15.607070">
        <ele>1285.997</ele>
        <time>2021-10-27T12:44:27Z</time>
      </trkpt>
      <trkpt lat="27.953769" lon="-15.607960">
        <ele>1285.463</ele>
        <time>2021-10-27T12:44:45Z</time>
      </trkpt>
      <trkpt lat="27.956011" lon="-15.609435">
        <ele>1294.944</ele>
        <time>2021-10-27T12:46:04Z</time>
      </trkpt>
      <trkpt lat="27.957138" lon="-15.608506">
        <ele>1304.218</ele>
        <time>2021-10-27T12:46:46Z</time>
      </trkpt>
      <trkpt lat="27.958073" lon="-15.608543">
        <ele>1310.808</ele>
        <time>2021-10-27T12:47:07Z</time>
      </trkpt>
      <trkpt lat="27.958416" lon="-15.607575">
        <ele>1320.554</ele>
        <time>2021-10-27T12:47:29Z</time>
      </trkpt>
      <trkpt lat="27.957730" lon="-15.606662">
        <ele>1328.214</ele>
        <time>2021-10-27T12:47:59Z</time>
      </trkpt>
      <trkpt lat="27.957947" lon="-15.606098">
        <ele>1349.851</ele>
        <time>2021-10-27T12:48:15Z</time>
      </trkpt>
      <trkpt lat="27.960047" lon="-15.606413">
        <ele>1358.756</ele>
        <time>2021-10-27T12:49:31Z</time>
      </trkpt>
      <trkpt lat="27.958966" lon="-15.606556">
        <ele>1343.186</ele>
        <time>2021-10-27T12:50:08Z</time>
      </trkpt>
      <trkpt lat="27.957146" lon="-15.605582">
        <ele>1366.240</ele>
        <time>2021-10-27T12:51:57Z</time>
      </trkpt>
      <trkpt lat="27.956711" lon="-15.606214">
        <ele>1374.671</ele>
        <time>2021-10-27T12:53:12Z</time>
      </trkpt>
      <trkpt lat="27.957014" lon="-15.605147">
        <ele>1385.077</ele>
        <time>2021-10-27T12:54:08Z</time>
      </trkpt>
      <trkpt lat="27.958986" lon="-15.605500">
        <ele>1404.438</ele>
        <time>2021-10-27T12:56:05Z</time>
      </trkpt>
      <trkpt lat="27.960274" lon="-15.605120">
        <ele>1417.470</ele>
        <time>2021-10-27T12:57:30Z</time>
      </trkpt>
      <trkpt lat="27.961603" lon="-15.604034">
        <ele>1433.217</ele>
        <time>2021-10-27T12:59:05Z</time>
      </trkpt>
      <trkpt lat="27.964969" lon="-15.605469">
        <ele>1463.808</ele>
        <time>2021-10-27T13:03:11Z</time>
      </trkpt>
      <trkpt lat="27.964882" lon="-15.605215">
        <ele>1465.871</ele>
        <time>2021-10-27T13:04:01Z</time>
      </trkpt>
      <trkpt lat="27.965051" lon="-15.606406">
        <ele>1474.391</ele>
        <time>2021-10-27T13:04:49Z</time>
      </trkpt>
      <trkpt lat="27.964720" lon="-15.607835">
        <ele>1485.428</ele>
        <time>2021-10-27T13:05:50Z</time>
      </trkpt>
      <trkpt lat="27.965834" lon="-15.606273">
        <ele>1504.953</ele>
        <time>2021-10-27T13:07:22Z</time>
      </trkpt>
      <trkpt lat="27.966273" lon="-15.605009">
        <ele>1520.213</ele>
        <time>2021-10-27T13:08:45Z</time>
      </trkpt>
      <trkpt lat="27.965991" lon="-15.603566">
        <ele>1537.587</ele>
        <time>2021-10-27T13:10:18Z</time>
      </trkpt>
      <trkpt lat="27.965478" lon="-15.603251">
        <ele>1543.518</ele>
        <time>2021-10-27T13:11:13Z</time>
      </trkpt>
      <trkpt lat="27.965421" lon="-15.602567">
        <ele>1551.054</ele>
        <time>2021-10-27T13:13:55Z</time>
      </trkpt>
      <trkpt lat="27.964976" lon="-15.602392">
        <ele>1555.726</ele>
        <time>2021-10-27T13:14:24Z</time>
      </trkpt>
      <trkpt lat="27.964318" lon="-15.602985">
        <ele>1564.447</ele>
        <time>2021-10-27T13:15:39Z</time>
      </trkpt>
      <trkpt lat="27.964707" lon="-15.602112">
        <ele>1571.811</ele>
        <time>2021-10-27T13:16:35Z</time>
      </trkpt>
      <trkpt lat="27.965695" lon="-15.601492">
        <ele>1581.308</ele>
        <time>2021-10-27T13:17:39Z</time>
      </trkpt>
      <trkpt lat="27.966934" lon="-15.603408">
        <ele>1586.370</ele>
        <time>2021-10-27T13:21:15Z</time>
      </trkpt>
      <trkpt lat="27.968352" lon="-15.606741">
        <ele>1621.780</ele>
        <time>2021-10-27T13:26:03Z</time>
      </trkpt>
      <trkpt lat="27.968163" lon="-15.607259">
        <ele>1638.777</ele>
        <time>2021-10-27T13:27:01Z</time>
      </trkpt>
      <trkpt lat="27.968487" lon="-15.608137">
        <ele>1648.772</ele>
        <time>2021-10-27T13:27:55Z</time>
      </trkpt>
      <trkpt lat="27.968155" lon="-15.608849">
        <ele>1665.962</ele>
        <time>2021-10-27T13:29:08Z</time>
      </trkpt>
      <trkpt lat="27.968365" lon="-15.609843">
        <ele>1683.116</ele>
        <time>2021-10-27T13:30:10Z</time>
      </trkpt>
      <trkpt lat="27.968055" lon="-15.610238">
        <ele>1695.887</ele>
        <time>2021-10-27T13:31:17Z</time>
      </trkpt>
      <trkpt lat="27.969155" lon="-15.611244">
        <ele>1719.493</ele>
        <time>2021-10-27T13:36:11Z</time>
      </trkpt>
      <trkpt lat="27.968957" lon="-15.611435">
        <ele>1721.314</ele>
        <time>2021-10-27T13:37:09Z</time>
      </trkpt>
      <trkpt lat="27.968402" lon="-15.610271">
        <ele>1706.154</ele>
        <time>2021-10-27T13:44:56Z</time>
      </trkpt>
      <trkpt lat="27.968039" lon="-15.610325">
        <ele>1696.609</ele>
        <time>2021-10-27T13:45:38Z</time>
      </trkpt>
      <trkpt lat="27.968351" lon="-15.609838">
        <ele>1680.508</ele>
        <time>2021-10-27T13:46:57Z</time>
      </trkpt>
      <trkpt lat="27.968173" lon="-15.608740">
        <ele>1662.849</ele>
        <time>2021-10-27T13:47:37Z</time>
      </trkpt>
      <trkpt lat="27.968513" lon="-15.607950">
        <ele>1646.539</ele>
        <time>2021-10-27T13:48:13Z</time>
      </trkpt>
      <trkpt lat="27.968148" lon="-15.607272">
        <ele>1638.626</ele>
        <time>2021-10-27T13:48:41Z</time>
      </trkpt>
      <trkpt lat="27.968375" lon="-15.606720">
        <ele>1622.091</ele>
        <time>2021-10-27T13:49:30Z</time>
      </trkpt>
      <trkpt lat="27.966949" lon="-15.603389">
        <ele>1586.451</ele>
        <time>2021-10-27T14:01:43Z</time>
      </trkpt>
      <trkpt lat="27.965722" lon="-15.601691">
        <ele>1577.925</ele>
        <time>2021-10-27T14:07:14Z</time>
      </trkpt>
      <trkpt lat="27.965880" lon="-15.600897">
        <ele>1583.666</ele>
        <time>2021-10-27T14:12:59Z</time>
      </trkpt>
      <trkpt lat="27.965367" lon="-15.599791">
        <ele>1586.322</ele>
        <time>2021-10-27T14:13:43Z</time>
      </trkpt>
      <trkpt lat="27.966041" lon="-15.597751">
        <ele>1597.984</ele>
        <time>2021-10-27T14:14:52Z</time>
      </trkpt>
      <trkpt lat="27.965116" lon="-15.597301">
        <ele>1605.107</ele>
        <time>2021-10-27T14:16:05Z</time>
      </trkpt>
      <trkpt lat="27.964688" lon="-15.597937">
        <ele>1606.017</ele>
        <time>2021-10-27T14:16:32Z</time>
      </trkpt>
      <trkpt lat="27.963351" lon="-15.597251">
        <ele>1606.208</ele>
        <time>2021-10-27T14:17:00Z</time>
      </trkpt>
      <trkpt lat="27.962738" lon="-15.597791">
        <ele>1606.126</ele>
        <time>2021-10-27T14:17:15Z</time>
      </trkpt>
      <trkpt lat="27.962286" lon="-15.597727">
        <ele>1607.786</ele>
        <time>2021-10-27T14:17:24Z</time>
      </trkpt>
      <trkpt lat="27.962006" lon="-15.598139">
        <ele>1609.373</ele>
        <time>2021-10-27T14:17:34Z</time>
      </trkpt>
      <trkpt lat="27.960864" lon="-15.598346">
        <ele>1615.948</ele>
        <time>2021-10-27T14:18:08Z</time>
      </trkpt>
      <trkpt lat="27.960180" lon="-15.597717">
        <ele>1620.118</ele>
        <time>2021-10-27T14:18:32Z</time>
      </trkpt>
      <trkpt lat="27.960275" lon="-15.595848">
        <ele>1631.462</ele>
        <time>2021-10-27T14:19:37Z</time>
      </trkpt>
      <trkpt lat="27.959421" lon="-15.594914">
        <ele>1634.233</ele>
        <time>2021-10-27T14:20:13Z</time>
      </trkpt>
      <trkpt lat="27.959529" lon="-15.593933">
        <ele>1642.689</ele>
        <time>2021-10-27T14:20:41Z</time>
      </trkpt>
      <trkpt lat="27.958470" lon="-15.593040">
        <ele>1643.236</ele>
        <time>2021-10-27T14:21:25Z</time>
      </trkpt>
      <trkpt lat="27.958470" lon="-15.591903">
        <ele>1640.617</ele>
        <time>2021-10-27T14:21:37Z</time>
      </trkpt>
      <trkpt lat="27.958986" lon="-15.590627">
        <ele>1645.018</ele>
        <time>2021-10-27T14:22:03Z</time>
      </trkpt>
      <trkpt lat="27.959667" lon="-15.590342">
        <ele>1642.308</ele>
        <time>2021-10-27T14:22:16Z</time>
      </trkpt>
      <trkpt lat="27.960128" lon="-15.589637">
        <ele>1637.731</ele>
        <time>2021-10-27T14:22:26Z</time>
      </trkpt>
      <trkpt lat="27.963120" lon="-15.589422">
        <ele>1628.611</ele>
        <time>2021-10-27T14:23:12Z</time>
      </trkpt>
      <trkpt lat="27.964921" lon="-15.587783">
        <ele>1640.698</ele>
        <time>2021-10-27T14:24:23Z</time>
      </trkpt>
      <trkpt lat="27.965930" lon="-15.583957">
        <ele>1664.383</ele>
        <time>2021-10-27T14:26:59Z</time>
      </trkpt>
      <trkpt lat="27.966092" lon="-15.584160">
        <ele>1665.743</ele>
        <time>2021-10-27T14:27:20Z</time>
      </trkpt>
      <trkpt lat="27.967140" lon="-15.582151">
        <ele>1676.637</ele>
        <time>2021-10-27T14:29:51Z</time>
      </trkpt>
      <trkpt lat="27.967500" lon="-15.582345">
        <ele>1676.698</ele>
        <time>2021-10-27T14:30:06Z</time>
      </trkpt>
      <trkpt lat="27.966420" lon="-15.583427">
        <ele>1671.754</ele>
        <time>2021-10-27T14:30:57Z</time>
      </trkpt>
      <trkpt lat="27.970382" lon="-15.584268">
        <ele>1686.513</ele>
        <time>2021-10-27T14:32:16Z</time>
      </trkpt>
      <trkpt lat="27.973948" lon="-15.584142">
        <ele>1687.843</ele>
        <time>2021-10-27T14:33:19Z</time>
      </trkpt>
      <trkpt lat="27.974610" lon="-15.583774">
        <ele>1689.107</ele>
        <time>2021-10-27T14:33:35Z</time>
      </trkpt>
      <trkpt lat="27.977152" lon="-15.580153">
        <ele>1721.108</ele>
        <time>2021-10-27T14:37:08Z</time>
      </trkpt>
      <trkpt lat="27.976274" lon="-15.578776">
        <ele>1724.969</ele>
        <time>2021-10-27T14:40:10Z</time>
      </trkpt>
      <trkpt lat="27.975405" lon="-15.578587">
        <ele>1734.929</ele>
        <time>2021-10-27T14:40:54Z</time>
      </trkpt>
      <trkpt lat="27.975002" lon="-15.577973">
        <ele>1743.276</ele>
        <time>2021-10-27T14:41:28Z</time>
      </trkpt>
      <trkpt lat="27.974500" lon="-15.578136">
        <ele>1748.211</ele>
        <time>2021-10-27T14:41:54Z</time>
      </trkpt>
      <trkpt lat="27.974016" lon="-15.579086">
        <ele>1758.431</ele>
        <time>2021-10-27T14:42:46Z</time>
      </trkpt>
      <trkpt lat="27.973617" lon="-15.577942">
        <ele>1768.335</ele>
        <time>2021-10-27T14:43:38Z</time>
      </trkpt>
      <trkpt lat="27.973949" lon="-15.577193">
        <ele>1772.986</ele>
        <time>2021-10-27T14:44:06Z</time>
      </trkpt>
      <trkpt lat="27.973328" lon="-15.575662">
        <ele>1781.442</ele>
        <time>2021-10-27T14:44:58Z</time>
      </trkpt>
      <trkpt lat="27.973229" lon="-15.574053">
        <ele>1777.493</ele>
        <time>2021-10-27T14:46:06Z</time>
      </trkpt>
      <trkpt lat="27.971832" lon="-15.573373">
        <ele>1772.065</ele>
        <time>2021-10-27T14:46:26Z</time>
      </trkpt>
      <trkpt lat="27.970245" lon="-15.571540">
        <ele>1792.921</ele>
        <time>2021-10-27T14:48:13Z</time>
      </trkpt>
      <trkpt lat="27.970084" lon="-15.569471">
        <ele>1810.008</ele>
        <time>2021-10-27T14:49:52Z</time>
      </trkpt>
      <trkpt lat="27.968581" lon="-15.567749">
        <ele>1832.687</ele>
        <time>2021-10-27T14:53:00Z</time>
      </trkpt>
      <trkpt lat="27.968469" lon="-15.565355">
        <ele>1854.077</ele>
        <time>2021-10-27T14:55:26Z</time>
      </trkpt>
      <trkpt lat="27.967034" lon="-15.564907">
        <ele>1863.654</ele>
        <time>2021-10-27T14:56:15Z</time>
      </trkpt>
      <trkpt lat="27.965923" lon="-15.566084">
        <ele>1872.939</ele>
        <time>2021-10-27T14:57:12Z</time>
      </trkpt>
      <trkpt lat="27.964532" lon="-15.566516">
        <ele>1882.349</ele>
        <time>2021-10-27T14:58:05Z</time>
      </trkpt>
      <trkpt lat="27.964065" lon="-15.568531">
        <ele>1905.113</ele>
        <time>2021-10-27T14:59:36Z</time>
      </trkpt>
      <trkpt lat="27.963410" lon="-15.569346">
        <ele>1915.354</ele>
        <time>2021-10-27T15:00:26Z</time>
      </trkpt>
      <trkpt lat="27.964323" lon="-15.571876">
        <ele>1910.790</ele>
        <time>2021-10-27T15:01:30Z</time>
      </trkpt>
      <trkpt lat="27.963648" lon="-15.572369">
        <ele>1916.178</ele>
        <time>2021-10-27T15:02:05Z</time>
      </trkpt>
      <trkpt lat="27.961944" lon="-15.571969">
        <ele>1932.833</ele>
        <time>2021-10-27T15:03:44Z</time>
      </trkpt>
      <trkpt lat="27.962178" lon="-15.571962">
        <ele>1933.526</ele>
        <time>2021-10-27T15:05:23Z</time>
      </trkpt>
      <trkpt lat="27.962018" lon="-15.571683">
        <ele>1933.408</ele>
        <time>2021-10-27T15:09:36Z</time>
      </trkpt>
      <trkpt lat="27.962125" lon="-15.572074">
        <ele>1933.255</ele>
        <time>2021-10-27T15:23:11Z</time>
      </trkpt>
      <trkpt lat="27.963637" lon="-15.572364">
        <ele>1916.275</ele>
        <time>2021-10-27T15:26:09Z</time>
      </trkpt>
      <trkpt lat="27.964373" lon="-15.571651">
        <ele>1910.372</ele>
        <time>2021-10-27T15:26:21Z</time>
      </trkpt>
      <trkpt lat="27.963295" lon="-15.569504">
        <ele>1915.837</ele>
        <time>2021-10-27T15:27:00Z</time>
      </trkpt>
      <trkpt lat="27.964166" lon="-15.568288">
        <ele>1902.487</ele>
        <time>2021-10-27T15:27:59Z</time>
      </trkpt>
      <trkpt lat="27.964618" lon="-15.566406">
        <ele>1881.911</ele>
        <time>2021-10-27T15:28:19Z</time>
      </trkpt>
      <trkpt lat="27.965330" lon="-15.566428">
        <ele>1876.632</ele>
        <time>2021-10-27T15:28:27Z</time>
      </trkpt>
      <trkpt lat="27.967150" lon="-15.564873">
        <ele>1862.818</ele>
        <time>2021-10-27T15:28:54Z</time>
      </trkpt>
      <trkpt lat="27.968586" lon="-15.565323">
        <ele>1853.993</ele>
        <time>2021-10-27T15:29:14Z</time>
      </trkpt>
      <trkpt lat="27.969088" lon="-15.564496">
        <ele>1855.865</ele>
        <time>2021-10-27T15:29:38Z</time>
      </trkpt>
      <trkpt lat="27.968784" lon="-15.563685">
        <ele>1851.821</ele>
        <time>2021-10-27T15:29:52Z</time>
      </trkpt>
      <trkpt lat="27.966914" lon="-15.561527">
        <ele>1824.108</ele>
        <time>2021-10-27T15:30:18Z</time>
      </trkpt>
      <trkpt lat="27.966587" lon="-15.560477">
        <ele>1816.217</ele>
        <time>2021-10-27T15:30:28Z</time>
      </trkpt>
      <trkpt lat="27.964894" lon="-15.559652">
        <ele>1802.887</ele>
        <time>2021-10-27T15:31:19Z</time>
      </trkpt>
      <trkpt lat="27.965369" lon="-15.557840">
        <ele>1798.744</ele>
        <time>2021-10-27T15:31:37Z</time>
      </trkpt>
      <trkpt lat="27.964941" lon="-15.553780">
        <ele>1783.229</ele>
        <time>2021-10-27T15:32:19Z</time>
      </trkpt>
      <trkpt lat="27.963594" lon="-15.551115">
        <ele>1759.939</ele>
        <time>2021-10-27T15:32:58Z</time>
      </trkpt>
      <trkpt lat="27.964780" lon="-15.550147">
        <ele>1737.783</ele>
        <time>2021-10-27T15:33:49Z</time>
      </trkpt>
      <trkpt lat="27.964426" lon="-15.547777">
        <ele>1720.384</ele>
        <time>2021-10-27T15:34:10Z</time>
      </trkpt>
      <trkpt lat="27.963959" lon="-15.547436">
        <ele>1716.160</ele>
        <time>2021-10-27T15:34:15Z</time>
      </trkpt>
      <trkpt lat="27.962501" lon="-15.547579">
        <ele>1704.784</ele>
        <time>2021-10-27T15:34:32Z</time>
      </trkpt>
      <trkpt lat="27.963647" lon="-15.546306">
        <ele>1692.907</ele>
        <time>2021-10-27T15:34:51Z</time>
      </trkpt>
      <trkpt lat="27.964441" lon="-15.546088">
        <ele>1690.817</ele>
        <time>2021-10-27T15:35:00Z</time>
      </trkpt>
      <trkpt lat="27.965455" lon="-15.546444">
        <ele>1688.408</ele>
        <time>2021-10-27T15:35:14Z</time>
      </trkpt>
      <trkpt lat="27.966385" lon="-15.547930">
        <ele>1671.756</ele>
        <time>2021-10-27T15:35:32Z</time>
      </trkpt>
      <trkpt lat="27.966930" lon="-15.548200">
        <ele>1669.336</ele>
        <time>2021-10-27T15:35:39Z</time>
      </trkpt>
      <trkpt lat="27.967107" lon="-15.547804">
        <ele>1668.093</ele>
        <time>2021-10-27T15:35:45Z</time>
      </trkpt>
      <trkpt lat="27.966651" lon="-15.546554">
        <ele>1667.148</ele>
        <time>2021-10-27T15:36:52Z</time>
      </trkpt>
      <trkpt lat="27.967271" lon="-15.545439">
        <ele>1665.428</ele>
        <time>2021-10-27T15:37:12Z</time>
      </trkpt>
      <trkpt lat="27.964843" lon="-15.541547">
        <ele>1652.482</ele>
        <time>2021-10-27T15:38:04Z</time>
      </trkpt>
      <trkpt lat="27.964785" lon="-15.540865">
        <ele>1647.943</ele>
        <time>2021-10-27T15:38:12Z</time>
      </trkpt>
      <trkpt lat="27.965096" lon="-15.541214">
        <ele>1641.729</ele>
        <time>2021-10-27T15:38:22Z</time>
      </trkpt>
      <trkpt lat="27.965256" lon="-15.539867">
        <ele>1623.559</ele>
        <time>2021-10-27T15:39:20Z</time>
      </trkpt>
      <trkpt lat="27.964293" lon="-15.539533">
        <ele>1611.803</ele>
        <time>2021-10-27T15:39:37Z</time>
      </trkpt>
      <trkpt lat="27.963853" lon="-15.538447">
        <ele>1601.123</ele>
        <time>2021-10-27T15:39:48Z</time>
      </trkpt>
      <trkpt lat="27.962902" lon="-15.537824">
        <ele>1583.008</ele>
        <time>2021-10-27T15:40:02Z</time>
      </trkpt>
      <trkpt lat="27.963488" lon="-15.537818">
        <ele>1576.043</ele>
        <time>2021-10-27T15:40:14Z</time>
      </trkpt>
      <trkpt lat="27.962686" lon="-15.537447">
        <ele>1570.713</ele>
        <time>2021-10-27T15:40:28Z</time>
      </trkpt>
      <trkpt lat="27.962597" lon="-15.538008">
        <ele>1565.620</ele>
        <time>2021-10-27T15:40:35Z</time>
      </trkpt>
      <trkpt lat="27.961069" lon="-15.537029">
        <ele>1522.065</ele>
        <time>2021-10-27T15:40:56Z</time>
      </trkpt>
      <trkpt lat="27.960764" lon="-15.533845">
        <ele>1529.855</ele>
        <time>2021-10-27T15:46:05Z</time>
      </trkpt>
      <trkpt lat="27.960986" lon="-15.532756">
        <ele>1545.279</ele>
        <time>2021-10-27T15:46:58Z</time>
      </trkpt>
      <trkpt lat="27.959976" lon="-15.533176">
        <ele>1541.110</ele>
        <time>2021-10-27T15:47:29Z</time>
      </trkpt>
      <trkpt lat="27.955049" lon="-15.531844">
        <ele>1538.886</ele>
        <time>2021-10-27T15:49:42Z</time>
      </trkpt>
      <trkpt lat="27.953326" lon="-15.530641">
        <ele>1536.868</ele>
        <time>2021-10-27T15:50:12Z</time>
      </trkpt>
      <trkpt lat="27.952206" lon="-15.528809">
        <ele>1533.442</ele>
        <time>2021-10-27T15:50:37Z</time>
      </trkpt>
      <trkpt lat="27.952841" lon="-15.528233">
        <ele>1532.426</ele>
        <time>2021-10-27T15:50:50Z</time>
      </trkpt>
      <trkpt lat="27.951416" lon="-15.525931">
        <ele>1516.408</ele>
        <time>2021-10-27T15:51:16Z</time>
      </trkpt>
      <trkpt lat="27.951601" lon="-15.525003">
        <ele>1517.794</ele>
        <time>2021-10-27T15:51:32Z</time>
      </trkpt>
      <trkpt lat="27.951180" lon="-15.522710">
        <ele>1511.564</ele>
        <time>2021-10-27T15:52:29Z</time>
      </trkpt>
      <trkpt lat="27.950088" lon="-15.522509">
        <ele>1498.991</ele>
        <time>2021-10-27T15:52:53Z</time>
      </trkpt>
      <trkpt lat="27.951065" lon="-15.522091">
        <ele>1484.046</ele>
        <time>2021-10-27T15:59:06Z</time>
      </trkpt>
      <trkpt lat="27.951725" lon="-15.519543">
        <ele>1454.776</ele>
        <time>2021-10-27T15:59:33Z</time>
      </trkpt>
      <trkpt lat="27.951376" lon="-15.519092">
        <ele>1447.150</ele>
        <time>2021-10-27T15:59:39Z</time>
      </trkpt>
      <trkpt lat="27.950639" lon="-15.519048">
        <ele>1436.031</ele>
        <time>2021-10-27T15:59:49Z</time>
      </trkpt>
      <trkpt lat="27.950571" lon="-15.517587">
        <ele>1420.617</ele>
        <time>2021-10-27T16:00:03Z</time>
      </trkpt>
      <trkpt lat="27.949856" lon="-15.516694">
        <ele>1405.593</ele>
        <time>2021-10-27T16:00:14Z</time>
      </trkpt>
      <trkpt lat="27.949647" lon="-15.515117">
        <ele>1391.065</ele>
        <time>2021-10-27T16:00:26Z</time>
      </trkpt>
      <trkpt lat="27.949052" lon="-15.514651">
        <ele>1382.921</ele>
        <time>2021-10-27T16:00:43Z</time>
      </trkpt>
      <trkpt lat="27.949644" lon="-15.514289">
        <ele>1376.208</ele>
        <time>2021-10-27T16:01:25Z</time>
      </trkpt>
      <trkpt lat="27.950835" lon="-15.515476">
        <ele>1366.087</ele>
        <time>2021-10-27T16:02:12Z</time>
      </trkpt>
      <trkpt lat="27.949987" lon="-15.512533">
        <ele>1340.627</ele>
        <time>2021-10-27T16:02:38Z</time>
      </trkpt>
      <trkpt lat="27.950569" lon="-15.512847">
        <ele>1333.924</ele>
        <time>2021-10-27T16:02:47Z</time>
      </trkpt>
      <trkpt lat="27.950834" lon="-15.514338">
        <ele>1327.199</ele>
        <time>2021-10-27T16:03:06Z</time>
      </trkpt>
      <trkpt lat="27.951562" lon="-15.514509">
        <ele>1323.159</ele>
        <time>2021-10-27T16:03:16Z</time>
      </trkpt>
      <trkpt lat="27.952443" lon="-15.511923">
        <ele>1298.053</ele>
        <time>2021-10-27T16:03:39Z</time>
      </trkpt>
      <trkpt lat="27.952948" lon="-15.513481">
        <ele>1288.144</ele>
        <time>2021-10-27T16:03:58Z</time>
      </trkpt>
      <trkpt lat="27.953722" lon="-15.514117">
        <ele>1283.340</ele>
        <time>2021-10-27T16:04:18Z</time>
      </trkpt>
      <trkpt lat="27.953116" lon="-15.512496">
        <ele>1265.069</ele>
        <time>2021-10-27T16:04:45Z</time>
      </trkpt>
      <trkpt lat="27.953626" lon="-15.511240">
        <ele>1254.504</ele>
        <time>2021-10-27T16:04:57Z</time>
      </trkpt>
      <trkpt lat="27.953597" lon="-15.509644">
        <ele>1251.224</ele>
        <time>2021-10-27T16:05:11Z</time>
      </trkpt>
      <trkpt lat="27.953115" lon="-15.508913">
        <ele>1243.508</ele>
        <time>2021-10-27T16:05:21Z</time>
      </trkpt>
      <trkpt lat="27.952917" lon="-15.509439">
        <ele>1235.754</ele>
        <time>2021-10-27T16:05:32Z</time>
      </trkpt>
      <trkpt lat="27.952421" lon="-15.509480">
        <ele>1229.984</ele>
        <time>2021-10-27T16:05:39Z</time>
      </trkpt>
      <trkpt lat="27.952051" lon="-15.507534">
        <ele>1219.771</ele>
        <time>2021-10-27T16:06:00Z</time>
      </trkpt>
      <trkpt lat="27.951455" lon="-15.506540">
        <ele>1206.286</ele>
        <time>2021-10-27T16:06:12Z</time>
      </trkpt>
      <trkpt lat="27.950874" lon="-15.503831">
        <ele>1185.096</ele>
        <time>2021-10-27T16:06:32Z</time>
      </trkpt>
      <trkpt lat="27.950767" lon="-15.499714">
        <ele>1145.310</ele>
        <time>2021-10-27T16:07:20Z</time>
      </trkpt>
      <trkpt lat="27.949819" lon="-15.499687">
        <ele>1135.771</ele>
        <time>2021-10-27T16:07:34Z</time>
      </trkpt>
      <trkpt lat="27.949071" lon="-15.496908">
        <ele>1096.467</ele>
        <time>2021-10-27T16:07:59Z</time>
      </trkpt>
      <trkpt lat="27.948102" lon="-15.495593">
        <ele>1075.487</ele>
        <time>2021-10-27T16:08:11Z</time>
      </trkpt>
      <trkpt lat="27.947591" lon="-15.494124">
        <ele>1056.742</ele>
        <time>2021-10-27T16:08:25Z</time>
      </trkpt>
      <trkpt lat="27.947249" lon="-15.494104">
        <ele>1051.526</ele>
        <time>2021-10-27T16:08:34Z</time>
      </trkpt>
      <trkpt lat="27.947028" lon="-15.490307">
        <ele>1000.208</ele>
        <time>2021-10-27T16:11:45Z</time>
      </trkpt>
      <trkpt lat="27.947308" lon="-15.490944">
        <ele>991.716</ele>
        <time>2021-10-27T16:11:56Z</time>
      </trkpt>
      <trkpt lat="27.947530" lon="-15.489189">
        <ele>965.546</ele>
        <time>2021-10-27T16:12:14Z</time>
      </trkpt>
      <trkpt lat="27.945988" lon="-15.488698">
        <ele>954.713</ele>
        <time>2021-10-27T16:12:34Z</time>
      </trkpt>
      <trkpt lat="27.946426" lon="-15.487492">
        <ele>943.168</ele>
        <time>2021-10-27T16:12:46Z</time>
      </trkpt>
      <trkpt lat="27.946579" lon="-15.485088">
        <ele>911.338</ele>
        <time>2021-10-27T16:13:03Z</time>
      </trkpt>
      <trkpt lat="27.947388" lon="-15.483076">
        <ele>884.912</ele>
        <time>2021-10-27T16:13:24Z</time>
      </trkpt>
      <trkpt lat="27.947203" lon="-15.481983">
        <ele>871.593</ele>
        <time>2021-10-27T16:13:35Z</time>
      </trkpt>
      <trkpt lat="27.948116" lon="-15.480045">
        <ele>845.679</ele>
        <time>2021-10-27T16:13:56Z</time>
      </trkpt>
      <trkpt lat="27.947433" lon="-15.477746">
        <ele>806.344</ele>
        <time>2021-10-27T16:14:21Z</time>
      </trkpt>
      <trkpt lat="27.947222" lon="-15.477845">
        <ele>801.605</ele>
        <time>2021-10-27T16:14:27Z</time>
      </trkpt>
      <trkpt lat="27.947191" lon="-15.474405">
        <ele>755.815</ele>
        <time>2021-10-27T16:14:54Z</time>
      </trkpt>
      <trkpt lat="27.946327" lon="-15.472819">
        <ele>736.208</ele>
        <time>2021-10-27T16:15:10Z</time>
      </trkpt>
      <trkpt lat="27.946010" lon="-15.471343">
        <ele>720.392</ele>
        <time>2021-10-27T16:15:58Z</time>
      </trkpt>
      <trkpt lat="27.943835" lon="-15.468266">
        <ele>692.172</ele>
        <time>2021-10-27T16:16:37Z</time>
      </trkpt>
      <trkpt lat="27.940157" lon="-15.465416">
        <ele>667.519</ele>
        <time>2021-10-27T16:17:16Z</time>
      </trkpt>
      <trkpt lat="27.938559" lon="-15.464719">
        <ele>665.084</ele>
        <time>2021-10-27T16:17:32Z</time>
      </trkpt>
      <trkpt lat="27.937898" lon="-15.463699">
        <ele>662.184</ele>
        <time>2021-10-27T16:18:13Z</time>
      </trkpt>
      <trkpt lat="27.939397" lon="-15.462104">
        <ele>649.688</ele>
        <time>2021-10-27T16:19:35Z</time>
      </trkpt>
      <trkpt lat="27.941093" lon="-15.462733">
        <ele>637.749</ele>
        <time>2021-10-27T16:20:00Z</time>
      </trkpt>
      <trkpt lat="27.941953" lon="-15.463860">
        <ele>629.115</ele>
        <time>2021-10-27T16:20:17Z</time>
      </trkpt>
      <trkpt lat="27.942729" lon="-15.463672">
        <ele>627.754</ele>
        <time>2021-10-27T16:20:28Z</time>
      </trkpt>
      <trkpt lat="27.943516" lon="-15.463997">
        <ele>625.356</ele>
        <time>2021-10-27T16:20:42Z</time>
      </trkpt>
      <trkpt lat="27.943688" lon="-15.463641">
        <ele>622.811</ele>
        <time>2021-10-27T16:20:47Z</time>
      </trkpt>
      <trkpt lat="27.941793" lon="-15.463031">
        <ele>610.108</ele>
        <time>2021-10-27T16:21:09Z</time>
      </trkpt>
      <trkpt lat="27.941283" lon="-15.461721">
        <ele>603.883</ele>
        <time>2021-10-27T16:21:20Z</time>
      </trkpt>
      <trkpt lat="27.939299" lon="-15.460709">
        <ele>587.273</ele>
        <time>2021-10-27T16:21:40Z</time>
      </trkpt>
      <trkpt lat="27.936672" lon="-15.460447">
        <ele>568.310</ele>
        <time>2021-10-27T16:22:02Z</time>
      </trkpt>
      <trkpt lat="27.932933" lon="-15.456989">
        <ele>535.865</ele>
        <time>2021-10-27T16:22:38Z</time>
      </trkpt>
      <trkpt lat="27.931024" lon="-15.457070">
        <ele>520.115</ele>
        <time>2021-10-27T16:22:53Z</time>
      </trkpt>
      <trkpt lat="27.928976" lon="-15.456286">
        <ele>502.699</ele>
        <time>2021-10-27T16:23:11Z</time>
      </trkpt>
      <trkpt lat="27.928379" lon="-15.457553">
        <ele>493.170</ele>
        <time>2021-10-27T16:23:29Z</time>
      </trkpt>
      <trkpt lat="27.927439" lon="-15.456615">
        <ele>486.616</ele>
        <time>2021-10-27T16:23:43Z</time>
      </trkpt>
      <trkpt lat="27.926436" lon="-15.456646">
        <ele>477.912</ele>
        <time>2021-10-27T16:23:55Z</time>
      </trkpt>
      <trkpt lat="27.925981" lon="-15.455885">
        <ele>473.032</ele>
        <time>2021-10-27T16:24:04Z</time>
      </trkpt>
      <trkpt lat="27.924322" lon="-15.455754">
        <ele>464.805</ele>
        <time>2021-10-27T16:24:16Z</time>
      </trkpt>
      <trkpt lat="27.922673" lon="-15.454760">
        <ele>452.808</ele>
        <time>2021-10-27T16:24:29Z</time>
      </trkpt>
      <trkpt lat="27.921826" lon="-15.453748">
        <ele>444.289</ele>
        <time>2021-10-27T16:24:40Z</time>
      </trkpt>
      <trkpt lat="27.921398" lon="-15.451061">
        <ele>423.289</ele>
        <time>2021-10-27T16:25:03Z</time>
      </trkpt>
      <trkpt lat="27.922419" lon="-15.449171">
        <ele>411.176</ele>
        <time>2021-10-27T16:25:27Z</time>
      </trkpt>
      <trkpt lat="27.922334" lon="-15.448768">
        <ele>408.591</ele>
        <time>2021-10-27T16:25:33Z</time>
      </trkpt>
      <trkpt lat="27.920231" lon="-15.448890">
        <ele>392.911</ele>
        <time>2021-10-27T16:25:55Z</time>
      </trkpt>
      <trkpt lat="27.918240" lon="-15.449818">
        <ele>376.225</ele>
        <time>2021-10-27T16:26:26Z</time>
      </trkpt>
      <trkpt lat="27.917986" lon="-15.449467">
        <ele>372.596</ele>
        <time>2021-10-27T16:26:55Z</time>
      </trkpt>
      <trkpt lat="27.918018" lon="-15.438754">
        <ele>284.342</ele>
        <time>2021-10-27T16:36:21Z</time>
      </trkpt>
      <trkpt lat="27.916092" lon="-15.438665">
        <ele>280.376</ele>
        <time>2021-10-27T16:36:50Z</time>
      </trkpt>
      <trkpt lat="27.912317" lon="-15.440039">
        <ele>277.490</ele>
        <time>2021-10-27T16:37:40Z</time>
      </trkpt>
      <trkpt lat="27.911256" lon="-15.440949">
        <ele>271.619</ele>
        <time>2021-10-27T16:37:54Z</time>
      </trkpt>
      <trkpt lat="27.911053" lon="-15.442149">
        <ele>265.308</ele>
        <time>2021-10-27T16:38:07Z</time>
      </trkpt>
      <trkpt lat="27.909773" lon="-15.441429">
        <ele>263.025</ele>
        <time>2021-10-27T16:38:23Z</time>
      </trkpt>
      <trkpt lat="27.909320" lon="-15.442485">
        <ele>261.045</ele>
        <time>2021-10-27T16:38:37Z</time>
      </trkpt>
      <trkpt lat="27.909636" lon="-15.443547">
        <ele>257.062</ele>
        <time>2021-10-27T16:38:49Z</time>
      </trkpt>
      <trkpt lat="27.908931" lon="-15.445747">
        <ele>251.217</ele>
        <time>2021-10-27T16:39:15Z</time>
      </trkpt>
      <trkpt lat="27.908305" lon="-15.446035">
        <ele>250.737</ele>
        <time>2021-10-27T16:39:41Z</time>
      </trkpt>
      <trkpt lat="27.907084" lon="-15.443245">
        <ele>263.311</ele>
        <time>2021-10-27T16:45:20Z</time>
      </trkpt>
      <trkpt lat="27.905237" lon="-15.443507">
        <ele>275.812</ele>
        <time>2021-10-27T16:46:33Z</time>
      </trkpt>
      <trkpt lat="27.904187" lon="-15.444928">
        <ele>278.358</ele>
        <time>2021-10-27T16:47:11Z</time>
      </trkpt>
      <trkpt lat="27.903918" lon="-15.448498">
        <ele>283.185</ele>
        <time>2021-10-27T16:55:43Z</time>
      </trkpt>
      <trkpt lat="27.903636" lon="-15.448531">
        <ele>283.689</ele>
        <time>2021-10-27T16:56:23Z</time>
      </trkpt>
      <trkpt lat="27.903876" lon="-15.448521">
        <ele>283.617</ele>
        <time>2021-10-27T16:56:33Z</time>
      </trkpt>
      <trkpt lat="27.903689" lon="-15.451781">
        <ele>301.908</ele>
        <time>2021-10-27T16:58:04Z</time>
      </trkpt>
      <trkpt lat="27.904295" lon="-15.453598">
        <ele>310.316</ele>
        <time>2021-10-27T16:58:58Z</time>
      </trkpt>
      <trkpt lat="27.903957" lon="-15.454847">
        <ele>318.676</ele>
        <time>2021-10-27T16:59:33Z</time>
      </trkpt>
      <trkpt lat="27.907391" lon="-15.458493">
        <ele>358.193</ele>
        <time>2021-10-27T17:03:07Z</time>
      </trkpt>
      <trkpt lat="27.908053" lon="-15.460756">
        <ele>376.228</ele>
        <time>2021-10-27T17:04:37Z</time>
      </trkpt>
      <trkpt lat="27.907272" lon="-15.461002">
        <ele>384.338</ele>
        <time>2021-10-27T17:05:21Z</time>
      </trkpt>
      <trkpt lat="27.906481" lon="-15.463295">
        <ele>401.932</ele>
        <time>2021-10-27T17:06:50Z</time>
      </trkpt>
      <trkpt lat="27.906584" lon="-15.464857">
        <ele>414.493</ele>
        <time>2021-10-27T17:07:55Z</time>
      </trkpt>
      <trkpt lat="27.907681" lon="-15.466212">
        <ele>426.879</ele>
        <time>2021-10-27T17:09:06Z</time>
      </trkpt>
      <trkpt lat="27.909912" lon="-15.467969">
        <ele>446.638</ele>
        <time>2021-10-27T17:11:11Z</time>
      </trkpt>
      <trkpt lat="27.908859" lon="-15.469996">
        <ele>461.970</ele>
        <time>2021-10-27T17:12:44Z</time>
      </trkpt>
      <trkpt lat="27.909856" lon="-15.473416">
        <ele>489.017</ele>
        <time>2021-10-27T17:14:55Z</time>
      </trkpt>
      <trkpt lat="27.911023" lon="-15.474282">
        <ele>499.008</ele>
        <time>2021-10-27T17:15:52Z</time>
      </trkpt>
      <trkpt lat="27.912280" lon="-15.473969">
        <ele>504.581</ele>
        <time>2021-10-27T17:16:41Z</time>
      </trkpt>
      <trkpt lat="27.913962" lon="-15.474660">
        <ele>508.271</ele>
        <time>2021-10-27T17:17:37Z</time>
      </trkpt>
      <trkpt lat="27.914470" lon="-15.475343">
        <ele>510.928</ele>
        <time>2021-10-27T17:18:20Z</time>
      </trkpt>
      <trkpt lat="27.914346" lon="-15.475703">
        <ele>512.673</ele>
        <time>2021-10-27T17:20:19Z</time>
      </trkpt>
      <trkpt lat="27.914311" lon="-15.475273">
        <ele>515.283</ele>
        <time>2021-10-27T17:22:08Z</time>
      </trkpt>
      <trkpt lat="27.914344" lon="-15.475539">
        <ele>517.537</ele>
        <time>2021-10-27T17:22:31Z</time>
      </trkpt>
      <trkpt lat="27.915032" lon="-15.475460">
        <ele>560.748</ele>
        <time>2021-10-27T17:23:53Z</time>
      </trkpt>
      <trkpt lat="27.915119" lon="-15.475928">
        <ele>563.644</ele>
        <time>2021-10-27T17:26:29Z</time>
      </trkpt>
      <trkpt lat="27.915011" lon="-15.475445">
        <ele>558.544</ele>
        <time>2021-10-27T17:29:26Z</time>
      </trkpt>
      <trkpt lat="27.914189" lon="-15.475559">
        <ele>550.605</ele>
        <time>2021-10-27T17:30:33Z</time>
      </trkpt>
      <trkpt lat="27.914294" lon="-15.475158">
        <ele>515.915</ele>
        <time>2021-10-27T17:31:22Z</time>
      </trkpt>
      <trkpt lat="27.914358" lon="-15.475707">
        <ele>517.908</ele>
        <time>2021-10-27T17:32:10Z</time>
      </trkpt>
      <trkpt lat="27.914022" lon="-15.474790">
        <ele>511.212</ele>
        <time>2021-10-27T17:34:35Z</time>
      </trkpt>
      <trkpt lat="27.912313" lon="-15.474020">
        <ele>504.682</ele>
        <time>2021-10-27T17:35:02Z</time>
      </trkpt>
      <trkpt lat="27.910983" lon="-15.474306">
        <ele>498.419</ele>
        <time>2021-10-27T17:35:24Z</time>
      </trkpt>
      <trkpt lat="27.909741" lon="-15.473305">
        <ele>487.374</ele>
        <time>2021-10-27T17:35:42Z</time>
      </trkpt>
      <trkpt lat="27.908848" lon="-15.470005">
        <ele>461.824</ele>
        <time>2021-10-27T17:37:09Z</time>
      </trkpt>
      <trkpt lat="27.909868" lon="-15.467792">
        <ele>445.698</ele>
        <time>2021-10-27T17:37:36Z</time>
      </trkpt>
      <trkpt lat="27.907827" lon="-15.466343">
        <ele>428.359</ele>
        <time>2021-10-27T17:37:58Z</time>
      </trkpt>
      <trkpt lat="27.906459" lon="-15.464753">
        <ele>413.175</ele>
        <time>2021-10-27T17:38:18Z</time>
      </trkpt>
      <trkpt lat="27.906377" lon="-15.463195">
        <ele>401.246</ele>
        <time>2021-10-27T17:38:36Z</time>
      </trkpt>
      <trkpt lat="27.907289" lon="-15.460955">
        <ele>384.188</ele>
        <time>2021-10-27T17:39:37Z</time>
      </trkpt>
      <trkpt lat="27.908034" lon="-15.460836">
        <ele>377.316</ele>
        <time>2021-10-27T17:39:48Z</time>
      </trkpt>
      <trkpt lat="27.907292" lon="-15.458385">
        <ele>357.108</ele>
        <time>2021-10-27T17:40:10Z</time>
      </trkpt>
      <trkpt lat="27.903789" lon="-15.454780">
        <ele>317.092</ele>
        <time>2021-10-27T17:40:54Z</time>
      </trkpt>
      <trkpt lat="27.904190" lon="-15.453536">
        <ele>310.112</ele>
        <time>2021-10-27T17:41:11Z</time>
      </trkpt>
      <trkpt lat="27.903492" lon="-15.450274">
        <ele>294.129</ele>
        <time>2021-10-27T17:41:44Z</time>
      </trkpt>
      <trkpt lat="27.904087" lon="-15.446659">
        <ele>278.254</ele>
        <time>2021-10-27T17:42:21Z</time>
      </trkpt>
      <trkpt lat="27.904348" lon="-15.446898">
        <ele>278.054</ele>
        <time>2021-10-27T17:46:14Z</time>
      </trkpt>
      <trkpt lat="27.904061" lon="-15.446718">
        <ele>277.888</ele>
        <time>2021-10-27T17:52:29Z</time>
      </trkpt>
      <trkpt lat="27.904115" lon="-15.445071">
        <ele>278.149</ele>
        <time>2021-10-27T17:59:24Z</time>
      </trkpt>
      <trkpt lat="27.904817" lon="-15.443681">
        <ele>277.195</ele>
        <time>2021-10-27T18:00:30Z</time>
      </trkpt>
      <trkpt lat="27.905830" lon="-15.443370">
        <ele>272.319</ele>
        <time>2021-10-27T18:01:04Z</time>
      </trkpt>
      <trkpt lat="27.905546" lon="-15.443463">
        <ele>274.509</ele>
        <time>2021-10-27T18:01:21Z</time>
      </trkpt>
      <trkpt lat="27.905931" lon="-15.444580">
        <ele>280.919</ele>
        <time>2021-10-27T18:02:16Z</time>
      </trkpt>
      <trkpt lat="27.905614" lon="-15.444597">
        <ele>281.608</ele>
        <time>2021-10-27T18:07:47Z</time>
      </trkpt>
      <trkpt lat="27.905828" lon="-15.444530">
        <ele>280.819</ele>
        <time>2021-10-27T18:10:18Z</time>
      </trkpt>
      <trkpt lat="27.905615" lon="-15.444782">
        <ele>282.919</ele>
        <time>2021-10-27T18:11:13Z</time>
      </trkpt>
      <trkpt lat="27.905915" lon="-15.445026">
        <ele>284.256</ele>
        <time>2021-10-27T18:11:43Z</time>
      </trkpt>
      <trkpt lat="27.905624" lon="-15.444499">
        <ele>281.021</ele>
        <time>2021-10-27T18:12:49Z</time>
      </trkpt>
      <trkpt lat="27.909897" lon="-15.441501">
        <ele>263.121</ele>
        <time>2021-10-28T07:54:08Z</time>
      </trkpt>
      <trkpt lat="27.911007" lon="-15.442049">
        <ele>265.341</ele>
        <time>2021-10-28T07:55:42Z</time>
      </trkpt>
      <trkpt lat="27.911126" lon="-15.440958">
        <ele>271.305</ele>
        <time>2021-10-28T07:56:15Z</time>
      </trkpt>
      <trkpt lat="27.911941" lon="-15.440172">
        <ele>275.908</ele>
        <time>2021-10-28T07:56:47Z</time>
      </trkpt>
      <trkpt lat="27.916054" lon="-15.438553">
        <ele>280.310</ele>
        <time>2021-10-28T07:58:51Z</time>
      </trkpt>
      <trkpt lat="27.918611" lon="-15.438721">
        <ele>282.980</ele>
        <time>2021-10-28T08:00:56Z</time>
      </trkpt>
      <trkpt lat="27.919826" lon="-15.438347">
        <ele>281.937</ele>
        <time>2021-10-28T08:02:44Z</time>
      </trkpt>
      <trkpt lat="27.919643" lon="-15.437178">
        <ele>279.912</ele>
        <time>2021-10-28T08:04:44Z</time>
      </trkpt>
      <trkpt lat="27.921435" lon="-15.435836">
        <ele>276.972</ele>
        <time>2021-10-28T08:06:23Z</time>
      </trkpt>
      <trkpt lat="27.922992" lon="-15.435738">
        <ele>274.526</ele>
        <time>2021-10-28T08:27:41Z</time>
      </trkpt>
      <trkpt lat="27.924144" lon="-15.434469">
        <ele>272.631</ele>
        <time>2021-10-28T08:28:35Z</time>
      </trkpt>
      <trkpt lat="27.925670" lon="-15.434566">
        <ele>266.193</ele>
        <time>2021-10-28T08:29:00Z</time>
      </trkpt>
      <trkpt lat="27.925910" lon="-15.430829">
        <ele>249.539</ele>
        <time>2021-10-28T08:29:42Z</time>
      </trkpt>
      <trkpt lat="27.930921" lon="-15.423688">
        <ele>214.101</ele>
        <time>2021-10-28T08:31:21Z</time>
      </trkpt>
      <trkpt lat="27.932819" lon="-15.423548">
        <ele>202.221</ele>
        <time>2021-10-28T08:32:40Z</time>
      </trkpt>
      <trkpt lat="27.933833" lon="-15.425339">
        <ele>189.908</ele>
        <time>2021-10-28T08:33:03Z</time>
      </trkpt>
      <trkpt lat="27.933926" lon="-15.426826">
        <ele>184.171</ele>
        <time>2021-10-28T08:33:19Z</time>
      </trkpt>
      <trkpt lat="27.934557" lon="-15.425661">
        <ele>195.381</ele>
        <time>2021-10-28T08:34:56Z</time>
      </trkpt>
      <trkpt lat="27.936023" lon="-15.426580">
        <ele>203.458</ele>
        <time>2021-10-28T08:35:59Z</time>
      </trkpt>
      <trkpt lat="27.936598" lon="-15.426005">
        <ele>205.513</ele>
        <time>2021-10-28T08:36:32Z</time>
      </trkpt>
      <trkpt lat="27.937578" lon="-15.426915">
        <ele>197.633</ele>
        <time>2021-10-28T08:37:23Z</time>
      </trkpt>
      <trkpt lat="27.937988" lon="-15.428094">
        <ele>190.927</ele>
        <time>2021-10-28T08:37:36Z</time>
      </trkpt>
      <trkpt lat="27.938820" lon="-15.428675">
        <ele>186.052</ele>
        <time>2021-10-28T08:37:51Z</time>
      </trkpt>
      <trkpt lat="27.939147" lon="-15.428043">
        <ele>185.664</ele>
        <time>2021-10-28T08:38:01Z</time>
      </trkpt>
      <trkpt lat="27.938689" lon="-15.427237">
        <ele>190.188</ele>
        <time>2021-10-28T08:38:23Z</time>
      </trkpt>
      <trkpt lat="27.938895" lon="-15.426208">
        <ele>196.324</ele>
        <time>2021-10-28T08:38:53Z</time>
      </trkpt>
      <trkpt lat="27.938418" lon="-15.425509">
        <ele>199.226</ele>
        <time>2021-10-28T08:39:19Z</time>
      </trkpt>
      <trkpt lat="27.938708" lon="-15.422553">
        <ele>203.408</ele>
        <time>2021-10-28T08:40:34Z</time>
      </trkpt>
      <trkpt lat="27.939376" lon="-15.422501">
        <ele>201.546</ele>
        <time>2021-10-28T08:41:35Z</time>
      </trkpt>
      <trkpt lat="27.940029" lon="-15.423384">
        <ele>199.696</ele>
        <time>2021-10-28T08:41:54Z</time>
      </trkpt>
      <trkpt lat="27.940922" lon="-15.422269">
        <ele>199.833</ele>
        <time>2021-10-28T08:42:22Z</time>
      </trkpt>
      <trkpt lat="27.944193" lon="-15.422718">
        <ele>205.168</ele>
        <time>2021-10-28T08:43:46Z</time>
      </trkpt>
      <trkpt lat="27.945317" lon="-15.424915">
        <ele>203.288</ele>
        <time>2021-10-28T08:44:32Z</time>
      </trkpt>
      <trkpt lat="27.945942" lon="-15.423491">
        <ele>211.832</ele>
        <time>2021-10-28T08:46:11Z</time>
      </trkpt>
      <trkpt lat="27.947418" lon="-15.423800">
        <ele>220.337</ele>
        <time>2021-10-28T08:47:06Z</time>
      </trkpt>
      <trkpt lat="27.949495" lon="-15.423130">
        <ele>223.999</ele>
        <time>2021-10-28T08:48:11Z</time>
      </trkpt>
      <trkpt lat="27.955892" lon="-15.423979">
        <ele>235.335</ele>
        <time>2021-10-28T08:50:59Z</time>
      </trkpt>
      <trkpt lat="27.957016" lon="-15.424703">
        <ele>236.386</ele>
        <time>2021-10-28T08:51:36Z</time>
      </trkpt>
      <trkpt lat="27.957803" lon="-15.423715">
        <ele>242.614</ele>
        <time>2021-10-28T08:52:15Z</time>
      </trkpt>
      <trkpt lat="27.960033" lon="-15.423335">
        <ele>247.608</ele>
        <time>2021-10-28T08:53:40Z</time>
      </trkpt>
      <trkpt lat="27.959476" lon="-15.421309">
        <ele>258.251</ele>
        <time>2021-10-28T08:54:42Z</time>
      </trkpt>
      <trkpt lat="27.958474" lon="-15.420214">
        <ele>273.771</ele>
        <time>2021-10-28T08:55:40Z</time>
      </trkpt>
      <trkpt lat="27.958992" lon="-15.419417">
        <ele>278.038</ele>
        <time>2021-10-28T08:56:22Z</time>
      </trkpt>
      <trkpt lat="27.959310" lon="-15.419657">
        <ele>281.443</ele>
        <time>2021-10-28T08:56:54Z</time>
      </trkpt>
      <trkpt lat="27.959697" lon="-15.418538">
        <ele>289.353</ele>
        <time>2021-10-28T08:58:08Z</time>
      </trkpt>
      <trkpt lat="27.959267" lon="-15.417910">
        <ele>295.947</ele>
        <time>2021-10-28T09:00:02Z</time>
      </trkpt>
      <trkpt lat="27.958750" lon="-15.418389">
        <ele>290.692</ele>
        <time>2021-10-28T09:05:08Z</time>
      </trkpt>
      <trkpt lat="27.958926" lon="-15.418003">
        <ele>291.344</ele>
        <time>2021-10-28T09:05:26Z</time>
      </trkpt>
      <trkpt lat="27.960044" lon="-15.418283">
        <ele>292.352</ele>
        <time>2021-10-28T09:05:43Z</time>
      </trkpt>
      <trkpt lat="27.958689" lon="-15.418563">
        <ele>293.953</ele>
        <time>2021-10-28T09:06:44Z</time>
      </trkpt>
      <trkpt lat="27.959119" lon="-15.418203">
        <ele>294.608</ele>
        <time>2021-10-28T09:08:31Z</time>
      </trkpt>
      <trkpt lat="27.958811" lon="-15.418068">
        <ele>295.408</ele>
        <time>2021-10-28T09:14:16Z</time>
      </trkpt>
      <trkpt lat="27.959418" lon="-15.417925">
        <ele>294.753</ele>
        <time>2021-10-28T09:24:25Z</time>
      </trkpt>
      <trkpt lat="27.959780" lon="-15.418906">
        <ele>287.123</ele>
        <time>2021-10-28T09:25:09Z</time>
      </trkpt>
      <trkpt lat="27.958738" lon="-15.420577">
        <ele>270.550</ele>
        <time>2021-10-28T09:26:54Z</time>
      </trkpt>
      <trkpt lat="27.959550" lon="-15.421539">
        <ele>256.425</ele>
        <time>2021-10-28T09:27:11Z</time>
      </trkpt>
      <trkpt lat="27.960116" lon="-15.423357">
        <ele>247.555</ele>
        <time>2021-10-28T09:27:37Z</time>
      </trkpt>
      <trkpt lat="27.964066" lon="-15.422960">
        <ele>231.449</ele>
        <time>2021-10-28T09:29:10Z</time>
      </trkpt>
      <trkpt lat="27.965139" lon="-15.425670">
        <ele>215.694</ele>
        <time>2021-10-28T09:29:41Z</time>
      </trkpt>
      <trkpt lat="27.966037" lon="-15.426030">
        <ele>215.946</ele>
        <time>2021-10-28T09:29:54Z</time>
      </trkpt>
      <trkpt lat="27.965839" lon="-15.424451">
        <ele>222.261</ele>
        <time>2021-10-28T09:30:28Z</time>
      </trkpt>
      <trkpt lat="27.966215" lon="-15.423010">
        <ele>228.321</ele>
        <time>2021-10-28T09:31:35Z</time>
      </trkpt>
      <trkpt lat="27.966961" lon="-15.422526">
        <ele>226.413</ele>
        <time>2021-10-28T09:31:58Z</time>
      </trkpt>
      <trkpt lat="27.968319" lon="-15.422584">
        <ele>222.108</ele>
        <time>2021-10-28T09:32:25Z</time>
      </trkpt>
      <trkpt lat="27.969333" lon="-15.423861">
        <ele>215.274</ele>
        <time>2021-10-28T09:32:47Z</time>
      </trkpt>
      <trkpt lat="27.970507" lon="-15.422736">
        <ele>214.334</ele>
        <time>2021-10-28T09:33:18Z</time>
      </trkpt>
      <trkpt lat="27.971949" lon="-15.423126">
        <ele>207.691</ele>
        <time>2021-10-28T09:33:39Z</time>
      </trkpt>
      <trkpt lat="27.972543" lon="-15.422495">
        <ele>208.736</ele>
        <time>2021-10-28T09:33:50Z</time>
      </trkpt>
      <trkpt lat="27.974636" lon="-15.422936">
        <ele>196.896</ele>
        <time>2021-10-28T09:34:16Z</time>
      </trkpt>
      <trkpt lat="27.976981" lon="-15.421976">
        <ele>191.630</ele>
        <time>2021-10-28T09:34:56Z</time>
      </trkpt>
      <trkpt lat="27.977834" lon="-15.422551">
        <ele>185.245</ele>
        <time>2021-10-28T09:35:08Z</time>
      </trkpt>
      <trkpt lat="27.986292" lon="-15.419720">
        <ele>161.097</ele>
        <time>2021-10-28T09:37:18Z</time>
      </trkpt>
      <trkpt lat="27.986859" lon="-15.420135">
        <ele>158.862</ele>
        <time>2021-10-28T09:37:32Z</time>
      </trkpt>
      <trkpt lat="27.986515" lon="-15.421799">
        <ele>148.583</ele>
        <time>2021-10-28T09:37:51Z</time>
      </trkpt>
      <trkpt lat="27.987408" lon="-15.422043">
        <ele>148.511</ele>
        <time>2021-10-28T09:38:04Z</time>
      </trkpt>
      <trkpt lat="27.987822" lon="-15.421180">
        <ele>151.508</ele>
        <time>2021-10-28T09:38:26Z</time>
      </trkpt>
      <trkpt lat="27.990513" lon="-15.420998">
        <ele>151.854</ele>
        <time>2021-10-28T09:39:27Z</time>
      </trkpt>
      <trkpt lat="27.990433" lon="-15.419209">
        <ele>145.084</ele>
        <time>2021-10-28T09:42:43Z</time>
      </trkpt>
      <trkpt lat="27.991105" lon="-15.415758">
        <ele>133.911</ele>
        <time>2021-10-28T09:43:58Z</time>
      </trkpt>
      <trkpt lat="27.995821" lon="-15.410706">
        <ele>122.096</ele>
        <time>2021-10-28T09:45:52Z</time>
      </trkpt>
      <trkpt lat="27.999347" lon="-15.409724">
        <ele>121.376</ele>
        <time>2021-10-28T09:47:01Z</time>
      </trkpt>
      <trkpt lat="28.002240" lon="-15.401550">
        <ele>85.590</ele>
        <time>2021-10-28T09:49:00Z</time>
      </trkpt>
      <trkpt lat="28.006343" lon="-15.392880">
        <ele>57.065</ele>
        <time>2021-10-28T09:50:58Z</time>
      </trkpt>
      <trkpt lat="28.006346" lon="-15.386780">
        <ele>46.567</ele>
        <time>2021-10-28T09:53:02Z</time>
      </trkpt>
      <trkpt lat="28.006018" lon="-15.386464">
        <ele>45.872</ele>
        <time>2021-10-28T09:53:25Z</time>
      </trkpt>
      <trkpt lat="28.006804" lon="-15.382925">
        <ele>32.313</ele>
        <time>2021-10-28T09:56:18Z</time>
      </trkpt>
      <trkpt lat="28.002921" lon="-15.381485">
        <ele>35.114</ele>
        <time>2021-10-28T09:57:49Z</time>
      </trkpt>
      <trkpt lat="28.003352" lon="-15.380787">
        <ele>33.308</ele>
        <time>2021-10-28T09:58:04Z</time>
      </trkpt>
      <trkpt lat="28.003837" lon="-15.376262">
        <ele>17.655</ele>
        <time>2021-10-28T09:59:04Z</time>
      </trkpt>
      <trkpt lat="28.002701" lon="-15.375882">
        <ele>20.085</ele>
        <time>2021-10-28T09:59:41Z</time>
      </trkpt>
      <trkpt lat="28.002782" lon="-15.374811">
        <ele>14.432</ele>
        <time>2021-10-28T10:04:53Z</time>
      </trkpt>
      <trkpt lat="28.000626" lon="-15.374860">
        <ele>12.917</ele>
        <time>2021-10-28T10:08:15Z</time>
      </trkpt>
      <trkpt lat="28.001518" lon="-15.374450">
        <ele>13.777</ele>
        <time>2021-10-28T10:12:43Z</time>
      </trkpt>
      <trkpt lat="28.002872" lon="-15.374856">
        <ele>14.431</ele>
        <time>2021-10-28T10:15:08Z</time>
      </trkpt>
      <trkpt lat="28.002818" lon="-15.374301">
        <ele>14.426</ele>
        <time>2021-10-28T10:24:17Z</time>
      </trkpt>
      <trkpt lat="28.003271" lon="-15.375522">
        <ele>15.018</ele>
        <time>2021-10-28T10:33:54Z</time>
      </trkpt>
      <trkpt lat="28.004153" lon="-15.375425">
        <ele>14.217</ele>
        <time>2021-10-28T10:34:23Z</time>
      </trkpt>
      <trkpt lat="28.005975" lon="-15.377449">
        <ele>9.887</ele>
        <time>2021-10-28T10:37:49Z</time>
      </trkpt>
      <trkpt lat="28.007289" lon="-15.377966">
        <ele>10.015</ele>
        <time>2021-10-28T10:38:26Z</time>
      </trkpt>
      <trkpt lat="28.007863" lon="-15.378925">
        <ele>12.208</ele>
        <time>2021-10-28T10:39:49Z</time>
      </trkpt>
      <trkpt lat="28.007263" lon="-15.382700">
        <ele>29.889</ele>
        <time>2021-10-28T10:42:01Z</time>
      </trkpt>
      <trkpt lat="28.012907" lon="-15.382920">
        <ele>30.949</ele>
        <time>2021-10-28T10:45:01Z</time>
      </trkpt>
      <trkpt lat="28.013757" lon="-15.386440">
        <ele>39.256</ele>
        <time>2021-10-28T10:46:34Z</time>
      </trkpt>
      <trkpt lat="28.013619" lon="-15.388684">
        <ele>41.511</ele>
        <time>2021-10-28T10:47:38Z</time>
      </trkpt>
      <trkpt lat="28.014426" lon="-15.390877">
        <ele>52.791</ele>
        <time>2021-10-28T10:49:48Z</time>
      </trkpt>
      <trkpt lat="28.015050" lon="-15.390597">
        <ele>53.225</ele>
        <time>2021-10-28T10:50:05Z</time>
      </trkpt>
      <trkpt lat="28.015523" lon="-15.390932">
        <ele>53.010</ele>
        <time>2021-10-28T10:50:18Z</time>
      </trkpt>
      <trkpt lat="28.015854" lon="-15.390323">
        <ele>52.112</ele>
        <time>2021-10-28T10:50:36Z</time>
      </trkpt>
      <trkpt lat="28.016307" lon="-15.390568">
        <ele>46.123</ele>
        <time>2021-10-28T10:51:37Z</time>
      </trkpt>
      <trkpt lat="28.015855" lon="-15.390321">
        <ele>52.183</ele>
        <time>2021-10-28T10:52:39Z</time>
      </trkpt>
      <trkpt lat="28.012123" lon="-15.396609">
        <ele>64.011</ele>
        <time>2021-10-28T10:56:15Z</time>
      </trkpt>
      <trkpt lat="28.012955" lon="-15.394913">
        <ele>59.808</ele>
        <time>2021-10-28T10:56:54Z</time>
      </trkpt>
      <trkpt lat="28.011366" lon="-15.398469">
        <ele>69.330</ele>
        <time>2021-10-28T11:11:50Z</time>
      </trkpt>
      <trkpt lat="28.011096" lon="-15.401487">
        <ele>71.340</ele>
        <time>2021-10-28T11:12:47Z</time>
      </trkpt>
      <trkpt lat="28.009616" lon="-15.404808">
        <ele>85.437</ele>
        <time>2021-10-28T11:14:04Z</time>
      </trkpt>
      <trkpt lat="28.009205" lon="-15.407227">
        <ele>95.312</ele>
        <time>2021-10-28T11:15:54Z</time>
      </trkpt>
      <trkpt lat="28.005892" lon="-15.410782">
        <ele>106.432</ele>
        <time>2021-10-28T11:17:45Z</time>
      </trkpt>
      <trkpt lat="28.005326" lon="-15.412394">
        <ele>110.556</ele>
        <time>2021-10-28T11:20:54Z</time>
      </trkpt>
      <trkpt lat="28.005611" lon="-15.411003">
        <ele>107.161</ele>
        <time>2021-10-28T11:22:29Z</time>
      </trkpt>
      <trkpt lat="28.006224" lon="-15.415104">
        <ele>106.063</ele>
        <time>2021-10-28T11:23:47Z</time>
      </trkpt>
      <trkpt lat="28.007555" lon="-15.417787">
        <ele>104.371</ele>
        <time>2021-10-28T11:24:33Z</time>
      </trkpt>
      <trkpt lat="28.008343" lon="-15.417269">
        <ele>106.041</ele>
        <time>2021-10-28T11:24:54Z</time>
      </trkpt>
      <trkpt lat="28.010810" lon="-15.418068">
        <ele>110.315</ele>
        <time>2021-10-28T11:26:18Z</time>
      </trkpt>
      <trkpt lat="28.011742" lon="-15.417566">
        <ele>111.708</ele>
        <time>2021-10-28T11:26:39Z</time>
      </trkpt>
      <trkpt lat="28.014463" lon="-15.417491">
        <ele>122.755</ele>
        <time>2021-10-28T11:27:51Z</time>
      </trkpt>
      <trkpt lat="28.015016" lon="-15.416538">
        <ele>125.345</ele>
        <time>2021-10-28T11:28:20Z</time>
      </trkpt>
      <trkpt lat="28.017773" lon="-15.415705">
        <ele>141.412</ele>
        <time>2021-10-28T11:30:42Z</time>
      </trkpt>
      <trkpt lat="28.018396" lon="-15.416451">
        <ele>142.267</ele>
        <time>2021-10-28T11:31:12Z</time>
      </trkpt>
      <trkpt lat="28.018685" lon="-15.418395">
        <ele>130.687</ele>
        <time>2021-10-28T11:32:04Z</time>
      </trkpt>
      <trkpt lat="28.020336" lon="-15.419698">
        <ele>122.651</ele>
        <time>2021-10-28T11:32:36Z</time>
      </trkpt>
      <trkpt lat="28.024403" lon="-15.419001">
        <ele>115.116</ele>
        <time>2021-10-28T11:34:18Z</time>
      </trkpt>
      <trkpt lat="28.025519" lon="-15.419739">
        <ele>106.548</ele>
        <time>2021-10-28T11:34:39Z</time>
      </trkpt>
      <trkpt lat="28.027640" lon="-15.418469">
        <ele>87.715</ele>
        <time>2021-10-28T11:35:05Z</time>
      </trkpt>
      <trkpt lat="28.028446" lon="-15.417325">
        <ele>76.765</ele>
        <time>2021-10-28T11:35:20Z</time>
      </trkpt>
      <trkpt lat="28.036253" lon="-15.417635">
        <ele>64.811</ele>
        <time>2021-10-28T11:40:31Z</time>
      </trkpt>
      <trkpt lat="28.038489" lon="-15.418189">
        <ele>70.008</ele>
        <time>2021-10-28T11:41:41Z</time>
      </trkpt>
      <trkpt lat="28.038724" lon="-15.418874">
        <ele>72.769</ele>
        <time>2021-10-28T11:41:56Z</time>
      </trkpt>
      <trkpt lat="28.041132" lon="-15.420739">
        <ele>76.189</ele>
        <time>2021-10-28T11:43:06Z</time>
      </trkpt>
      <trkpt lat="28.042258" lon="-15.423770">
        <ele>82.266</ele>
        <time>2021-10-28T11:44:16Z</time>
      </trkpt>
      <trkpt lat="28.041127" lon="-15.425596">
        <ele>85.041</ele>
        <time>2021-10-28T11:44:59Z</time>
      </trkpt>
      <trkpt lat="28.039999" lon="-15.432252">
        <ele>117.251</ele>
        <time>2021-10-28T11:48:20Z</time>
      </trkpt>
      <trkpt lat="28.039201" lon="-15.434479">
        <ele>119.665</ele>
        <time>2021-10-28T11:49:33Z</time>
      </trkpt>
      <trkpt lat="28.040989" lon="-15.439826">
        <ele>150.640</ele>
        <time>2021-10-28T11:52:42Z</time>
      </trkpt>
      <trkpt lat="28.040722" lon="-15.441160">
        <ele>162.772</ele>
        <time>2021-10-28T11:54:32Z</time>
      </trkpt>
      <trkpt lat="28.039725" lon="-15.440754">
        <ele>172.628</ele>
        <time>2021-10-28T11:55:14Z</time>
      </trkpt>
      <trkpt lat="28.039273" lon="-15.441881">
        <ele>178.589</ele>
        <time>2021-10-28T11:56:04Z</time>
      </trkpt>
      <trkpt lat="28.039289" lon="-15.444962">
        <ele>196.517</ele>
        <time>2021-10-28T11:57:58Z</time>
      </trkpt>
      <trkpt lat="28.041249" lon="-15.446998">
        <ele>215.708</ele>
        <time>2021-10-28T12:00:54Z</time>
      </trkpt>
      <trkpt lat="28.042517" lon="-15.447490">
        <ele>227.160</ele>
        <time>2021-10-28T12:01:57Z</time>
      </trkpt>
      <trkpt lat="28.043199" lon="-15.446403">
        <ele>234.490</ele>
        <time>2021-10-28T12:03:03Z</time>
      </trkpt>
      <trkpt lat="28.044296" lon="-15.446532">
        <ele>240.477</ele>
        <time>2021-10-28T12:03:42Z</time>
      </trkpt>
      <trkpt lat="28.044717" lon="-15.447436">
        <ele>246.692</ele>
        <time>2021-10-28T12:04:19Z</time>
      </trkpt>
      <trkpt lat="28.044609" lon="-15.448676">
        <ele>254.332</ele>
        <time>2021-10-28T12:04:59Z</time>
      </trkpt>
      <trkpt lat="28.043609" lon="-15.449483">
        <ele>259.366</ele>
        <time>2021-10-28T12:05:38Z</time>
      </trkpt>
      <trkpt lat="28.042815" lon="-15.448929">
        <ele>267.951</ele>
        <time>2021-10-28T12:06:10Z</time>
      </trkpt>
      <trkpt lat="28.042480" lon="-15.450327">
        <ele>277.823</ele>
        <time>2021-10-28T12:07:45Z</time>
      </trkpt>
      <trkpt lat="28.043635" lon="-15.458776">
        <ele>310.313</ele>
        <time>2021-10-28T12:11:40Z</time>
      </trkpt>
      <trkpt lat="28.045150" lon="-15.459019">
        <ele>317.843</ele>
        <time>2021-10-28T12:14:59Z</time>
      </trkpt>
      <trkpt lat="28.045803" lon="-15.460957">
        <ele>324.607</ele>
        <time>2021-10-28T12:15:53Z</time>
      </trkpt>
      <trkpt lat="28.047978" lon="-15.461598">
        <ele>331.908</ele>
        <time>2021-10-28T12:18:43Z</time>
      </trkpt>
      <trkpt lat="28.048655" lon="-15.460162">
        <ele>340.319</ele>
        <time>2021-10-28T12:19:42Z</time>
      </trkpt>
      <trkpt lat="28.048677" lon="-15.458250">
        <ele>353.969</ele>
        <time>2021-10-28T12:20:58Z</time>
      </trkpt>
      <trkpt lat="28.048060" lon="-15.457298">
        <ele>367.776</ele>
        <time>2021-10-28T12:22:35Z</time>
      </trkpt>
      <trkpt lat="28.048229" lon="-15.456816">
        <ele>369.981</ele>
        <time>2021-10-28T12:22:54Z</time>
      </trkpt>
      <trkpt lat="28.049011" lon="-15.457417">
        <ele>372.521</ele>
        <time>2021-10-28T12:23:23Z</time>
      </trkpt>
      <trkpt lat="28.049668" lon="-15.460201">
        <ele>363.655</ele>
        <time>2021-10-28T12:24:04Z</time>
      </trkpt>
      <trkpt lat="28.050918" lon="-15.460493">
        <ele>360.970</ele>
        <time>2021-10-28T12:24:27Z</time>
      </trkpt>
      <trkpt lat="28.051074" lon="-15.459955">
        <ele>360.312</ele>
        <time>2021-10-28T12:24:35Z</time>
      </trkpt>
      <trkpt lat="28.055984" lon="-15.460260">
        <ele>356.435</ele>
        <time>2021-10-28T12:26:24Z</time>
      </trkpt>
      <trkpt lat="28.058103" lon="-15.459145">
        <ele>358.386</ele>
        <time>2021-10-28T12:27:06Z</time>
      </trkpt>
      <trkpt lat="28.061196" lon="-15.459598">
        <ele>348.814</ele>
        <time>2021-10-28T12:27:56Z</time>
      </trkpt>
      <trkpt lat="28.061277" lon="-15.460665">
        <ele>340.008</ele>
        <time>2021-10-28T12:28:11Z</time>
      </trkpt>
      <trkpt lat="28.059721" lon="-15.462100">
        <ele>327.671</ele>
        <time>2021-10-28T12:28:37Z</time>
      </trkpt>
      <trkpt lat="28.058438" lon="-15.465051">
        <ele>319.181</ele>
        <time>2021-10-28T12:29:10Z</time>
      </trkpt>
      <trkpt lat="28.057223" lon="-15.465394">
        <ele>314.738</ele>
        <time>2021-10-28T12:29:27Z</time>
      </trkpt>
      <trkpt lat="28.060521" lon="-15.466102">
        <ele>287.083</ele>
        <time>2021-10-28T12:30:39Z</time>
      </trkpt>
      <trkpt lat="28.062578" lon="-15.464208">
        <ele>272.643</ele>
        <time>2021-10-28T12:31:37Z</time>
      </trkpt>
      <trkpt lat="28.064254" lon="-15.463815">
        <ele>264.867</ele>
        <time>2021-10-28T12:33:09Z</time>
      </trkpt>
      <trkpt lat="28.065045" lon="-15.462811">
        <ele>260.922</ele>
        <time>2021-10-28T12:33:28Z</time>
      </trkpt>
      <trkpt lat="28.067815" lon="-15.462137">
        <ele>248.564</ele>
        <time>2021-10-28T12:34:57Z</time>
      </trkpt>
      <trkpt lat="28.069533" lon="-15.461105">
        <ele>238.439</ele>
        <time>2021-10-28T12:35:23Z</time>
      </trkpt>
      <trkpt lat="28.071005" lon="-15.461064">
        <ele>233.201</ele>
        <time>2021-10-28T12:35:41Z</time>
      </trkpt>
      <trkpt lat="28.071844" lon="-15.461996">
        <ele>237.121</ele>
        <time>2021-10-28T12:36:10Z</time>
      </trkpt>
      <trkpt lat="28.072953" lon="-15.461743">
        <ele>244.708</ele>
        <time>2021-10-28T12:36:47Z</time>
      </trkpt>
      <trkpt lat="28.073818" lon="-15.462581">
        <ele>252.731</ele>
        <time>2021-10-28T12:37:32Z</time>
      </trkpt>
      <trkpt lat="28.075754" lon="-15.462083">
        <ele>264.761</ele>
        <time>2021-10-28T12:38:47Z</time>
      </trkpt>
      <trkpt lat="28.076381" lon="-15.462532">
        <ele>268.938</ele>
        <time>2021-10-28T12:39:13Z</time>
      </trkpt>
      <trkpt lat="28.077619" lon="-15.462262">
        <ele>277.813</ele>
        <time>2021-10-28T12:39:58Z</time>
      </trkpt>
      <trkpt lat="28.078774" lon="-15.464450">
        <ele>288.833</ele>
        <time>2021-10-28T12:41:16Z</time>
      </trkpt>
      <trkpt lat="28.075893" lon="-15.463791">
        <ele>291.777</ele>
        <time>2021-10-28T12:52:58Z</time>
      </trkpt>
      <trkpt lat="28.075213" lon="-15.464284">
        <ele>291.192</ele>
        <time>2021-10-28T12:53:14Z</time>
      </trkpt>
      <trkpt lat="28.076396" lon="-15.467343">
        <ele>280.074</ele>
        <time>2021-10-28T12:53:58Z</time>
      </trkpt>
      <trkpt lat="28.074608" lon="-15.467473">
        <ele>271.365</ele>
        <time>2021-10-28T12:54:20Z</time>
      </trkpt>
      <trkpt lat="28.077382" lon="-15.474308">
        <ele>237.968</ele>
        <time>2021-10-28T12:55:34Z</time>
      </trkpt>
      <trkpt lat="28.075321" lon="-15.473991">
        <ele>224.314</ele>
        <time>2021-10-28T12:56:02Z</time>
      </trkpt>
      <trkpt lat="28.074832" lon="-15.475286">
        <ele>223.908</ele>
        <time>2021-10-28T12:56:59Z</time>
      </trkpt>
      <trkpt lat="28.075422" lon="-15.476040">
        <ele>224.614</ele>
        <time>2021-10-28T12:57:16Z</time>
      </trkpt>
      <trkpt lat="28.076796" lon="-15.476595">
        <ele>226.214</ele>
        <time>2021-10-28T12:57:47Z</time>
      </trkpt>
      <trkpt lat="28.076692" lon="-15.478490">
        <ele>228.151</ele>
        <time>2021-10-28T12:59:20Z</time>
      </trkpt>
      <trkpt lat="28.077705" lon="-15.479090">
        <ele>232.756</ele>
        <time>2021-10-28T12:59:51Z</time>
      </trkpt>
      <trkpt lat="28.078792" lon="-15.478052">
        <ele>235.536</ele>
        <time>2021-10-28T13:00:31Z</time>
      </trkpt>
      <trkpt lat="28.080342" lon="-15.477462">
        <ele>237.670</ele>
        <time>2021-10-28T13:01:08Z</time>
      </trkpt>
      <trkpt lat="28.082313" lon="-15.478402">
        <ele>243.075</ele>
        <time>2021-10-28T13:02:06Z</time>
      </trkpt>
      <trkpt lat="28.083651" lon="-15.478036">
        <ele>233.747</ele>
        <time>2021-10-28T13:02:25Z</time>
      </trkpt>
      <trkpt lat="28.084185" lon="-15.478845">
        <ele>228.415</ele>
        <time>2021-10-28T13:02:37Z</time>
      </trkpt>
      <trkpt lat="28.089315" lon="-15.478821">
        <ele>203.865</ele>
        <time>2021-10-28T13:03:47Z</time>
      </trkpt>
      <trkpt lat="28.091865" lon="-15.477844">
        <ele>191.511</ele>
        <time>2021-10-28T13:04:30Z</time>
      </trkpt>
      <trkpt lat="28.092157" lon="-15.478195">
        <ele>192.008</ele>
        <time>2021-10-28T13:04:52Z</time>
      </trkpt>
      <trkpt lat="28.092241" lon="-15.477738">
        <ele>191.499</ele>
        <time>2021-10-28T13:05:28Z</time>
      </trkpt>
      <trkpt lat="28.092449" lon="-15.479357">
        <ele>195.539</ele>
        <time>2021-10-28T13:06:57Z</time>
      </trkpt>
      <trkpt lat="28.093439" lon="-15.481288">
        <ele>213.626</ele>
        <time>2021-10-28T13:08:15Z</time>
      </trkpt>
      <trkpt lat="28.093714" lon="-15.483587">
        <ele>234.891</ele>
        <time>2021-10-28T13:10:02Z</time>
      </trkpt>
      <trkpt lat="28.094426" lon="-15.484941">
        <ele>241.911</ele>
        <time>2021-10-28T13:11:04Z</time>
      </trkpt>
      <trkpt lat="28.094457" lon="-15.486846">
        <ele>242.645</ele>
        <time>2021-10-28T13:13:21Z</time>
      </trkpt>
      <trkpt lat="28.093676" lon="-15.488363">
        <ele>244.280</ele>
        <time>2021-10-28T13:14:17Z</time>
      </trkpt>
      <trkpt lat="28.093993" lon="-15.488651">
        <ele>244.622</ele>
        <time>2021-10-28T13:14:30Z</time>
      </trkpt>
      <trkpt lat="28.093223" lon="-15.490113">
        <ele>246.764</ele>
        <time>2021-10-28T13:15:01Z</time>
      </trkpt>
      <trkpt lat="28.093378" lon="-15.490725">
        <ele>247.206</ele>
        <time>2021-10-28T13:15:12Z</time>
      </trkpt>
      <trkpt lat="28.095530" lon="-15.491949">
        <ele>256.316</ele>
        <time>2021-10-28T13:16:09Z</time>
      </trkpt>
      <trkpt lat="28.095770" lon="-15.492754">
        <ele>259.708</ele>
        <time>2021-10-28T13:16:56Z</time>
      </trkpt>
      <trkpt lat="28.094692" lon="-15.494786">
        <ele>260.734</ele>
        <time>2021-10-28T13:17:41Z</time>
      </trkpt>
      <trkpt lat="28.093430" lon="-15.495947">
        <ele>253.844</ele>
        <time>2021-10-28T13:18:01Z</time>
      </trkpt>
      <trkpt lat="28.093652" lon="-15.496541">
        <ele>254.291</ele>
        <time>2021-10-28T13:18:08Z</time>
      </trkpt>
      <trkpt lat="28.095276" lon="-15.496183">
        <ele>265.146</ele>
        <time>2021-10-28T13:18:52Z</time>
      </trkpt>
      <trkpt lat="28.094110" lon="-15.499717">
        <ele>285.236</ele>
        <time>2021-10-28T13:20:51Z</time>
      </trkpt>
      <trkpt lat="28.093090" lon="-15.500909">
        <ele>294.220</ele>
        <time>2021-10-28T13:21:39Z</time>
      </trkpt>
      <trkpt lat="28.092672" lon="-15.504843">
        <ele>318.795</ele>
        <time>2021-10-28T13:23:48Z</time>
      </trkpt>
      <trkpt lat="28.092187" lon="-15.505329">
        <ele>322.747</ele>
        <time>2021-10-28T13:24:10Z</time>
      </trkpt>
      <trkpt lat="28.090892" lon="-15.505382">
        <ele>328.299</ele>
        <time>2021-10-28T13:24:50Z</time>
      </trkpt>
      <trkpt lat="28.089011" lon="-15.506415">
        <ele>330.107</ele>
        <time>2021-10-28T13:25:33Z</time>
      </trkpt>
      <trkpt lat="28.088363" lon="-15.507455">
        <ele>332.027</ele>
        <time>2021-10-28T13:25:54Z</time>
      </trkpt>
      <trkpt lat="28.086794" lon="-15.508503">
        <ele>330.908</ele>
        <time>2021-10-28T13:33:02Z</time>
      </trkpt>
      <trkpt lat="28.086992" lon="-15.509546">
        <ele>332.637</ele>
        <time>2021-10-28T13:33:46Z</time>
      </trkpt>
      <trkpt lat="28.086468" lon="-15.510800">
        <ele>334.427</ele>
        <time>2021-10-28T13:34:08Z</time>
      </trkpt>
      <trkpt lat="28.084027" lon="-15.510242">
        <ele>337.594</ele>
        <time>2021-10-28T13:34:54Z</time>
      </trkpt>
      <trkpt lat="28.081810" lon="-15.512021">
        <ele>344.359</ele>
        <time>2021-10-28T13:35:46Z</time>
      </trkpt>
      <trkpt lat="28.082225" lon="-15.513866">
        <ele>353.359</ele>
        <time>2021-10-28T13:36:32Z</time>
      </trkpt>
      <trkpt lat="28.081296" lon="-15.513761">
        <ele>352.943</ele>
        <time>2021-10-28T13:36:49Z</time>
      </trkpt>
      <trkpt lat="28.079251" lon="-15.514564">
        <ele>349.118</ele>
        <time>2021-10-28T13:37:41Z</time>
      </trkpt>
      <trkpt lat="28.079020" lon="-15.515785">
        <ele>350.050</ele>
        <time>2021-10-28T13:38:25Z</time>
      </trkpt>
      <trkpt lat="28.077301" lon="-15.517777">
        <ele>353.596</ele>
        <time>2021-10-28T13:39:08Z</time>
      </trkpt>
      <trkpt lat="28.076470" lon="-15.518117">
        <ele>355.431</ele>
        <time>2021-10-28T13:39:41Z</time>
      </trkpt>
      <trkpt lat="28.077430" lon="-15.518647">
        <ele>358.924</ele>
        <time>2021-10-28T13:40:07Z</time>
      </trkpt>
      <trkpt lat="28.078972" lon="-15.518068">
        <ele>366.408</ele>
        <time>2021-10-28T13:40:51Z</time>
      </trkpt>
      <trkpt lat="28.079137" lon="-15.518352">
        <ele>368.457</ele>
        <time>2021-10-28T13:41:04Z</time>
      </trkpt>
      <trkpt lat="28.077717" lon="-15.519167">
        <ele>373.097</ele>
        <time>2021-10-28T13:42:01Z</time>
      </trkpt>
      <trkpt lat="28.076180" lon="-15.521382">
        <ele>383.354</ele>
        <time>2021-10-28T13:43:28Z</time>
      </trkpt>
      <trkpt lat="28.076098" lon="-15.522441">
        <ele>387.389</ele>
        <time>2021-10-28T13:43:54Z</time>
      </trkpt>
      <trkpt lat="28.072281" lon="-15.524297">
        <ele>406.079</ele>
        <time>2021-10-28T13:45:54Z</time>
      </trkpt>
      <trkpt lat="28.071364" lon="-15.524298">
        <ele>407.553</ele>
        <time>2021-10-28T13:46:16Z</time>
      </trkpt>
      <trkpt lat="28.069696" lon="-15.525479">
        <ele>409.288</ele>
        <time>2021-10-28T13:46:54Z</time>
      </trkpt>
      <trkpt lat="28.068548" lon="-15.527315">
        <ele>409.030</ele>
        <time>2021-10-28T13:47:44Z</time>
      </trkpt>
      <trkpt lat="28.069351" lon="-15.527739">
        <ele>410.087</ele>
        <time>2021-10-28T13:48:45Z</time>
      </trkpt>
      <trkpt lat="28.071970" lon="-15.527127">
        <ele>425.042</ele>
        <time>2021-10-28T13:50:14Z</time>
      </trkpt>
      <trkpt lat="28.072977" lon="-15.530494">
        <ele>443.726</ele>
        <time>2021-10-28T13:52:01Z</time>
      </trkpt>
      <trkpt lat="28.072806" lon="-15.531954">
        <ele>454.908</ele>
        <time>2021-10-28T13:53:03Z</time>
      </trkpt>
      <trkpt lat="28.070526" lon="-15.536537">
        <ele>484.256</ele>
        <time>2021-10-28T13:56:40Z</time>
      </trkpt>
      <trkpt lat="28.069551" lon="-15.537572">
        <ele>498.186</ele>
        <time>2021-10-28T13:57:35Z</time>
      </trkpt>
      <trkpt lat="28.067826" lon="-15.537586">
        <ele>516.173</ele>
        <time>2021-10-28T13:59:12Z</time>
      </trkpt>
      <trkpt lat="28.065524" lon="-15.538688">
        <ele>532.438</ele>
        <time>2021-10-28T14:01:06Z</time>
      </trkpt>
      <trkpt lat="28.063718" lon="-15.538788">
        <ele>543.368</ele>
        <time>2021-10-28T14:04:01Z</time>
      </trkpt>
      <trkpt lat="28.062749" lon="-15.540334">
        <ele>551.632</ele>
        <time>2021-10-28T14:04:47Z</time>
      </trkpt>
      <trkpt lat="28.061754" lon="-15.540663">
        <ele>557.727</ele>
        <time>2021-10-28T14:05:13Z</time>
      </trkpt>
      <trkpt lat="28.062212" lon="-15.543546">
        <ele>573.179</ele>
        <time>2021-10-28T14:06:41Z</time>
      </trkpt>
      <trkpt lat="28.061735" lon="-15.544582">
        <ele>578.915</ele>
        <time>2021-10-28T14:07:17Z</time>
      </trkpt>
      <trkpt lat="28.061992" lon="-15.545120">
        <ele>582.065</ele>
        <time>2021-10-28T14:07:47Z</time>
      </trkpt>
      <trkpt lat="28.061696" lon="-15.545400">
        <ele>588.011</ele>
        <time>2021-10-28T14:08:27Z</time>
      </trkpt>
      <trkpt lat="28.060532" lon="-15.545145">
        <ele>582.308</ele>
        <time>2021-10-28T14:09:30Z</time>
      </trkpt>
      <trkpt lat="28.060326" lon="-15.545935">
        <ele>589.159</ele>
        <time>2021-10-28T14:11:05Z</time>
      </trkpt>
      <trkpt lat="28.059625" lon="-15.545694">
        <ele>581.749</ele>
        <time>2021-10-28T14:11:33Z</time>
      </trkpt>
      <trkpt lat="28.058882" lon="-15.546416">
        <ele>580.486</ele>
        <time>2021-10-28T14:13:03Z</time>
      </trkpt>
      <trkpt lat="28.058531" lon="-15.546229">
        <ele>579.421</ele>
        <time>2021-10-28T14:14:50Z</time>
      </trkpt>
      <trkpt lat="28.059418" lon="-15.546744">
        <ele>594.721</ele>
        <time>2021-10-28T14:16:32Z</time>
      </trkpt>
      <trkpt lat="28.059436" lon="-15.547371">
        <ele>597.795</ele>
        <time>2021-10-28T15:04:48Z</time>
      </trkpt>
      <trkpt lat="28.059598" lon="-15.546973">
        <ele>597.840</ele>
        <time>2021-10-28T15:07:37Z</time>
      </trkpt>
      <trkpt lat="28.059525" lon="-15.548252">
        <ele>597.222</ele>
        <time>2021-10-28T15:12:06Z</time>
      </trkpt>
      <trkpt lat="28.058838" lon="-15.547927">
        <ele>598.033</ele>
        <time>2021-10-28T15:12:57Z</time>
      </trkpt>
      <trkpt lat="28.062187" lon="-15.545169">
        <ele>587.623</ele>
        <time>2021-10-28T15:22:51Z</time>
      </trkpt>
      <trkpt lat="28.062267" lon="-15.544432">
        <ele>592.615</ele>
        <time>2021-10-28T15:23:21Z</time>
      </trkpt>
      <trkpt lat="28.063042" lon="-15.543820">
        <ele>593.508</ele>
        <time>2021-10-28T15:23:56Z</time>
      </trkpt>
      <trkpt lat="28.062985" lon="-15.542893">
        <ele>594.561</ele>
        <time>2021-10-28T15:24:23Z</time>
      </trkpt>
      <trkpt lat="28.063573" lon="-15.542121">
        <ele>596.111</ele>
        <time>2021-10-28T15:24:48Z</time>
      </trkpt>
      <trkpt lat="28.064600" lon="-15.542725">
        <ele>609.018</ele>
        <time>2021-10-28T15:25:48Z</time>
      </trkpt>
      <trkpt lat="28.066176" lon="-15.541287">
        <ele>627.123</ele>
        <time>2021-10-28T15:28:55Z</time>
      </trkpt>
      <trkpt lat="28.066366" lon="-15.541935">
        <ele>636.743</ele>
        <time>2021-10-28T15:29:32Z</time>
      </trkpt>
      <trkpt lat="28.067303" lon="-15.541878">
        <ele>640.217</ele>
        <time>2021-10-28T15:31:37Z</time>
      </trkpt>
      <trkpt lat="28.067666" lon="-15.543233">
        <ele>638.012</ele>
        <time>2021-10-28T15:32:14Z</time>
      </trkpt>
      <trkpt lat="28.070479" lon="-15.540939">
        <ele>628.024</ele>
        <time>2021-10-28T15:34:43Z</time>
      </trkpt>
      <trkpt lat="28.071411" lon="-15.540981">
        <ele>623.334</ele>
        <time>2021-10-28T15:34:57Z</time>
      </trkpt>
      <trkpt lat="28.071462" lon="-15.540162">
        <ele>623.955</ele>
        <time>2021-10-28T15:35:12Z</time>
      </trkpt>
      <trkpt lat="28.072534" lon="-15.539464">
        <ele>626.510</ele>
        <time>2021-10-28T15:35:49Z</time>
      </trkpt>
      <trkpt lat="28.073381" lon="-15.539690">
        <ele>624.808</ele>
        <time>2021-10-28T15:39:27Z</time>
      </trkpt>
      <trkpt lat="28.076136" lon="-15.538543">
        <ele>612.161</ele>
        <time>2021-10-28T15:40:06Z</time>
      </trkpt>
      <trkpt lat="28.076271" lon="-15.539877">
        <ele>600.761</ele>
        <time>2021-10-28T15:40:24Z</time>
      </trkpt>
      <trkpt lat="28.077760" lon="-15.539849">
        <ele>596.688</ele>
        <time>2021-10-28T15:40:41Z</time>
      </trkpt>
      <trkpt lat="28.077874" lon="-15.540710">
        <ele>594.913</ele>
        <time>2021-10-28T15:40:52Z</time>
      </trkpt>
      <trkpt lat="28.078690" lon="-15.540567">
        <ele>596.013</ele>
        <time>2021-10-28T15:41:06Z</time>
      </trkpt>
      <trkpt lat="28.080547" lon="-15.542352">
        <ele>591.587</ele>
        <time>2021-10-28T15:42:43Z</time>
      </trkpt>
      <trkpt lat="28.082716" lon="-15.542762">
        <ele>585.762</ele>
        <time>2021-10-28T15:43:13Z</time>
      </trkpt>
      <trkpt lat="28.083635" lon="-15.540901">
        <ele>572.624</ele>
        <time>2021-10-28T15:43:35Z</time>
      </trkpt>
      <trkpt lat="28.084444" lon="-15.541705">
        <ele>566.784</ele>
        <time>2021-10-28T15:43:52Z</time>
      </trkpt>
      <trkpt lat="28.085650" lon="-15.540429">
        <ele>568.107</ele>
        <time>2021-10-28T15:44:24Z</time>
      </trkpt>
      <trkpt lat="28.087020" lon="-15.541996">
        <ele>567.117</ele>
        <time>2021-10-28T15:45:06Z</time>
      </trkpt>
      <trkpt lat="28.087272" lon="-15.541032">
        <ele>570.508</ele>
        <time>2021-10-28T15:45:42Z</time>
      </trkpt>
      <trkpt lat="28.088890" lon="-15.540231">
        <ele>577.146</ele>
        <time>2021-10-28T15:46:35Z</time>
      </trkpt>
      <trkpt lat="28.091858" lon="-15.539773">
        <ele>573.626</ele>
        <time>2021-10-28T15:50:23Z</time>
      </trkpt>
      <trkpt lat="28.092772" lon="-15.540770">
        <ele>576.343</ele>
        <time>2021-10-28T15:51:46Z</time>
      </trkpt>
      <trkpt lat="28.093060" lon="-15.543966">
        <ele>583.018</ele>
        <time>2021-10-28T15:53:19Z</time>
      </trkpt>
      <trkpt lat="28.091856" lon="-15.545191">
        <ele>583.898</ele>
        <time>2021-10-28T15:54:27Z</time>
      </trkpt>
      <trkpt lat="28.091591" lon="-15.547081">
        <ele>587.792</ele>
        <time>2021-10-28T15:57:49Z</time>
      </trkpt>
      <trkpt lat="28.089595" lon="-15.547571">
        <ele>595.957</ele>
        <time>2021-10-28T15:58:43Z</time>
      </trkpt>
      <trkpt lat="28.089765" lon="-15.550271">
        <ele>599.019</ele>
        <time>2021-10-28T15:59:35Z</time>
      </trkpt>
      <trkpt lat="28.087432" lon="-15.552311">
        <ele>604.291</ele>
        <time>2021-10-28T16:00:29Z</time>
      </trkpt>
      <trkpt lat="28.089742" lon="-15.552833">
        <ele>607.681</ele>
        <time>2021-10-28T16:01:22Z</time>
      </trkpt>
      <trkpt lat="28.090449" lon="-15.554123">
        <ele>610.819</ele>
        <time>2021-10-28T16:01:53Z</time>
      </trkpt>
      <trkpt lat="28.088838" lon="-15.555426">
        <ele>613.608</ele>
        <time>2021-10-28T16:02:30Z</time>
      </trkpt>
      <trkpt lat="28.089068" lon="-15.556524">
        <ele>617.327</ele>
        <time>2021-10-28T16:02:55Z</time>
      </trkpt>
      <trkpt lat="28.087619" lon="-15.556672">
        <ele>619.297</ele>
        <time>2021-10-28T16:03:24Z</time>
      </trkpt>
      <trkpt lat="28.086957" lon="-15.557316">
        <ele>620.184</ele>
        <time>2021-10-28T16:03:42Z</time>
      </trkpt>
      <trkpt lat="28.087898" lon="-15.557626">
        <ele>623.789</ele>
        <time>2021-10-28T16:04:08Z</time>
      </trkpt>
      <trkpt lat="28.088513" lon="-15.558894">
        <ele>633.269</ele>
        <time>2021-10-28T16:05:46Z</time>
      </trkpt>
      <trkpt lat="28.089428" lon="-15.559385">
        <ele>642.993</ele>
        <time>2021-10-28T16:07:45Z</time>
      </trkpt>
      <trkpt lat="28.089319" lon="-15.561074">
        <ele>649.518</ele>
        <time>2021-10-28T16:08:46Z</time>
      </trkpt>
      <trkpt lat="28.088023" lon="-15.563079">
        <ele>657.930</ele>
        <time>2021-10-28T16:11:05Z</time>
      </trkpt>
      <trkpt lat="28.093956" lon="-15.564039">
        <ele>615.357</ele>
        <time>2021-10-28T16:12:05Z</time>
      </trkpt>
      <trkpt lat="28.095695" lon="-15.562144">
        <ele>606.400</ele>
        <time>2021-10-28T16:12:34Z</time>
      </trkpt>
      <trkpt lat="28.096112" lon="-15.560303">
        <ele>595.920</ele>
        <time>2021-10-28T16:12:52Z</time>
      </trkpt>
      <trkpt lat="28.097822" lon="-15.558999">
        <ele>582.008</ele>
        <time>2021-10-28T16:13:12Z</time>
      </trkpt>
      <trkpt lat="28.098666" lon="-15.559531">
        <ele>575.313</ele>
        <time>2021-10-28T16:13:22Z</time>
      </trkpt>
      <trkpt lat="28.100372" lon="-15.558805">
        <ele>564.723</ele>
        <time>2021-10-28T16:13:41Z</time>
      </trkpt>
      <trkpt lat="28.100811" lon="-15.560062">
        <ele>556.310</ele>
        <time>2021-10-28T16:13:58Z</time>
      </trkpt>
      <trkpt lat="28.102037" lon="-15.558796">
        <ele>547.955</ele>
        <time>2021-10-28T16:14:55Z</time>
      </trkpt>
      <trkpt lat="28.102734" lon="-15.560123">
        <ele>539.125</ele>
        <time>2021-10-28T16:15:12Z</time>
      </trkpt>
      <trkpt lat="28.104244" lon="-15.559959">
        <ele>526.039</ele>
        <time>2021-10-28T16:15:29Z</time>
      </trkpt>
      <trkpt lat="28.105521" lon="-15.561338">
        <ele>512.524</ele>
        <time>2021-10-28T16:15:47Z</time>
      </trkpt>
      <trkpt lat="28.104893" lon="-15.562175">
        <ele>505.876</ele>
        <time>2021-10-28T16:16:02Z</time>
      </trkpt>
      <trkpt lat="28.107322" lon="-15.562983">
        <ele>503.956</ele>
        <time>2021-10-28T16:19:45Z</time>
      </trkpt>
      <trkpt lat="28.106996" lon="-15.563347">
        <ele>505.759</ele>
        <time>2021-10-28T16:21:07Z</time>
      </trkpt>
      <trkpt lat="28.107271" lon="-15.563003">
        <ele>507.514</ele>
        <time>2021-10-28T16:22:36Z</time>
      </trkpt>
      <trkpt lat="28.107023" lon="-15.563269">
        <ele>508.608</ele>
        <time>2021-10-28T16:23:35Z</time>
      </trkpt>
      <trkpt lat="28.107222" lon="-15.562966">
        <ele>509.883</ele>
        <time>2021-10-28T16:24:31Z</time>
      </trkpt>
      <trkpt lat="28.106971" lon="-15.563343">
        <ele>511.233</ele>
        <time>2021-10-28T16:26:34Z</time>
      </trkpt>
      <trkpt lat="28.107347" lon="-15.562701">
        <ele>502.130</ele>
        <time>2021-10-28T16:29:31Z</time>
      </trkpt>
      <trkpt lat="28.108049" lon="-15.563371">
        <ele>505.615</ele>
        <time>2021-10-28T16:31:59Z</time>
      </trkpt>
      <trkpt lat="28.107254" lon="-15.562977">
        <ele>504.135</ele>
        <time>2021-10-28T16:37:07Z</time>
      </trkpt>
      <trkpt lat="28.108083" lon="-15.563747">
        <ele>499.499</ele>
        <time>2021-10-28T16:37:46Z</time>
      </trkpt>
      <trkpt lat="28.107724" lon="-15.562462">
        <ele>491.734</ele>
        <time>2021-10-28T16:38:44Z</time>
      </trkpt>
      <trkpt lat="28.108331" lon="-15.561980">
        <ele>486.936</ele>
        <time>2021-10-28T16:38:56Z</time>
      </trkpt>
      <trkpt lat="28.108576" lon="-15.563073">
        <ele>479.363</ele>
        <time>2021-10-28T16:39:22Z</time>
      </trkpt>
      <trkpt lat="28.109915" lon="-15.564323">
        <ele>461.244</ele>
        <time>2021-10-28T16:40:30Z</time>
      </trkpt>
      <trkpt lat="28.109593" lon="-15.562738">
        <ele>451.018</ele>
        <time>2021-10-28T16:40:49Z</time>
      </trkpt>
      <trkpt lat="28.110680" lon="-15.560180">
        <ele>433.808</ele>
        <time>2021-10-28T16:41:14Z</time>
      </trkpt>
      <trkpt lat="28.112147" lon="-15.559135">
        <ele>424.794</ele>
        <time>2021-10-28T16:41:30Z</time>
      </trkpt>
      <trkpt lat="28.112175" lon="-15.557874">
        <ele>417.644</ele>
        <time>2021-10-28T16:41:44Z</time>
      </trkpt>
      <trkpt lat="28.109260" lon="-15.556490">
        <ele>407.871</ele>
        <time>2021-10-28T16:42:47Z</time>
      </trkpt>
      <trkpt lat="28.112352" lon="-15.556707">
        <ele>387.466</ele>
        <time>2021-10-28T16:43:20Z</time>
      </trkpt>
      <trkpt lat="28.113720" lon="-15.557670">
        <ele>377.216</ele>
        <time>2021-10-28T16:43:35Z</time>
      </trkpt>
      <trkpt lat="28.115171" lon="-15.557782">
        <ele>367.620</ele>
        <time>2021-10-28T16:43:49Z</time>
      </trkpt>
      <trkpt lat="28.116236" lon="-15.558939">
        <ele>358.865</ele>
        <time>2021-10-28T16:44:04Z</time>
      </trkpt>
      <trkpt lat="28.116319" lon="-15.560308">
        <ele>354.967</ele>
        <time>2021-10-28T16:44:19Z</time>
      </trkpt>
      <trkpt lat="28.117549" lon="-15.559165">
        <ele>343.145</ele>
        <time>2021-10-28T16:44:39Z</time>
      </trkpt>
      <trkpt lat="28.118971" lon="-15.559382">
        <ele>334.147</ele>
        <time>2021-10-28T16:45:09Z</time>
      </trkpt>
      <trkpt lat="28.119051" lon="-15.560107">
        <ele>334.511</ele>
        <time>2021-10-28T16:45:24Z</time>
      </trkpt>
      <trkpt lat="28.118372" lon="-15.558524">
        <ele>327.308</ele>
        <time>2021-10-28T16:46:19Z</time>
      </trkpt>
      <trkpt lat="28.117587" lon="-15.558588">
        <ele>324.762</ele>
        <time>2021-10-28T16:46:31Z</time>
      </trkpt>
      <trkpt lat="28.117480" lon="-15.557507">
        <ele>326.812</ele>
        <time>2021-10-28T16:46:53Z</time>
      </trkpt>
      <trkpt lat="28.115463" lon="-15.556626">
        <ele>315.039</ele>
        <time>2021-10-28T16:47:23Z</time>
      </trkpt>
      <trkpt lat="28.115482" lon="-15.556197">
        <ele>315.394</ele>
        <time>2021-10-28T16:47:52Z</time>
      </trkpt>
      <trkpt lat="28.118042" lon="-15.556185">
        <ele>307.254</ele>
        <time>2021-10-28T16:49:23Z</time>
      </trkpt>
      <trkpt lat="28.119845" lon="-15.552609">
        <ele>296.218</ele>
        <time>2021-10-28T16:50:11Z</time>
      </trkpt>
      <trkpt lat="28.122143" lon="-15.552003">
        <ele>285.573</ele>
        <time>2021-10-28T16:50:37Z</time>
      </trkpt>
      <trkpt lat="28.124468" lon="-15.552365">
        <ele>271.915</ele>
        <time>2021-10-28T16:51:46Z</time>
      </trkpt>
      <trkpt lat="28.126945" lon="-15.550595">
        <ele>252.784</ele>
        <time>2021-10-28T16:52:22Z</time>
      </trkpt>
      <trkpt lat="28.126792" lon="-15.548578">
        <ele>242.807</ele>
        <time>2021-10-28T16:52:41Z</time>
      </trkpt>
      <trkpt lat="28.129272" lon="-15.545037">
        <ele>221.417</ele>
        <time>2021-10-28T16:53:23Z</time>
      </trkpt>
      <trkpt lat="28.127908" lon="-15.544942">
        <ele>216.108</ele>
        <time>2021-10-28T16:53:44Z</time>
      </trkpt>
      <trkpt lat="28.124843" lon="-15.546636">
        <ele>195.176</ele>
        <time>2021-10-28T16:54:18Z</time>
      </trkpt>
      <trkpt lat="28.124488" lon="-15.546249">
        <ele>196.076</ele>
        <time>2021-10-28T16:54:26Z</time>
      </trkpt>
      <trkpt lat="28.125175" lon="-15.544551">
        <ele>205.953</ele>
        <time>2021-10-28T16:55:56Z</time>
      </trkpt>
      <trkpt lat="28.126889" lon="-15.542839">
        <ele>215.778</ele>
        <time>2021-10-28T16:57:14Z</time>
      </trkpt>
      <trkpt lat="28.127345" lon="-15.541452">
        <ele>218.738</ele>
        <time>2021-10-28T16:58:56Z</time>
      </trkpt>
      <trkpt lat="28.125148" lon="-15.540055">
        <ele>228.692</ele>
        <time>2021-10-28T17:00:02Z</time>
      </trkpt>
      <trkpt lat="28.124040" lon="-15.538637">
        <ele>231.467</ele>
        <time>2021-10-28T17:00:42Z</time>
      </trkpt>
      <trkpt lat="28.122595" lon="-15.538390">
        <ele>225.859</ele>
        <time>2021-10-28T17:01:00Z</time>
      </trkpt>
      <trkpt lat="28.123090" lon="-15.536162">
        <ele>238.122</ele>
        <time>2021-10-28T17:01:57Z</time>
      </trkpt>
      <trkpt lat="28.121701" lon="-15.535488">
        <ele>237.362</ele>
        <time>2021-10-28T17:02:31Z</time>
      </trkpt>
      <trkpt lat="28.120022" lon="-15.531188">
        <ele>247.308</ele>
        <time>2021-10-28T17:04:27Z</time>
      </trkpt>
      <trkpt lat="28.119314" lon="-15.530352">
        <ele>250.108</ele>
        <time>2021-10-28T17:04:52Z</time>
      </trkpt>
      <trkpt lat="28.119215" lon="-15.527938">
        <ele>253.090</ele>
        <time>2021-10-28T17:06:23Z</time>
      </trkpt>
      <trkpt lat="28.118893" lon="-15.527831">
        <ele>252.830</ele>
        <time>2021-10-28T17:07:39Z</time>
      </trkpt>
      <trkpt lat="28.118825" lon="-15.526437">
        <ele>251.727</ele>
        <time>2021-10-28T17:08:01Z</time>
      </trkpt>
      <trkpt lat="28.117953" lon="-15.524421">
        <ele>248.772</ele>
        <time>2021-10-28T17:10:10Z</time>
      </trkpt>
      <trkpt lat="28.118746" lon="-15.523242">
        <ele>257.932</ele>
        <time>2021-10-28T17:13:03Z</time>
      </trkpt>
      <trkpt lat="28.118357" lon="-15.522908">
        <ele>255.846</ele>
        <time>2021-10-28T17:17:02Z</time>
      </trkpt>
      <trkpt lat="28.118711" lon="-15.523209">
        <ele>257.891</ele>
        <time>2021-10-28T17:17:44Z</time>
      </trkpt>
      <trkpt lat="28.119110" lon="-15.522851">
        <ele>259.153</ele>
        <time>2021-10-28T17:19:27Z</time>
      </trkpt>
      <trkpt lat="28.118857" lon="-15.523197">
        <ele>258.341</ele>
        <time>2021-10-28T17:21:08Z</time>
      </trkpt>
      <trkpt lat="28.119334" lon="-15.523907">
        <ele>263.781</ele>
        <time>2021-10-28T17:22:46Z</time>
      </trkpt>
      <trkpt lat="28.119297" lon="-15.524867">
        <ele>255.209</ele>
        <time>2021-10-28T17:24:24Z</time>
      </trkpt>
      <trkpt lat="28.118628" lon="-15.525683">
        <ele>251.508</ele>
        <time>2021-10-28T17:42:58Z</time>
      </trkpt>
      <trkpt lat="28.118714" lon="-15.526361">
        <ele>251.582</ele>
        <time>2021-10-28T17:43:16Z</time>
      </trkpt>
      <trkpt lat="28.117859" lon="-15.526438">
        <ele>243.452</ele>
        <time>2021-10-28T17:43:33Z</time>
      </trkpt>
      <trkpt lat="28.116788" lon="-15.523769">
        <ele>238.339</ele>
        <time>2021-10-28T17:44:40Z</time>
      </trkpt>
      <trkpt lat="28.115002" lon="-15.523997">
        <ele>233.574</ele>
        <time>2021-10-28T17:46:19Z</time>
      </trkpt>
      <trkpt lat="28.115011" lon="-15.521385">
        <ele>232.034</ele>
        <time>2021-10-28T17:47:17Z</time>
      </trkpt>
      <trkpt lat="28.115711" lon="-15.519589">
        <ele>230.358</ele>
        <time>2021-10-28T17:47:44Z</time>
      </trkpt>
      <trkpt lat="28.118395" lon="-15.516415">
        <ele>236.273</ele>
        <time>2021-10-28T17:48:43Z</time>
      </trkpt>
      <trkpt lat="28.121162" lon="-15.514543">
        <ele>243.355</ele>
        <time>2021-10-28T17:49:39Z</time>
      </trkpt>
      <trkpt lat="28.118435" lon="-15.516477">
        <ele>236.172</ele>
        <time>2021-10-28T17:51:50Z</time>
      </trkpt>
      <trkpt lat="28.116351" lon="-15.518917">
        <ele>230.513</ele>
        <time>2021-10-28T17:53:02Z</time>
      </trkpt>
      <trkpt lat="28.116106" lon="-15.519892">
        <ele>231.414</ele>
        <time>2021-10-28T17:53:24Z</time>
      </trkpt>
      <trkpt lat="28.114513" lon="-15.518477">
        <ele>228.108</ele>
        <time>2021-10-28T17:54:05Z</time>
      </trkpt>
      <trkpt lat="28.113969" lon="-15.517190">
        <ele>232.565</ele>
        <time>2021-10-28T17:54:35Z</time>
      </trkpt>
      <trkpt lat="28.115083" lon="-15.516086">
        <ele>238.995</ele>
        <time>2021-10-28T17:55:07Z</time>
      </trkpt>
      <trkpt lat="28.115450" lon="-15.515002">
        <ele>245.642</ele>
        <time>2021-10-28T17:55:29Z</time>
      </trkpt>
      <trkpt lat="28.112476" lon="-15.513640">
        <ele>261.967</ele>
        <time>2021-10-28T17:56:54Z</time>
      </trkpt>
      <trkpt lat="28.111513" lon="-15.511736">
        <ele>269.287</ele>
        <time>2021-10-28T17:57:37Z</time>
      </trkpt>
      <trkpt lat="28.112335" lon="-15.510946">
        <ele>274.491</ele>
        <time>2021-10-28T17:58:16Z</time>
      </trkpt>
      <trkpt lat="28.112101" lon="-15.510349">
        <ele>276.486</ele>
        <time>2021-10-28T18:00:14Z</time>
      </trkpt>
      <trkpt lat="28.110186" lon="-15.509338">
        <ele>273.878</ele>
        <time>2021-10-28T18:00:44Z</time>
      </trkpt>
      <trkpt lat="28.111702" lon="-15.507547">
        <ele>267.352</ele>
        <time>2021-10-28T18:01:13Z</time>
      </trkpt>
      <trkpt lat="28.108055" lon="-15.506205">
        <ele>247.553</ele>
        <time>2021-10-28T18:01:54Z</time>
      </trkpt>
      <trkpt lat="28.107900" lon="-15.503544">
        <ele>233.808</ele>
        <time>2021-10-28T18:02:20Z</time>
      </trkpt>
      <trkpt lat="28.107320" lon="-15.505116">
        <ele>223.808</ele>
        <time>2021-10-28T18:02:39Z</time>
      </trkpt>
      <trkpt lat="28.105834" lon="-15.505468">
        <ele>218.113</ele>
        <time>2021-10-28T18:02:55Z</time>
      </trkpt>
      <trkpt lat="28.106948" lon="-15.504636">
        <ele>206.813</ele>
        <time>2021-10-28T18:03:10Z</time>
      </trkpt>
      <trkpt lat="28.107017" lon="-15.502868">
        <ele>196.390</ele>
        <time>2021-10-28T18:03:25Z</time>
      </trkpt>
      <trkpt lat="28.105712" lon="-15.502073">
        <ele>189.585</ele>
        <time>2021-10-28T18:03:40Z</time>
      </trkpt>
      <trkpt lat="28.105730" lon="-15.501487">
        <ele>187.095</ele>
        <time>2021-10-28T18:03:46Z</time>
      </trkpt>
      <trkpt lat="28.108721" lon="-15.501068">
        <ele>165.329</ele>
        <time>2021-10-28T18:04:14Z</time>
      </trkpt>
      <trkpt lat="28.110164" lon="-15.500335">
        <ele>153.034</ele>
        <time>2021-10-28T18:04:32Z</time>
      </trkpt>
      <trkpt lat="28.109501" lon="-15.500118">
        <ele>147.076</ele>
        <time>2021-10-28T18:04:42Z</time>
      </trkpt>
      <trkpt lat="28.109506" lon="-15.499396">
        <ele>146.273</ele>
        <time>2021-10-28T18:04:50Z</time>
      </trkpt>
      <trkpt lat="28.110637" lon="-15.499206">
        <ele>150.485</ele>
        <time>2021-10-28T18:05:14Z</time>
      </trkpt>
      <trkpt lat="28.112434" lon="-15.496793">
        <ele>165.413</ele>
        <time>2021-10-28T18:06:30Z</time>
      </trkpt>
      <trkpt lat="28.115335" lon="-15.494800">
        <ele>179.208</ele>
        <time>2021-10-28T18:08:01Z</time>
      </trkpt>
      <trkpt lat="28.117541" lon="-15.492380">
        <ele>190.115</ele>
        <time>2021-10-28T18:09:19Z</time>
      </trkpt>
      <trkpt lat="28.117154" lon="-15.491776">
        <ele>189.895</ele>
        <time>2021-10-28T18:09:35Z</time>
      </trkpt>
      <trkpt lat="28.113927" lon="-15.492643">
        <ele>188.212</ele>
        <time>2021-10-28T18:10:22Z</time>
      </trkpt>
      <trkpt lat="28.112993" lon="-15.492255">
        <ele>189.337</ele>
        <time>2021-10-28T18:10:40Z</time>
      </trkpt>
      <trkpt lat="28.111473" lon="-15.493093">
        <ele>190.947</ele>
        <time>2021-10-28T18:11:08Z</time>
      </trkpt>
      <trkpt lat="28.109958" lon="-15.493094">
        <ele>193.161</ele>
        <time>2021-10-28T18:11:33Z</time>
      </trkpt>
      <trkpt lat="28.108731" lon="-15.489446">
        <ele>207.876</ele>
        <time>2021-10-28T18:12:55Z</time>
      </trkpt>
      <trkpt lat="28.105175" lon="-15.488634">
        <ele>219.828</ele>
        <time>2021-10-28T18:15:05Z</time>
      </trkpt>
      <trkpt lat="28.104219" lon="-15.488818">
        <ele>219.561</ele>
        <time>2021-10-28T18:15:22Z</time>
      </trkpt>
      <trkpt lat="28.103990" lon="-15.488445">
        <ele>218.621</ele>
        <time>2021-10-28T18:15:28Z</time>
      </trkpt>
      <trkpt lat="28.104439" lon="-15.487887">
        <ele>218.013</ele>
        <time>2021-10-28T18:15:39Z</time>
      </trkpt>
      <trkpt lat="28.103974" lon="-15.486533">
        <ele>213.208</ele>
        <time>2021-10-28T18:15:57Z</time>
      </trkpt>
      <trkpt lat="28.102200" lon="-15.487334">
        <ele>200.484</ele>
        <time>2021-10-28T18:16:16Z</time>
      </trkpt>
      <trkpt lat="28.100739" lon="-15.486493">
        <ele>204.854</ele>
        <time>2021-10-28T18:16:37Z</time>
      </trkpt>
      <trkpt lat="28.100018" lon="-15.485437">
        <ele>205.661</ele>
        <time>2021-10-28T18:16:56Z</time>
      </trkpt>
      <trkpt lat="28.100411" lon="-15.484543">
        <ele>210.386</ele>
        <time>2021-10-28T18:17:17Z</time>
      </trkpt>
      <trkpt lat="28.098947" lon="-15.482135">
        <ele>224.186</ele>
        <time>2021-10-28T18:19:45Z</time>
      </trkpt>
      <trkpt lat="28.098219" lon="-15.479288">
        <ele>219.510</ele>
        <time>2021-10-28T18:20:21Z</time>
      </trkpt>
      <trkpt lat="28.093733" lon="-15.478184">
        <ele>194.825</ele>
        <time>2021-10-28T18:22:02Z</time>
      </trkpt>
      <trkpt lat="28.093869" lon="-15.474720">
        <ele>184.817</ele>
        <time>2021-10-28T18:22:54Z</time>
      </trkpt>
      <trkpt lat="28.094936" lon="-15.470042">
        <ele>172.611</ele>
        <time>2021-10-28T18:23:46Z</time>
      </trkpt>
      <trkpt lat="28.095726" lon="-15.469846">
        <ele>172.221</ele>
        <time>2021-10-28T18:23:59Z</time>
      </trkpt>
      <trkpt lat="28.096358" lon="-15.467912">
        <ele>173.303</ele>
        <time>2021-10-28T18:24:59Z</time>
      </trkpt>
      <trkpt lat="28.096801" lon="-15.468172">
        <ele>175.108</ele>
        <time>2021-10-28T18:26:10Z</time>
      </trkpt>
      <trkpt lat="28.096488" lon="-15.467945">
        <ele>173.299</ele>
        <time>2021-10-28T18:26:23Z</time>
      </trkpt>
      <trkpt lat="28.096791" lon="-15.467271">
        <ele>171.879</ele>
        <time>2021-10-28T18:26:35Z</time>
      </trkpt>
      <trkpt lat="28.096524" lon="-15.464456">
        <ele>165.546</ele>
        <time>2021-10-28T18:27:41Z</time>
      </trkpt>
      <trkpt lat="28.095693" lon="-15.462221">
        <ele>179.911</ele>
        <time>2021-10-28T18:29:01Z</time>
      </trkpt>
      <trkpt lat="28.096656" lon="-15.461854">
        <ele>183.731</ele>
        <time>2021-10-28T18:29:24Z</time>
      </trkpt>
      <trkpt lat="28.099931" lon="-15.461986">
        <ele>190.255</ele>
        <time>2021-10-28T18:30:31Z</time>
      </trkpt>
      <trkpt lat="28.102533" lon="-15.462648">
        <ele>192.170</ele>
        <time>2021-10-28T18:31:14Z</time>
      </trkpt>
      <trkpt lat="28.104317" lon="-15.461173">
        <ele>196.092</ele>
        <time>2021-10-28T18:31:54Z</time>
      </trkpt>
      <trkpt lat="28.105497" lon="-15.461108">
        <ele>195.651</ele>
        <time>2021-10-28T18:32:12Z</time>
      </trkpt>
      <trkpt lat="28.110926" lon="-15.457845">
        <ele>173.301</ele>
        <time>2021-10-28T18:33:24Z</time>
      </trkpt>
      <trkpt lat="28.112157" lon="-15.456394">
        <ele>164.311</ele>
        <time>2021-10-28T18:33:40Z</time>
      </trkpt>
      <trkpt lat="28.114518" lon="-15.455510">
        <ele>163.908</ele>
        <time>2021-10-28T18:34:14Z</time>
      </trkpt>
      <trkpt lat="28.114619" lon="-15.455087">
        <ele>162.273</ele>
        <time>2021-10-28T18:34:25Z</time>
      </trkpt>
      <trkpt lat="28.115133" lon="-15.455351">
        <ele>162.663</ele>
        <time>2021-10-28T18:34:36Z</time>
      </trkpt>
      <trkpt lat="28.117876" lon="-15.453521">
        <ele>155.550</ele>
        <time>2021-10-28T18:36:30Z</time>
      </trkpt>
      <trkpt lat="28.118185" lon="-15.453692">
        <ele>155.165</ele>
        <time>2021-10-28T18:36:41Z</time>
      </trkpt>
      <trkpt lat="28.119393" lon="-15.451729">
        <ele>150.385</ele>
        <time>2021-10-28T18:37:14Z</time>
      </trkpt>
      <trkpt lat="28.119686" lon="-15.450178">
        <ele>143.339</ele>
        <time>2021-10-28T18:37:33Z</time>
      </trkpt>
      <trkpt lat="28.120575" lon="-15.451378">
        <ele>134.084</ele>
        <time>2021-10-28T18:39:09Z</time>
      </trkpt>
      <trkpt lat="28.120078" lon="-15.448289">
        <ele>107.986</ele>
        <time>2021-10-28T18:39:42Z</time>
      </trkpt>
      <trkpt lat="28.119539" lon="-15.447955">
        <ele>102.366</ele>
        <time>2021-10-28T18:39:52Z</time>
      </trkpt>
      <trkpt lat="28.120007" lon="-15.447449">
        <ele>96.229</ele>
        <time>2021-10-28T18:40:02Z</time>
      </trkpt>
      <trkpt lat="28.120822" lon="-15.447761">
        <ele>90.321</ele>
        <time>2021-10-28T18:40:12Z</time>
      </trkpt>
      <trkpt lat="28.122844" lon="-15.446659">
        <ele>82.008</ele>
        <time>2021-10-28T18:40:50Z</time>
      </trkpt>
      <trkpt lat="28.125449" lon="-15.447035">
        <ele>66.934</ele>
        <time>2021-10-28T18:41:26Z</time>
      </trkpt>
      <trkpt lat="28.125641" lon="-15.445585">
        <ele>54.864</ele>
        <time>2021-10-28T18:41:43Z</time>
      </trkpt>
      <trkpt lat="28.127075" lon="-15.444565">
        <ele>43.251</ele>
        <time>2021-10-28T18:42:02Z</time>
      </trkpt>
      <trkpt lat="28.127258" lon="-15.442728">
        <ele>32.156</ele>
        <time>2021-10-28T18:42:23Z</time>
      </trkpt>
      <trkpt lat="28.128881" lon="-15.441256">
        <ele>25.246</ele>
        <time>2021-10-28T18:43:36Z</time>
      </trkpt>
      <trkpt lat="28.132041" lon="-15.441048">
        <ele>20.320</ele>
        <time>2021-10-28T18:53:18Z</time>
      </trkpt>
      <trkpt lat="28.131269" lon="-15.439176">
        <ele>22.465</ele>
        <time>2021-10-28T18:54:45Z</time>
      </trkpt>
      <trkpt lat="28.132349" lon="-15.437750">
        <ele>21.087</ele>
        <time>2021-10-28T18:56:23Z</time>
      </trkpt>
      <trkpt lat="28.130984" lon="-15.436321">
        <ele>28.656</ele>
        <time>2021-10-28T18:57:06Z</time>
      </trkpt>
      <trkpt lat="28.131152" lon="-15.434787">
        <ele>32.859</ele>
        <time>2021-10-28T18:58:29Z</time>
      </trkpt>
      <trkpt lat="28.133072" lon="-15.434881">
        <ele>23.814</ele>
        <time>2021-10-28T18:59:01Z</time>
      </trkpt>
      <trkpt lat="28.133199" lon="-15.434039">
        <ele>22.808</ele>
        <time>2021-10-28T18:59:31Z</time>
      </trkpt>
      <trkpt lat="28.132611" lon="-15.433923">
        <ele>22.693</ele>
        <time>2021-10-28T18:59:42Z</time>
      </trkpt>
      <trkpt lat="28.132504" lon="-15.432248">
        <ele>19.613</ele>
        <time>2021-10-28T19:01:28Z</time>
      </trkpt>
      <trkpt lat="28.132060" lon="-15.432249">
        <ele>19.730</ele>
        <time>2021-10-28T19:02:54Z</time>
      </trkpt>
      <trkpt lat="28.132447" lon="-15.432219">
        <ele>19.695</ele>
        <time>2021-10-28T19:04:54Z</time>
      </trkpt>
    </trkseg>
  </trk>
</gpx>
